<?xml version="1.0" encoding="UTF-8" standalone="no" ?>
<gpx xmlns="http://www.topografix.com/GPX/1/1" creator="MapSource 6.16.3" version="1.1" xmlns:xsi="http://www.w3.org/2001/XMLSchema-instance" xsi:schemaLocation="http://www.topografix.com/GPX/1/1 http://www.topografix.com/GPX/1/1/gpx.xsd">

  <metadata>
    <link href="http://www.garmin.com">
      <text>Garmin International</text>
    </link>
    <time>2016-09-17T12:28:05Z</time>
    <bounds maxlat="46.254093647003174" maxlon="8.312959671020508" minlat="46.234824657440186" minlon="8.273177146911621"/>
  </metadata>

  <wpt lat="46.234951140359044" lon="8.304163869470358">
    <name>001 U DX</name>
    <cmt> Sp73</cmt>
    <desc> Sp73</desc>
    <sym>Waypoint</sym>
    <extensions>
      <gpxx:WaypointExtension xmlns:gpxx="http://www.garmin.com/xmlschemas/GpxExtensions/v3">
        <gpxx:DisplayMode>SymbolAndName</gpxx:DisplayMode>
      </gpxx:WaypointExtension>
    </extensions>
  </wpt>

  <wpt lat="46.2444166559726" lon="8.283800035715103">
    <name>002 D DX</name>
    <sym>Waypoint</sym>
    <extensions>
      <gpxx:WaypointExtension xmlns:gpxx="http://www.garmin.com/xmlschemas/GpxExtensions/v3">
        <gpxx:DisplayMode>SymbolAndName</gpxx:DisplayMode>
      </gpxx:WaypointExtension>
    </extensions>
  </wpt>

  <wpt lat="46.238771947100759" lon="8.312550717964768">
    <name>ARRIVO</name>
    <cmt>Cravegna</cmt>
    <desc>Cravegna</desc>
    <sym>Diamond, Green</sym>
    <extensions>
      <gpxx:WaypointExtension xmlns:gpxx="http://www.garmin.com/xmlschemas/GpxExtensions/v3">
        <gpxx:DisplayMode>SymbolAndName</gpxx:DisplayMode>
      </gpxx:WaypointExtension>
    </extensions>
  </wpt>

  <wpt lat="46.251333318650723" lon="8.287383299320936">
    <name>DECCIA BASSA</name>
    <sym>Building</sym>
    <extensions>
      <gpxx:WaypointExtension xmlns:gpxx="http://www.garmin.com/xmlschemas/GpxExtensions/v3">
        <gpxx:DisplayMode>SymbolAndName</gpxx:DisplayMode>
      </gpxx:WaypointExtension>
    </extensions>
  </wpt>

  <wpt lat="46.23890002258122" lon="8.312600003555417">
    <name>PARTENZA</name>
    <cmt>Cravegna</cmt>
    <desc>Cravegna</desc>
    <sym>Trail Head</sym>
    <extensions>
      <gpxx:WaypointExtension xmlns:gpxx="http://www.garmin.com/xmlschemas/GpxExtensions/v3">
        <gpxx:DisplayMode>SymbolAndName</gpxx:DisplayMode>
      </gpxx:WaypointExtension>
    </extensions>
  </wpt>

  <trk>
    <name>ACTIVE LOG</name>
    <trkseg>
      <trkpt lat="46.238901615142822" lon="8.312594890594482">
        <ele>833.11962890625</ele>
        <time>2008-06-29T07:58:34Z</time>
      </trkpt>
      <trkpt lat="46.238880157470703" lon="8.312616348266602">
        <ele>840.81005859375</ele>
        <time>2008-06-29T07:59:09Z</time>
      </trkpt>
      <trkpt lat="46.238794326782227" lon="8.312616348266602">
        <ele>840.81005859375</ele>
        <time>2008-06-29T07:59:15Z</time>
      </trkpt>
      <trkpt lat="46.238644123077393" lon="8.312594890594482">
        <ele>841.771484375</ele>
        <time>2008-06-29T07:59:24Z</time>
      </trkpt>
      <trkpt lat="46.23845100402832" lon="8.312573432922363">
        <ele>842.73291015625</ele>
        <time>2008-06-29T07:59:34Z</time>
      </trkpt>
      <trkpt lat="46.238300800323486" lon="8.312573432922363">
        <ele>843.694091796875</ele>
        <time>2008-06-29T07:59:43Z</time>
      </trkpt>
      <trkpt lat="46.238086223602295" lon="8.312616348266602">
        <ele>845.13623046875</ele>
        <time>2008-06-29T07:59:54Z</time>
      </trkpt>
      <trkpt lat="46.237893104553223" lon="8.312680721282959">
        <ele>848.020263671875</ele>
        <time>2008-06-29T08:00:05Z</time>
      </trkpt>
      <trkpt lat="46.23772144317627" lon="8.312745094299316">
        <ele>848.9814453125</ele>
        <time>2008-06-29T08:00:15Z</time>
      </trkpt>
      <trkpt lat="46.237485408782959" lon="8.31289529800415">
        <ele>849.462158203125</ele>
        <time>2008-06-29T08:00:29Z</time>
      </trkpt>
      <trkpt lat="46.237335205078125" lon="8.312938213348389">
        <ele>850.423583984375</ele>
        <time>2008-06-29T08:00:38Z</time>
      </trkpt>
      <trkpt lat="46.237142086029053" lon="8.312959671020508">
        <ele>851.384765625</ele>
        <time>2008-06-29T08:00:49Z</time>
      </trkpt>
      <trkpt lat="46.2369704246521" lon="8.312959671020508">
        <ele>853.7880859375</ele>
        <time>2008-06-29T08:01:00Z</time>
      </trkpt>
      <trkpt lat="46.236777305603027" lon="8.312938213348389">
        <ele>856.671875</ele>
        <time>2008-06-29T08:01:11Z</time>
      </trkpt>
      <trkpt lat="46.236584186553955" lon="8.31289529800415">
        <ele>858.114013671875</ele>
        <time>2008-06-29T08:01:22Z</time>
      </trkpt>
      <trkpt lat="46.236433982849121" lon="8.312809467315674">
        <ele>858.594482421875</ele>
        <time>2008-06-29T08:01:32Z</time>
      </trkpt>
      <trkpt lat="46.236369609832764" lon="8.312573432922363">
        <ele>858.594482421875</ele>
        <time>2008-06-29T08:01:41Z</time>
      </trkpt>
      <trkpt lat="46.236433982849121" lon="8.312380313873291">
        <ele>858.594482421875</ele>
        <time>2008-06-29T08:01:49Z</time>
      </trkpt>
      <trkpt lat="46.236519813537598" lon="8.312144279479981">
        <ele>858.594482421875</ele>
        <time>2008-06-29T08:01:59Z</time>
      </trkpt>
      <trkpt lat="46.236584186553955" lon="8.311865329742432">
        <ele>859.0751953125</ele>
        <time>2008-06-29T08:02:10Z</time>
      </trkpt>
      <trkpt lat="46.236691474914551" lon="8.311607837677002">
        <ele>862.43994140625</ele>
        <time>2008-06-29T08:02:23Z</time>
      </trkpt>
      <trkpt lat="46.236755847930908" lon="8.311371803283691">
        <ele>864.84326171875</ele>
        <time>2008-06-29T08:02:34Z</time>
      </trkpt>
      <trkpt lat="46.236798763275146" lon="8.311135768890381">
        <ele>866.765869140625</ele>
        <time>2008-06-29T08:02:44Z</time>
      </trkpt>
      <trkpt lat="46.236863136291504" lon="8.31089973449707">
        <ele>868.6884765625</ele>
        <time>2008-06-29T08:02:55Z</time>
      </trkpt>
      <trkpt lat="46.236906051635742" lon="8.310706615447998">
        <ele>870.13037109375</ele>
        <time>2008-06-29T08:03:03Z</time>
      </trkpt>
      <trkpt lat="46.23694896697998" lon="8.310449123382568">
        <ele>871.572265625</ele>
        <time>2008-06-29T08:03:13Z</time>
      </trkpt>
      <trkpt lat="46.236927509307861" lon="8.31017017364502">
        <ele>872.53369140625</ele>
        <time>2008-06-29T08:03:24Z</time>
      </trkpt>
      <trkpt lat="46.236841678619385" lon="8.309891223907471">
        <ele>873.9755859375</ele>
        <time>2008-06-29T08:03:35Z</time>
      </trkpt>
      <trkpt lat="46.23671293258667" lon="8.309633731842041">
        <ele>874.93701171875</ele>
        <time>2008-06-29T08:03:46Z</time>
      </trkpt>
      <trkpt lat="46.236605644226074" lon="8.309333324432373">
        <ele>874.93701171875</ele>
        <time>2008-06-29T08:03:57Z</time>
      </trkpt>
      <trkpt lat="46.236584186553955" lon="8.309054374694824">
        <ele>874.93701171875</ele>
        <time>2008-06-29T08:04:03Z</time>
      </trkpt>
      <trkpt lat="46.23671293258667" lon="8.308603763580322">
        <ele>874.456298828125</ele>
        <time>2008-06-29T08:04:13Z</time>
      </trkpt>
      <trkpt lat="46.236820220947266" lon="8.308196067810059">
        <ele>873.014404296875</ele>
        <time>2008-06-29T08:04:22Z</time>
      </trkpt>
      <trkpt lat="46.236884593963623" lon="8.307681083679199">
        <ele>871.572265625</ele>
        <time>2008-06-29T08:04:33Z</time>
      </trkpt>
      <trkpt lat="46.237013339996338" lon="8.307359218597412">
        <ele>871.091796875</ele>
        <time>2008-06-29T08:04:41Z</time>
      </trkpt>
      <trkpt lat="46.237227916717529" lon="8.306972980499268">
        <ele>871.572265625</ele>
        <time>2008-06-29T08:04:51Z</time>
      </trkpt>
      <trkpt lat="46.237120628356934" lon="8.306779861450195">
        <ele>871.572265625</ele>
        <time>2008-06-29T08:04:56Z</time>
      </trkpt>
      <trkpt lat="46.236991882324219" lon="8.306779861450195">
        <ele>872.53369140625</ele>
        <time>2008-06-29T08:05:00Z</time>
      </trkpt>
      <trkpt lat="46.23671293258667" lon="8.306758403778076">
        <ele>873.014404296875</ele>
        <time>2008-06-29T08:05:08Z</time>
      </trkpt>
      <trkpt lat="46.236433982849121" lon="8.306586742401123">
        <ele>873.014404296875</ele>
        <time>2008-06-29T08:05:17Z</time>
      </trkpt>
      <trkpt lat="46.23621940612793" lon="8.306393623352051">
        <ele>873.014404296875</ele>
        <time>2008-06-29T08:05:25Z</time>
      </trkpt>
      <trkpt lat="46.235983371734619" lon="8.30592155456543">
        <ele>874.456298828125</ele>
        <time>2008-06-29T08:05:37Z</time>
      </trkpt>
      <trkpt lat="46.235747337341309" lon="8.3056640625">
        <ele>874.93701171875</ele>
        <time>2008-06-29T08:05:46Z</time>
      </trkpt>
      <trkpt lat="46.235532760620117" lon="8.305385112762451">
        <ele>874.93701171875</ele>
        <time>2008-06-29T08:05:54Z</time>
      </trkpt>
      <trkpt lat="46.235275268554688" lon="8.30491304397583">
        <ele>874.93701171875</ele>
        <time>2008-06-29T08:06:05Z</time>
      </trkpt>
      <trkpt lat="46.2349534034729" lon="8.304312229156494">
        <ele>874.93701171875</ele>
        <time>2008-06-29T08:06:19Z</time>
      </trkpt>
      <trkpt lat="46.2349534034729" lon="8.30416202545166">
        <ele>873.4951171875</ele>
        <time>2008-06-29T08:06:39Z</time>
      </trkpt>
      <trkpt lat="46.2349534034729" lon="8.304119110107422">
        <ele>874.456298828125</ele>
        <time>2008-06-29T08:06:40Z</time>
      </trkpt>
      <trkpt lat="46.234910488128662" lon="8.303861618041992">
        <ele>877.340576171875</ele>
        <time>2008-06-29T08:06:50Z</time>
      </trkpt>
      <trkpt lat="46.234889030456543" lon="8.303604125976563">
        <ele>878.3017578125</ele>
        <time>2008-06-29T08:07:00Z</time>
      </trkpt>
      <trkpt lat="46.234846115112305" lon="8.303432464599609">
        <ele>879.74365234375</ele>
        <time>2008-06-29T08:07:09Z</time>
      </trkpt>
      <trkpt lat="46.234824657440186" lon="8.30341100692749">
        <ele>880.224365234375</ele>
        <time>2008-06-29T08:07:11Z</time>
      </trkpt>
      <trkpt lat="46.234824657440186" lon="8.303346633911133">
        <ele>881.666259765625</ele>
        <time>2008-06-29T08:07:14Z</time>
      </trkpt>
      <trkpt lat="46.234846115112305" lon="8.303325176239014">
        <ele>884.069580078125</ele>
        <time>2008-06-29T08:07:19Z</time>
      </trkpt>
      <trkpt lat="46.2349534034729" lon="8.303432464599609">
        <ele>886.953369140625</ele>
        <time>2008-06-29T08:07:31Z</time>
      </trkpt>
      <trkpt lat="46.235017776489258" lon="8.303539752960205">
        <ele>889.83740234375</ele>
        <time>2008-06-29T08:07:40Z</time>
      </trkpt>
      <trkpt lat="46.235060691833496" lon="8.303689956665039">
        <ele>891.760009765625</ele>
        <time>2008-06-29T08:07:52Z</time>
      </trkpt>
      <trkpt lat="46.235146522521973" lon="8.303883075714111">
        <ele>894.16357421875</ele>
        <time>2008-06-29T08:08:07Z</time>
      </trkpt>
      <trkpt lat="46.235189437866211" lon="8.303990364074707">
        <ele>895.124755859375</ele>
        <time>2008-06-29T08:08:15Z</time>
      </trkpt>
      <trkpt lat="46.235253810882568" lon="8.30392599105835">
        <ele>890.798583984375</ele>
        <time>2008-06-29T08:08:49Z</time>
      </trkpt>
      <trkpt lat="46.235253810882568" lon="8.304033279418945">
        <ele>893.682861328125</ele>
        <time>2008-06-29T08:09:14Z</time>
      </trkpt>
      <trkpt lat="46.235361099243164" lon="8.304183483123779">
        <ele>896.086181640625</ele>
        <time>2008-06-29T08:09:23Z</time>
      </trkpt>
      <trkpt lat="46.235532760620117" lon="8.304355144500732">
        <ele>899.931396484375</ele>
        <time>2008-06-29T08:09:37Z</time>
      </trkpt>
      <trkpt lat="46.235640048980713" lon="8.304569721221924">
        <ele>900.412109375</ele>
        <time>2008-06-29T08:09:48Z</time>
      </trkpt>
      <trkpt lat="46.235747337341309" lon="8.304741382598877">
        <ele>901.373291015625</ele>
        <time>2008-06-29T08:09:58Z</time>
      </trkpt>
      <trkpt lat="46.235983371734619" lon="8.304977416992188">
        <ele>903.2958984375</ele>
        <time>2008-06-29T08:10:15Z</time>
      </trkpt>
      <trkpt lat="46.236090660095215" lon="8.305106163024902">
        <ele>905.69921875</ele>
        <time>2008-06-29T08:10:25Z</time>
      </trkpt>
      <trkpt lat="46.236176490783691" lon="8.305106163024902">
        <ele>905.69921875</ele>
        <time>2008-06-29T08:10:30Z</time>
      </trkpt>
      <trkpt lat="46.236197948455811" lon="8.305020332336426">
        <ele>907.14111328125</ele>
        <time>2008-06-29T08:10:36Z</time>
      </trkpt>
      <trkpt lat="46.236133575439453" lon="8.304870128631592">
        <ele>908.583251953125</ele>
        <time>2008-06-29T08:10:46Z</time>
      </trkpt>
      <trkpt lat="46.236112117767334" lon="8.304741382598877">
        <ele>909.544677734375</ele>
        <time>2008-06-29T08:10:54Z</time>
      </trkpt>
      <trkpt lat="46.236069202423096" lon="8.304591178894043">
        <ele>910.986572265625</ele>
        <time>2008-06-29T08:11:04Z</time>
      </trkpt>
      <trkpt lat="46.235983371734619" lon="8.304376602172852">
        <ele>911.947998046875</ele>
        <time>2008-06-29T08:11:18Z</time>
      </trkpt>
      <trkpt lat="46.235918998718262" lon="8.304247856140137">
        <ele>913.870361328125</ele>
        <time>2008-06-29T08:11:28Z</time>
      </trkpt>
      <trkpt lat="46.235854625701904" lon="8.304033279418945">
        <ele>914.831787109375</ele>
        <time>2008-06-29T08:11:42Z</time>
      </trkpt>
      <trkpt lat="46.235833168029785" lon="8.303861618041992">
        <ele>917.235107421875</ele>
        <time>2008-06-29T08:11:53Z</time>
      </trkpt>
      <trkpt lat="46.235790252685547" lon="8.303711414337158">
        <ele>918.677001953125</ele>
        <time>2008-06-29T08:12:03Z</time>
      </trkpt>
      <trkpt lat="46.235747337341309" lon="8.303539752960205">
        <ele>925.886962890625</ele>
        <time>2008-06-29T08:12:16Z</time>
      </trkpt>
      <trkpt lat="46.235725879669189" lon="8.303432464599609">
        <ele>928.290283203125</ele>
        <time>2008-06-29T08:12:23Z</time>
      </trkpt>
      <trkpt lat="46.235768795013428" lon="8.303389549255371">
        <ele>930.212890625</ele>
        <time>2008-06-29T08:12:28Z</time>
      </trkpt>
      <trkpt lat="46.235811710357666" lon="8.303453922271729">
        <ele>932.135498046875</ele>
        <time>2008-06-29T08:12:34Z</time>
      </trkpt>
      <trkpt lat="46.235897541046143" lon="8.303561210632324">
        <ele>935.01953125</ele>
        <time>2008-06-29T08:12:44Z</time>
      </trkpt>
      <trkpt lat="46.235983371734619" lon="8.303689956665039">
        <ele>938.86474609375</ele>
        <time>2008-06-29T08:12:55Z</time>
      </trkpt>
      <trkpt lat="46.236047744750977" lon="8.303840160369873">
        <ele>940.306884765625</ele>
        <time>2008-06-29T08:13:06Z</time>
      </trkpt>
      <trkpt lat="46.236155033111572" lon="8.303904533386231">
        <ele>940.306884765625</ele>
        <time>2008-06-29T08:13:15Z</time>
      </trkpt>
      <trkpt lat="46.236176490783691" lon="8.303861618041992">
        <ele>941.748779296875</ele>
        <time>2008-06-29T08:13:18Z</time>
      </trkpt>
      <trkpt lat="46.236155033111572" lon="8.303732872009277">
        <ele>944.152099609375</ele>
        <time>2008-06-29T08:13:27Z</time>
      </trkpt>
      <trkpt lat="46.236090660095215" lon="8.303582668304443">
        <ele>947.035888671875</ele>
        <time>2008-06-29T08:13:39Z</time>
      </trkpt>
      <trkpt lat="46.236069202423096" lon="8.303432464599609">
        <ele>950.400634765625</ele>
        <time>2008-06-29T08:13:48Z</time>
      </trkpt>
      <trkpt lat="46.236047744750977" lon="8.303303718566895">
        <ele>953.284423828125</ele>
        <time>2008-06-29T08:13:57Z</time>
      </trkpt>
      <trkpt lat="46.236069202423096" lon="8.303153514862061">
        <ele>953.284423828125</ele>
        <time>2008-06-29T08:14:07Z</time>
      </trkpt>
      <trkpt lat="46.236026287078857" lon="8.303003311157227">
        <ele>955.687744140625</ele>
        <time>2008-06-29T08:14:17Z</time>
      </trkpt>
      <trkpt lat="46.235983371734619" lon="8.302874565124512">
        <ele>957.610595703125</ele>
        <time>2008-06-29T08:14:28Z</time>
      </trkpt>
      <trkpt lat="46.2359619140625" lon="8.302745819091797">
        <ele>958.57177734375</ele>
        <time>2008-06-29T08:14:39Z</time>
      </trkpt>
      <trkpt lat="46.235940456390381" lon="8.302617073059082">
        <ele>959.052490234375</ele>
        <time>2008-06-29T08:14:49Z</time>
      </trkpt>
      <trkpt lat="46.235918998718262" lon="8.302531242370606">
        <ele>958.57177734375</ele>
        <time>2008-06-29T08:14:57Z</time>
      </trkpt>
      <trkpt lat="46.235876083374023" lon="8.30242395401001">
        <ele>959.052490234375</ele>
        <time>2008-06-29T08:15:07Z</time>
      </trkpt>
      <trkpt lat="46.235854625701904" lon="8.302273750305176">
        <ele>960.013671875</ele>
        <time>2008-06-29T08:15:18Z</time>
      </trkpt>
      <trkpt lat="46.235833168029785" lon="8.302209377288818">
        <ele>960.97509765625</ele>
        <time>2008-06-29T08:15:24Z</time>
      </trkpt>
      <trkpt lat="46.235790252685547" lon="8.302123546600342">
        <ele>960.97509765625</ele>
        <time>2008-06-29T08:15:31Z</time>
      </trkpt>
      <trkpt lat="46.235747337341309" lon="8.302016258239746">
        <ele>962.4169921875</ele>
        <time>2008-06-29T08:15:41Z</time>
      </trkpt>
      <trkpt lat="46.23570442199707" lon="8.30190896987915">
        <ele>961.9365234375</ele>
        <time>2008-06-29T08:15:50Z</time>
      </trkpt>
      <trkpt lat="46.235661506652832" lon="8.301823139190674">
        <ele>964.339599609375</ele>
        <time>2008-06-29T08:15:59Z</time>
      </trkpt>
      <trkpt lat="46.235597133636475" lon="8.301694393157959">
        <ele>964.8203125</ele>
        <time>2008-06-29T08:16:10Z</time>
      </trkpt>
      <trkpt lat="46.235532760620117" lon="8.301608562469482">
        <ele>965.78173828125</ele>
        <time>2008-06-29T08:16:19Z</time>
      </trkpt>
      <trkpt lat="46.235532760620117" lon="8.301522731781006">
        <ele>966.26220703125</ele>
        <time>2008-06-29T08:16:26Z</time>
      </trkpt>
      <trkpt lat="46.235597133636475" lon="8.301522731781006">
        <ele>966.742919921875</ele>
        <time>2008-06-29T08:16:32Z</time>
      </trkpt>
      <trkpt lat="46.235682964324951" lon="8.301630020141602">
        <ele>968.184814453125</ele>
        <time>2008-06-29T08:16:45Z</time>
      </trkpt>
      <trkpt lat="46.235747337341309" lon="8.301737308502197">
        <ele>970.107421875</ele>
        <time>2008-06-29T08:16:55Z</time>
      </trkpt>
      <trkpt lat="46.235854625701904" lon="8.301866054534912">
        <ele>972.0302734375</ele>
        <time>2008-06-29T08:17:10Z</time>
      </trkpt>
      <trkpt lat="46.235940456390381" lon="8.301866054534912">
        <ele>972.99169921875</ele>
        <time>2008-06-29T08:17:20Z</time>
      </trkpt>
      <trkpt lat="46.236047744750977" lon="8.301844596862793">
        <ele>973.472412109375</ele>
        <time>2008-06-29T08:17:33Z</time>
      </trkpt>
      <trkpt lat="46.236090660095215" lon="8.301844596862793">
        <ele>973.952880859375</ele>
        <time>2008-06-29T08:17:36Z</time>
      </trkpt>
      <trkpt lat="46.236133575439453" lon="8.301887512207031">
        <ele>974.43359375</ele>
        <time>2008-06-29T08:17:42Z</time>
      </trkpt>
      <trkpt lat="46.236176490783691" lon="8.302016258239746">
        <ele>975.87548828125</ele>
        <time>2008-06-29T08:17:54Z</time>
      </trkpt>
      <trkpt lat="46.236240863800049" lon="8.302123546600342">
        <ele>977.317626953125</ele>
        <time>2008-06-29T08:18:04Z</time>
      </trkpt>
      <trkpt lat="46.236305236816406" lon="8.302080631256104">
        <ele>976.8369140625</ele>
        <time>2008-06-29T08:18:13Z</time>
      </trkpt>
      <trkpt lat="46.236305236816406" lon="8.302059173583984">
        <ele>976.8369140625</ele>
        <time>2008-06-29T08:18:14Z</time>
      </trkpt>
      <trkpt lat="46.236283779144287" lon="8.301951885223389">
        <ele>979.720703125</ele>
        <time>2008-06-29T08:18:23Z</time>
      </trkpt>
      <trkpt lat="46.236262321472168" lon="8.301887512207031">
        <ele>981.162841796875</ele>
        <time>2008-06-29T08:18:29Z</time>
      </trkpt>
      <trkpt lat="46.236197948455811" lon="8.301758766174316">
        <ele>984.52734375</ele>
        <time>2008-06-29T08:18:41Z</time>
      </trkpt>
      <trkpt lat="46.236176490783691" lon="8.301651477813721">
        <ele>985.488525390625</ele>
        <time>2008-06-29T08:18:50Z</time>
      </trkpt>
      <trkpt lat="46.236112117767334" lon="8.301522731781006">
        <ele>986.449951171875</ele>
        <time>2008-06-29T08:19:01Z</time>
      </trkpt>
      <trkpt lat="46.236069202423096" lon="8.301372528076172">
        <ele>987.891845703125</ele>
        <time>2008-06-29T08:19:13Z</time>
      </trkpt>
      <trkpt lat="46.236004829406738" lon="8.301265239715576">
        <ele>988.853515625</ele>
        <time>2008-06-29T08:19:25Z</time>
      </trkpt>
      <trkpt lat="46.235918998718262" lon="8.301157951354981">
        <ele>989.814697265625</ele>
        <time>2008-06-29T08:19:36Z</time>
      </trkpt>
      <trkpt lat="46.235790252685547" lon="8.301050662994385">
        <ele>991.256591796875</ele>
        <time>2008-06-29T08:19:49Z</time>
      </trkpt>
      <trkpt lat="46.235725879669189" lon="8.300943374633789">
        <ele>992.69873046875</ele>
        <time>2008-06-29T08:20:01Z</time>
      </trkpt>
      <trkpt lat="46.235768795013428" lon="8.300814628601074">
        <ele>994.140625</ele>
        <time>2008-06-29T08:20:12Z</time>
      </trkpt>
      <trkpt lat="46.235854625701904" lon="8.300879001617432">
        <ele>995.58251953125</ele>
        <time>2008-06-29T08:20:21Z</time>
      </trkpt>
      <trkpt lat="46.235897541046143" lon="8.30092191696167">
        <ele>996.5439453125</ele>
        <time>2008-06-29T08:20:27Z</time>
      </trkpt>
      <trkpt lat="46.235918998718262" lon="8.300964832305908">
        <ele>997.505126953125</ele>
        <time>2008-06-29T08:20:32Z</time>
      </trkpt>
      <trkpt lat="46.236026287078857" lon="8.301050662994385">
        <ele>998.46630859375</ele>
        <time>2008-06-29T08:20:45Z</time>
      </trkpt>
      <trkpt lat="46.236090660095215" lon="8.301115036010742">
        <ele>999.427734375</ele>
        <time>2008-06-29T08:20:54Z</time>
      </trkpt>
      <trkpt lat="46.236155033111572" lon="8.3011794090271">
        <ele>1000.38916015625</ele>
        <time>2008-06-29T08:21:03Z</time>
      </trkpt>
      <trkpt lat="46.236262321472168" lon="8.301286697387695">
        <ele>1002.3115234375</ele>
        <time>2008-06-29T08:21:15Z</time>
      </trkpt>
      <trkpt lat="46.236348152160645" lon="8.301393985748291">
        <ele>1003.27294921875</ele>
        <time>2008-06-29T08:21:27Z</time>
      </trkpt>
      <trkpt lat="46.236433982849121" lon="8.301544189453125">
        <ele>1005.19580078125</ele>
        <time>2008-06-29T08:21:40Z</time>
      </trkpt>
      <trkpt lat="46.236476898193359" lon="8.301630020141602">
        <ele>1006.6376953125</ele>
        <time>2008-06-29T08:21:48Z</time>
      </trkpt>
      <trkpt lat="46.236584186553955" lon="8.301715850830078">
        <ele>1009.041015625</ele>
        <time>2008-06-29T08:22:00Z</time>
      </trkpt>
      <trkpt lat="46.23671293258667" lon="8.301715850830078">
        <ele>1009.041015625</ele>
        <time>2008-06-29T08:22:12Z</time>
      </trkpt>
      <trkpt lat="46.236777305603027" lon="8.301715850830078">
        <ele>1010.002197265625</ele>
        <time>2008-06-29T08:22:18Z</time>
      </trkpt>
      <trkpt lat="46.236884593963623" lon="8.301715850830078">
        <ele>1011.4443359375</ele>
        <time>2008-06-29T08:22:29Z</time>
      </trkpt>
      <trkpt lat="46.236991882324219" lon="8.301801681518555">
        <ele>1012.88623046875</ele>
        <time>2008-06-29T08:22:40Z</time>
      </trkpt>
      <trkpt lat="46.237013339996338" lon="8.301866054534912">
        <ele>1013.366943359375</ele>
        <time>2008-06-29T08:22:46Z</time>
      </trkpt>
      <trkpt lat="46.237099170684814" lon="8.301994800567627">
        <ele>1015.28955078125</ele>
        <time>2008-06-29T08:22:58Z</time>
      </trkpt>
      <trkpt lat="46.237185001373291" lon="8.302102088928223">
        <ele>1014.808837890625</ele>
        <time>2008-06-29T08:23:11Z</time>
      </trkpt>
      <trkpt lat="46.237270832061768" lon="8.302209377288818">
        <ele>1017.692626953125</ele>
        <time>2008-06-29T08:23:23Z</time>
      </trkpt>
      <trkpt lat="46.237378120422363" lon="8.302273750305176">
        <ele>1019.134765625</ele>
        <time>2008-06-29T08:23:36Z</time>
      </trkpt>
      <trkpt lat="46.237485408782959" lon="8.302338123321533">
        <ele>1020.576904296875</ele>
        <time>2008-06-29T08:23:50Z</time>
      </trkpt>
      <trkpt lat="46.237549781799316" lon="8.302402496337891">
        <ele>1022.018798828125</ele>
        <time>2008-06-29T08:23:58Z</time>
      </trkpt>
      <trkpt lat="46.237635612487793" lon="8.302445411682129">
        <ele>1022.018798828125</ele>
        <time>2008-06-29T08:24:09Z</time>
      </trkpt>
      <trkpt lat="46.23772144317627" lon="8.302531242370606">
        <ele>1023.4609375</ele>
        <time>2008-06-29T08:24:20Z</time>
      </trkpt>
      <trkpt lat="46.237785816192627" lon="8.302595615386963">
        <ele>1024.90283203125</ele>
        <time>2008-06-29T08:24:29Z</time>
      </trkpt>
      <trkpt lat="46.237871646881104" lon="8.30265998840332">
        <ele>1024.90283203125</ele>
        <time>2008-06-29T08:24:41Z</time>
      </trkpt>
      <trkpt lat="46.237893104553223" lon="8.30265998840332">
        <ele>1024.422119140625</ele>
        <time>2008-06-29T08:24:42Z</time>
      </trkpt>
      <trkpt lat="46.237936019897461" lon="8.30268144607544">
        <ele>1025.38330078125</ele>
        <time>2008-06-29T08:24:46Z</time>
      </trkpt>
      <trkpt lat="46.237978935241699" lon="8.302595615386963">
        <ele>1029.228515625</ele>
        <time>2008-06-29T08:24:57Z</time>
      </trkpt>
      <trkpt lat="46.237978935241699" lon="8.302574157714844">
        <ele>1029.228515625</ele>
        <time>2008-06-29T08:24:59Z</time>
      </trkpt>
      <trkpt lat="46.237936019897461" lon="8.302488327026367">
        <ele>1028.267333984375</ele>
        <time>2008-06-29T08:25:09Z</time>
      </trkpt>
      <trkpt lat="46.237871646881104" lon="8.302445411682129">
        <ele>1029.228515625</ele>
        <time>2008-06-29T08:25:18Z</time>
      </trkpt>
      <trkpt lat="46.237828731536865" lon="8.302359580993652">
        <ele>1028.267333984375</ele>
        <time>2008-06-29T08:25:28Z</time>
      </trkpt>
      <trkpt lat="46.237764358520508" lon="8.302230834960938">
        <ele>1030.670654296875</ele>
        <time>2008-06-29T08:25:41Z</time>
      </trkpt>
      <trkpt lat="46.237635612487793" lon="8.302059173583984">
        <ele>1037.39990234375</ele>
        <time>2008-06-29T08:25:59Z</time>
      </trkpt>
      <trkpt lat="46.237571239471436" lon="8.30193042755127">
        <ele>1038.361328125</ele>
        <time>2008-06-29T08:26:11Z</time>
      </trkpt>
      <trkpt lat="46.237571239471436" lon="8.30193042755127">
        <ele>1038.361328125</ele>
        <time>2008-06-29T08:26:12Z</time>
      </trkpt>
      <trkpt lat="46.237506866455078" lon="8.301801681518555">
        <ele>1038.842041015625</ele>
        <time>2008-06-29T08:26:24Z</time>
      </trkpt>
      <trkpt lat="46.237399578094482" lon="8.301715850830078">
        <ele>1040.764404296875</ele>
        <time>2008-06-29T08:26:36Z</time>
      </trkpt>
      <trkpt lat="46.237399578094482" lon="8.301715850830078">
        <ele>1041.2451171875</ele>
        <time>2008-06-29T08:26:37Z</time>
      </trkpt>
      <trkpt lat="46.237335205078125" lon="8.301608562469482">
        <ele>1042.20654296875</ele>
        <time>2008-06-29T08:26:47Z</time>
      </trkpt>
      <trkpt lat="46.237356662750244" lon="8.301522731781006">
        <ele>1042.687255859375</ele>
        <time>2008-06-29T08:26:55Z</time>
      </trkpt>
      <trkpt lat="46.237399578094482" lon="8.301501274108887">
        <ele>1043.6484375</ele>
        <time>2008-06-29T08:27:00Z</time>
      </trkpt>
      <trkpt lat="46.237485408782959" lon="8.301608562469482">
        <ele>1045.571044921875</ele>
        <time>2008-06-29T08:27:12Z</time>
      </trkpt>
      <trkpt lat="46.237571239471436" lon="8.30167293548584">
        <ele>1046.532470703125</ele>
        <time>2008-06-29T08:27:24Z</time>
      </trkpt>
      <trkpt lat="46.23769998550415" lon="8.301737308502197">
        <ele>1048.454833984375</ele>
        <time>2008-06-29T08:27:37Z</time>
      </trkpt>
      <trkpt lat="46.237807273864746" lon="8.301780223846436">
        <ele>1050.377685546875</ele>
        <time>2008-06-29T08:27:50Z</time>
      </trkpt>
      <trkpt lat="46.237893104553223" lon="8.301801681518555">
        <ele>1049.89697265625</ele>
        <time>2008-06-29T08:28:00Z</time>
      </trkpt>
      <trkpt lat="46.238000392913818" lon="8.301866054534912">
        <ele>1051.819580078125</ele>
        <time>2008-06-29T08:28:13Z</time>
      </trkpt>
      <trkpt lat="46.238129138946533" lon="8.301951885223389">
        <ele>1056.1455078125</ele>
        <time>2008-06-29T08:28:27Z</time>
      </trkpt>
      <trkpt lat="46.23821496963501" lon="8.302016258239746">
        <ele>1057.587646484375</ele>
        <time>2008-06-29T08:28:38Z</time>
      </trkpt>
      <trkpt lat="46.238300800323486" lon="8.302016258239746">
        <ele>1058.548828125</ele>
        <time>2008-06-29T08:28:46Z</time>
      </trkpt>
      <trkpt lat="46.238322257995605" lon="8.301994800567627">
        <ele>1058.548828125</ele>
        <time>2008-06-29T08:28:48Z</time>
      </trkpt>
      <trkpt lat="46.238343715667725" lon="8.301973342895508">
        <ele>1056.1455078125</ele>
        <time>2008-06-29T08:28:58Z</time>
      </trkpt>
      <trkpt lat="46.238279342651367" lon="8.30193042755127">
        <ele>1065.7587890625</ele>
        <time>2008-06-29T08:35:58Z</time>
      </trkpt>
      <trkpt lat="46.238257884979248" lon="8.301801681518555">
        <ele>1063.8359375</ele>
        <time>2008-06-29T08:36:07Z</time>
      </trkpt>
      <trkpt lat="46.238172054290771" lon="8.301715850830078">
        <ele>1063.8359375</ele>
        <time>2008-06-29T08:36:17Z</time>
      </trkpt>
      <trkpt lat="46.238086223602295" lon="8.301630020141602">
        <ele>1063.8359375</ele>
        <time>2008-06-29T08:36:27Z</time>
      </trkpt>
      <trkpt lat="46.238000392913818" lon="8.301522731781006">
        <ele>1063.35546875</ele>
        <time>2008-06-29T08:36:39Z</time>
      </trkpt>
      <trkpt lat="46.237978935241699" lon="8.301501274108887">
        <ele>1063.8359375</ele>
        <time>2008-06-29T08:36:41Z</time>
      </trkpt>
      <trkpt lat="46.238000392913818" lon="8.30141544342041">
        <ele>1063.8359375</ele>
        <time>2008-06-29T08:36:48Z</time>
      </trkpt>
      <trkpt lat="46.238043308258057" lon="8.301372528076172">
        <ele>1064.79736328125</ele>
        <time>2008-06-29T08:36:53Z</time>
      </trkpt>
      <trkpt lat="46.238129138946533" lon="8.301479816436768">
        <ele>1069.12353515625</ele>
        <time>2008-06-29T08:37:05Z</time>
      </trkpt>
      <trkpt lat="46.23821496963501" lon="8.301544189453125">
        <ele>1069.12353515625</ele>
        <time>2008-06-29T08:37:15Z</time>
      </trkpt>
      <trkpt lat="46.238322257995605" lon="8.301587104797363">
        <ele>1069.12353515625</ele>
        <time>2008-06-29T08:37:25Z</time>
      </trkpt>
      <trkpt lat="46.238429546356201" lon="8.301608562469482">
        <ele>1070.084716796875</ele>
        <time>2008-06-29T08:37:37Z</time>
      </trkpt>
      <trkpt lat="46.238536834716797" lon="8.301651477813721">
        <ele>1071.046142578125</ele>
        <time>2008-06-29T08:37:47Z</time>
      </trkpt>
      <trkpt lat="46.238622665405273" lon="8.30167293548584">
        <ele>1072.488037109375</ele>
        <time>2008-06-29T08:37:57Z</time>
      </trkpt>
      <trkpt lat="46.23870849609375" lon="8.301651477813721">
        <ele>1073.929931640625</ele>
        <time>2008-06-29T08:38:06Z</time>
      </trkpt>
      <trkpt lat="46.238729953765869" lon="8.301630020141602">
        <ele>1073.929931640625</ele>
        <time>2008-06-29T08:38:09Z</time>
      </trkpt>
      <trkpt lat="46.238815784454346" lon="8.301587104797363">
        <ele>1074.891357421875</ele>
        <time>2008-06-29T08:38:19Z</time>
      </trkpt>
      <trkpt lat="46.238858699798584" lon="8.301544189453125">
        <ele>1074.891357421875</ele>
        <time>2008-06-29T08:38:24Z</time>
      </trkpt>
      <trkpt lat="46.238901615142822" lon="8.301393985748291">
        <ele>1078.736572265625</ele>
        <time>2008-06-29T08:38:36Z</time>
      </trkpt>
      <trkpt lat="46.238944530487061" lon="8.301200866699219">
        <ele>1081.620361328125</ele>
        <time>2008-06-29T08:38:50Z</time>
      </trkpt>
      <trkpt lat="46.238987445831299" lon="8.301050662994385">
        <ele>1084.504638671875</ele>
        <time>2008-06-29T08:39:02Z</time>
      </trkpt>
      <trkpt lat="46.239051818847656" lon="8.30092191696167">
        <ele>1087.388427734375</ele>
        <time>2008-06-29T08:39:13Z</time>
      </trkpt>
      <trkpt lat="46.239116191864014" lon="8.300879001617432">
        <ele>1088.83056640625</ele>
        <time>2008-06-29T08:39:23Z</time>
      </trkpt>
      <trkpt lat="46.23920202255249" lon="8.300879001617432">
        <ele>1089.791748046875</ele>
        <time>2008-06-29T08:39:33Z</time>
      </trkpt>
      <trkpt lat="46.239287853240967" lon="8.300900459289551">
        <ele>1090.2724609375</ele>
        <time>2008-06-29T08:39:41Z</time>
      </trkpt>
      <trkpt lat="46.239352226257324" lon="8.300986289978027">
        <ele>1091.71435546875</ele>
        <time>2008-06-29T08:39:51Z</time>
      </trkpt>
      <trkpt lat="46.239352226257324" lon="8.301007747650147">
        <ele>1091.71435546875</ele>
        <time>2008-06-29T08:39:52Z</time>
      </trkpt>
      <trkpt lat="46.239352226257324" lon="8.301093578338623">
        <ele>1092.195068359375</ele>
        <time>2008-06-29T08:39:57Z</time>
      </trkpt>
      <trkpt lat="46.239395141601563" lon="8.301351070404053">
        <ele>1090.7529296875</ele>
        <time>2008-06-29T08:40:07Z</time>
      </trkpt>
      <trkpt lat="46.239480972290039" lon="8.301479816436768">
        <ele>1090.2724609375</ele>
        <time>2008-06-29T08:40:17Z</time>
      </trkpt>
      <trkpt lat="46.239545345306396" lon="8.301565647125244">
        <ele>1091.233642578125</ele>
        <time>2008-06-29T08:40:26Z</time>
      </trkpt>
      <trkpt lat="46.239631175994873" lon="8.301651477813721">
        <ele>1092.195068359375</ele>
        <time>2008-06-29T08:40:35Z</time>
      </trkpt>
      <trkpt lat="46.23969554901123" lon="8.301780223846436">
        <ele>1094.11767578125</ele>
        <time>2008-06-29T08:40:47Z</time>
      </trkpt>
      <trkpt lat="46.239759922027588" lon="8.30193042755127">
        <ele>1095.5595703125</ele>
        <time>2008-06-29T08:40:58Z</time>
      </trkpt>
      <trkpt lat="46.239802837371826" lon="8.302059173583984">
        <ele>1097.482177734375</ele>
        <time>2008-06-29T08:41:09Z</time>
      </trkpt>
      <trkpt lat="46.239867210388184" lon="8.30216646194458">
        <ele>1098.443359375</ele>
        <time>2008-06-29T08:41:20Z</time>
      </trkpt>
      <trkpt lat="46.239931583404541" lon="8.302316665649414">
        <ele>1099.885498046875</ele>
        <time>2008-06-29T08:41:31Z</time>
      </trkpt>
      <trkpt lat="46.239995956420898" lon="8.30242395401001">
        <ele>1100.846923828125</ele>
        <time>2008-06-29T08:41:42Z</time>
      </trkpt>
      <trkpt lat="46.240038871765137" lon="8.302445411682129">
        <ele>1101.32763671875</ele>
        <time>2008-06-29T08:41:47Z</time>
      </trkpt>
      <trkpt lat="46.240103244781494" lon="8.302466869354248">
        <ele>1102.288818359375</ele>
        <time>2008-06-29T08:41:53Z</time>
      </trkpt>
      <trkpt lat="46.240167617797852" lon="8.302466869354248">
        <ele>1103.73095703125</ele>
        <time>2008-06-29T08:42:00Z</time>
      </trkpt>
      <trkpt lat="46.240253448486328" lon="8.302445411682129">
        <ele>1104.692138671875</ele>
        <time>2008-06-29T08:42:10Z</time>
      </trkpt>
      <trkpt lat="46.240317821502686" lon="8.302445411682129">
        <ele>1105.1728515625</ele>
        <time>2008-06-29T08:42:15Z</time>
      </trkpt>
      <trkpt lat="46.240360736846924" lon="8.302445411682129">
        <ele>1104.692138671875</ele>
        <time>2008-06-29T08:42:19Z</time>
      </trkpt>
      <trkpt lat="46.24046802520752" lon="8.302488327026367">
        <ele>1105.653564453125</ele>
        <time>2008-06-29T08:42:32Z</time>
      </trkpt>
      <trkpt lat="46.240489482879639" lon="8.302509784698486">
        <ele>1106.61474609375</ele>
        <time>2008-06-29T08:42:35Z</time>
      </trkpt>
      <trkpt lat="46.240618228912354" lon="8.302595615386963">
        <ele>1109.01806640625</ele>
        <time>2008-06-29T08:42:49Z</time>
      </trkpt>
      <trkpt lat="46.240661144256592" lon="8.302595615386963">
        <ele>1108.056884765625</ele>
        <time>2008-06-29T08:42:53Z</time>
      </trkpt>
      <trkpt lat="46.240811347961426" lon="8.302638530731201">
        <ele>1111.902099609375</ele>
        <time>2008-06-29T08:43:05Z</time>
      </trkpt>
      <trkpt lat="46.240897178649902" lon="8.30265998840332">
        <ele>1112.382568359375</ele>
        <time>2008-06-29T08:43:16Z</time>
      </trkpt>
      <trkpt lat="46.241004467010498" lon="8.302702903747559">
        <ele>1115.747314453125</ele>
        <time>2008-06-29T08:43:29Z</time>
      </trkpt>
      <trkpt lat="46.241090297698975" lon="8.302724361419678">
        <ele>1116.708740234375</ele>
        <time>2008-06-29T08:43:38Z</time>
      </trkpt>
      <trkpt lat="46.241154670715332" lon="8.302745819091797">
        <ele>1117.189453125</ele>
        <time>2008-06-29T08:43:46Z</time>
      </trkpt>
      <trkpt lat="46.241261959075928" lon="8.302767276763916">
        <ele>1117.189453125</ele>
        <time>2008-06-29T08:43:58Z</time>
      </trkpt>
      <trkpt lat="46.241347789764404" lon="8.302724361419678">
        <ele>1120.553955078125</ele>
        <time>2008-06-29T08:44:10Z</time>
      </trkpt>
      <trkpt lat="46.241497993469238" lon="8.302595615386963">
        <ele>1120.0732421875</ele>
        <time>2008-06-29T08:44:25Z</time>
      </trkpt>
      <trkpt lat="46.241583824157715" lon="8.30265998840332">
        <ele>1121.995849609375</ele>
        <time>2008-06-29T08:44:38Z</time>
      </trkpt>
      <trkpt lat="46.241691112518311" lon="8.302724361419678">
        <ele>1123.91845703125</ele>
        <time>2008-06-29T08:44:50Z</time>
      </trkpt>
      <trkpt lat="46.24171257019043" lon="8.302724361419678">
        <ele>1123.43798828125</ele>
        <time>2008-06-29T08:44:52Z</time>
      </trkpt>
      <trkpt lat="46.241798400878906" lon="8.302853107452393">
        <ele>1125.3603515625</ele>
        <time>2008-06-29T08:45:05Z</time>
      </trkpt>
      <trkpt lat="46.241884231567383" lon="8.302938938140869">
        <ele>1127.763671875</ele>
        <time>2008-06-29T08:45:17Z</time>
      </trkpt>
      <trkpt lat="46.241991519927979" lon="8.302981853485107">
        <ele>1131.12841796875</ele>
        <time>2008-06-29T08:45:27Z</time>
      </trkpt>
      <trkpt lat="46.242077350616455" lon="8.303046226501465">
        <ele>1131.60888671875</ele>
        <time>2008-06-29T08:45:40Z</time>
      </trkpt>
      <trkpt lat="46.242163181304932" lon="8.303089141845703">
        <ele>1134.4931640625</ele>
        <time>2008-06-29T08:45:50Z</time>
      </trkpt>
      <trkpt lat="46.242249011993408" lon="8.303153514862061">
        <ele>1134.973876953125</ele>
        <time>2008-06-29T08:46:01Z</time>
      </trkpt>
      <trkpt lat="46.242356300354004" lon="8.303196430206299">
        <ele>1134.4931640625</ele>
        <time>2008-06-29T08:46:12Z</time>
      </trkpt>
      <trkpt lat="46.2424635887146" lon="8.303239345550537">
        <ele>1136.415771484375</ele>
        <time>2008-06-29T08:46:25Z</time>
      </trkpt>
      <trkpt lat="46.242570877075195" lon="8.303260803222656">
        <ele>1137.857666015625</ele>
        <time>2008-06-29T08:46:37Z</time>
      </trkpt>
      <trkpt lat="46.242635250091553" lon="8.303325176239014">
        <ele>1139.7802734375</ele>
        <time>2008-06-29T08:46:47Z</time>
      </trkpt>
      <trkpt lat="46.24269962310791" lon="8.30341100692749">
        <ele>1141.702880859375</ele>
        <time>2008-06-29T08:46:57Z</time>
      </trkpt>
      <trkpt lat="46.242785453796387" lon="8.303432464599609">
        <ele>1143.62548828125</ele>
        <time>2008-06-29T08:47:08Z</time>
      </trkpt>
      <trkpt lat="46.242785453796387" lon="8.303346633911133">
        <ele>1145.0673828125</ele>
        <time>2008-06-29T08:47:15Z</time>
      </trkpt>
      <trkpt lat="46.242742538452148" lon="8.303239345550537">
        <ele>1148.43212890625</ele>
        <time>2008-06-29T08:47:26Z</time>
      </trkpt>
      <trkpt lat="46.242678165435791" lon="8.303153514862061">
        <ele>1149.3935546875</ele>
        <time>2008-06-29T08:47:35Z</time>
      </trkpt>
      <trkpt lat="46.242635250091553" lon="8.303046226501465">
        <ele>1148.43212890625</ele>
        <time>2008-06-29T08:47:46Z</time>
      </trkpt>
      <trkpt lat="46.242592334747314" lon="8.303003311157227">
        <ele>1148.43212890625</ele>
        <time>2008-06-29T08:47:53Z</time>
      </trkpt>
      <trkpt lat="46.242527961730957" lon="8.302831649780273">
        <ele>1157.564697265625</ele>
        <time>2008-06-29T08:48:06Z</time>
      </trkpt>
      <trkpt lat="46.242485046386719" lon="8.302745819091797">
        <ele>1157.564697265625</ele>
        <time>2008-06-29T08:48:16Z</time>
      </trkpt>
      <trkpt lat="46.24244213104248" lon="8.302617073059082">
        <ele>1159.006591796875</ele>
        <time>2008-06-29T08:48:28Z</time>
      </trkpt>
      <trkpt lat="46.242420673370361" lon="8.302552700042725">
        <ele>1159.4873046875</ele>
        <time>2008-06-29T08:48:35Z</time>
      </trkpt>
      <trkpt lat="46.242377758026123" lon="8.302445411682129">
        <ele>1160.92919921875</ele>
        <time>2008-06-29T08:48:45Z</time>
      </trkpt>
      <trkpt lat="46.242334842681885" lon="8.302338123321533">
        <ele>1161.890625</ele>
        <time>2008-06-29T08:48:55Z</time>
      </trkpt>
      <trkpt lat="46.242334842681885" lon="8.302316665649414">
        <ele>1161.890625</ele>
        <time>2008-06-29T08:49:10Z</time>
      </trkpt>
      <trkpt lat="46.242334842681885" lon="8.302316665649414">
        <ele>1164.2939453125</ele>
        <time>2008-06-29T08:49:20Z</time>
      </trkpt>
      <trkpt lat="46.242291927337646" lon="8.302252292633057">
        <ele>1163.33251953125</ele>
        <time>2008-06-29T08:49:29Z</time>
      </trkpt>
      <trkpt lat="46.242227554321289" lon="8.302145004272461">
        <ele>1165.25537109375</ele>
        <time>2008-06-29T08:49:42Z</time>
      </trkpt>
      <trkpt lat="46.242163181304932" lon="8.302059173583984">
        <ele>1165.25537109375</ele>
        <time>2008-06-29T08:49:54Z</time>
      </trkpt>
      <trkpt lat="46.242098808288574" lon="8.301973342895508">
        <ele>1166.216552734375</ele>
        <time>2008-06-29T08:50:05Z</time>
      </trkpt>
      <trkpt lat="46.242012977600098" lon="8.301887512207031">
        <ele>1168.13916015625</ele>
        <time>2008-06-29T08:50:18Z</time>
      </trkpt>
      <trkpt lat="46.241970062255859" lon="8.301780223846436">
        <ele>1171.503662109375</ele>
        <time>2008-06-29T08:50:31Z</time>
      </trkpt>
      <trkpt lat="46.241884231567383" lon="8.30167293548584">
        <ele>1174.3876953125</ele>
        <time>2008-06-29T08:50:46Z</time>
      </trkpt>
      <trkpt lat="46.241841316223145" lon="8.301587104797363">
        <ele>1174.3876953125</ele>
        <time>2008-06-29T08:50:56Z</time>
      </trkpt>
      <trkpt lat="46.241798400878906" lon="8.301479816436768">
        <ele>1175.82958984375</ele>
        <time>2008-06-29T08:51:08Z</time>
      </trkpt>
      <trkpt lat="46.241755485534668" lon="8.301393985748291">
        <ele>1176.310302734375</ele>
        <time>2008-06-29T08:51:19Z</time>
      </trkpt>
      <trkpt lat="46.241691112518311" lon="8.301265239715576">
        <ele>1177.271728515625</ele>
        <time>2008-06-29T08:51:33Z</time>
      </trkpt>
      <trkpt lat="46.241626739501953" lon="8.301200866699219">
        <ele>1180.15576171875</ele>
        <time>2008-06-29T08:51:45Z</time>
      </trkpt>
      <trkpt lat="46.241540908813477" lon="8.301157951354981">
        <ele>1187.365478515625</ele>
        <time>2008-06-29T08:51:56Z</time>
      </trkpt>
      <trkpt lat="46.241476535797119" lon="8.301093578338623">
        <ele>1190.72998046875</ele>
        <time>2008-06-29T08:52:08Z</time>
      </trkpt>
      <trkpt lat="46.241433620452881" lon="8.301029205322266">
        <ele>1195.055908203125</ele>
        <time>2008-06-29T08:52:19Z</time>
      </trkpt>
      <trkpt lat="46.241433620452881" lon="8.300964832305908">
        <ele>1190.24951171875</ele>
        <time>2008-06-29T08:52:43Z</time>
      </trkpt>
      <trkpt lat="46.241390705108643" lon="8.300814628601074">
        <ele>1191.210693359375</ele>
        <time>2008-06-29T08:52:58Z</time>
      </trkpt>
      <trkpt lat="46.241326332092285" lon="8.300728797912598">
        <ele>1191.210693359375</ele>
        <time>2008-06-29T08:53:10Z</time>
      </trkpt>
      <trkpt lat="46.241304874420166" lon="8.300642967224121">
        <ele>1190.72998046875</ele>
        <time>2008-06-29T08:53:22Z</time>
      </trkpt>
      <trkpt lat="46.241369247436523" lon="8.300557136535645">
        <ele>1190.72998046875</ele>
        <time>2008-06-29T08:53:33Z</time>
      </trkpt>
      <trkpt lat="46.241476535797119" lon="8.300557136535645">
        <ele>1191.210693359375</ele>
        <time>2008-06-29T08:53:47Z</time>
      </trkpt>
      <trkpt lat="46.241540908813477" lon="8.300492763519287">
        <ele>1190.24951171875</ele>
        <time>2008-06-29T08:53:57Z</time>
      </trkpt>
      <trkpt lat="46.241648197174072" lon="8.300449848175049">
        <ele>1193.614013671875</ele>
        <time>2008-06-29T08:54:11Z</time>
      </trkpt>
      <trkpt lat="46.241755485534668" lon="8.300471305847168">
        <ele>1196.498291015625</ele>
        <time>2008-06-29T08:54:27Z</time>
      </trkpt>
      <trkpt lat="46.241841316223145" lon="8.300471305847168">
        <ele>1197.45947265625</ele>
        <time>2008-06-29T08:54:41Z</time>
      </trkpt>
      <trkpt lat="46.241927146911621" lon="8.300449848175049">
        <ele>1197.940185546875</ele>
        <time>2008-06-29T08:54:53Z</time>
      </trkpt>
      <trkpt lat="46.241991519927979" lon="8.300449848175049">
        <ele>1200.823974609375</ele>
        <time>2008-06-29T08:55:03Z</time>
      </trkpt>
      <trkpt lat="46.242077350616455" lon="8.300557136535645">
        <ele>1201.785400390625</ele>
        <time>2008-06-29T08:55:16Z</time>
      </trkpt>
      <trkpt lat="46.242163181304932" lon="8.300600051879883">
        <ele>1205.630615234375</ele>
        <time>2008-06-29T08:55:27Z</time>
      </trkpt>
      <trkpt lat="46.24220609664917" lon="8.300557136535645">
        <ele>1206.591796875</ele>
        <time>2008-06-29T08:55:32Z</time>
      </trkpt>
      <trkpt lat="46.242249011993408" lon="8.300557136535645">
        <ele>1210.43701171875</ele>
        <time>2008-06-29T08:55:40Z</time>
      </trkpt>
      <trkpt lat="46.242313385009766" lon="8.300557136535645">
        <ele>1213.3212890625</ele>
        <time>2008-06-29T08:55:51Z</time>
      </trkpt>
      <trkpt lat="46.242420673370361" lon="8.300557136535645">
        <ele>1217.16650390625</ele>
        <time>2008-06-29T08:56:05Z</time>
      </trkpt>
      <trkpt lat="46.242506504058838" lon="8.300578594207764">
        <ele>1218.127685546875</ele>
        <time>2008-06-29T08:56:16Z</time>
      </trkpt>
      <trkpt lat="46.242592334747314" lon="8.300578594207764">
        <ele>1219.56982421875</ele>
        <time>2008-06-29T08:56:26Z</time>
      </trkpt>
      <trkpt lat="46.242656707763672" lon="8.300600051879883">
        <ele>1222.45361328125</ele>
        <time>2008-06-29T08:56:36Z</time>
      </trkpt>
      <trkpt lat="46.242678165435791" lon="8.30066442489624">
        <ele>1226.298828125</ele>
        <time>2008-06-29T08:57:17Z</time>
      </trkpt>
      <trkpt lat="46.242763996124268" lon="8.300685882568359">
        <ele>1223.8955078125</ele>
        <time>2008-06-29T08:57:28Z</time>
      </trkpt>
      <trkpt lat="46.242849826812744" lon="8.300685882568359">
        <ele>1225.33740234375</ele>
        <time>2008-06-29T08:57:39Z</time>
      </trkpt>
      <trkpt lat="46.242914199829102" lon="8.30066442489624">
        <ele>1226.298828125</ele>
        <time>2008-06-29T08:57:50Z</time>
      </trkpt>
      <trkpt lat="46.242935657501221" lon="8.300514221191406">
        <ele>1242.16064453125</ele>
        <time>2008-06-29T09:00:54Z</time>
      </trkpt>
      <trkpt lat="46.24295711517334" lon="8.300514221191406">
        <ele>1242.16064453125</ele>
        <time>2008-06-29T09:00:55Z</time>
      </trkpt>
      <trkpt lat="46.242935657501221" lon="8.300449848175049">
        <ele>1242.16064453125</ele>
        <time>2008-06-29T09:00:59Z</time>
      </trkpt>
      <trkpt lat="46.242892742156982" lon="8.300364017486572">
        <ele>1238.796142578125</ele>
        <time>2008-06-29T09:01:09Z</time>
      </trkpt>
      <trkpt lat="46.242849826812744" lon="8.300321102142334">
        <ele>1236.873291015625</ele>
        <time>2008-06-29T09:01:17Z</time>
      </trkpt>
      <trkpt lat="46.242806911468506" lon="8.300213813781738">
        <ele>1235.912109375</ele>
        <time>2008-06-29T09:01:28Z</time>
      </trkpt>
      <trkpt lat="46.242763996124268" lon="8.300106525421143">
        <ele>1237.834716796875</ele>
        <time>2008-06-29T09:01:38Z</time>
      </trkpt>
      <trkpt lat="46.242678165435791" lon="8.300020694732666">
        <ele>1238.796142578125</ele>
        <time>2008-06-29T09:01:50Z</time>
      </trkpt>
      <trkpt lat="46.242613792419434" lon="8.29993486404419">
        <ele>1240.718505859375</ele>
        <time>2008-06-29T09:02:01Z</time>
      </trkpt>
      <trkpt lat="46.242549419403076" lon="8.299870491027832">
        <ele>1239.276611328125</ele>
        <time>2008-06-29T09:02:11Z</time>
      </trkpt>
      <trkpt lat="46.242485046386719" lon="8.299784660339356">
        <ele>1238.796142578125</ele>
        <time>2008-06-29T09:02:21Z</time>
      </trkpt>
      <trkpt lat="46.24244213104248" lon="8.299698829650879">
        <ele>1237.834716796875</ele>
        <time>2008-06-29T09:02:31Z</time>
      </trkpt>
      <trkpt lat="46.242377758026123" lon="8.299612998962402">
        <ele>1239.75732421875</ele>
        <time>2008-06-29T09:02:41Z</time>
      </trkpt>
      <trkpt lat="46.242334842681885" lon="8.299527168273926">
        <ele>1239.276611328125</ele>
        <time>2008-06-29T09:02:52Z</time>
      </trkpt>
      <trkpt lat="46.242270469665527" lon="8.29941987991333">
        <ele>1239.75732421875</ele>
        <time>2008-06-29T09:03:06Z</time>
      </trkpt>
      <trkpt lat="46.242249011993408" lon="8.299334049224854">
        <ele>1241.679931640625</ele>
        <time>2008-06-29T09:03:13Z</time>
      </trkpt>
      <trkpt lat="46.24220609664917" lon="8.299248218536377">
        <ele>1243.6025390625</ele>
        <time>2008-06-29T09:03:23Z</time>
      </trkpt>
      <trkpt lat="46.242141723632813" lon="8.299140930175781">
        <ele>1245.525390625</ele>
        <time>2008-06-29T09:03:35Z</time>
      </trkpt>
      <trkpt lat="46.242098808288574" lon="8.299055099487305">
        <ele>1247.9287109375</ele>
        <time>2008-06-29T09:03:44Z</time>
      </trkpt>
      <trkpt lat="46.242034435272217" lon="8.298990726470947">
        <ele>1248.889892578125</ele>
        <time>2008-06-29T09:03:55Z</time>
      </trkpt>
      <trkpt lat="46.242012977600098" lon="8.298883438110352">
        <ele>1249.851318359375</ele>
        <time>2008-06-29T09:04:05Z</time>
      </trkpt>
      <trkpt lat="46.242055892944336" lon="8.298840522766113">
        <ele>1250.8125</ele>
        <time>2008-06-29T09:04:14Z</time>
      </trkpt>
      <trkpt lat="46.242141723632813" lon="8.298883438110352">
        <ele>1250.8125</ele>
        <time>2008-06-29T09:04:25Z</time>
      </trkpt>
      <trkpt lat="46.24220609664917" lon="8.298904895782471">
        <ele>1251.77392578125</ele>
        <time>2008-06-29T09:04:33Z</time>
      </trkpt>
      <trkpt lat="46.242270469665527" lon="8.298883438110352">
        <ele>1256.099609375</ele>
        <time>2008-06-29T09:04:43Z</time>
      </trkpt>
      <trkpt lat="46.242356300354004" lon="8.298883438110352">
        <ele>1257.541748046875</ele>
        <time>2008-06-29T09:04:52Z</time>
      </trkpt>
      <trkpt lat="46.242420673370361" lon="8.298904895782471">
        <ele>1257.06103515625</ele>
        <time>2008-06-29T09:05:01Z</time>
      </trkpt>
      <trkpt lat="46.242485046386719" lon="8.298883438110352">
        <ele>1258.0224609375</ele>
        <time>2008-06-29T09:05:10Z</time>
      </trkpt>
      <trkpt lat="46.242549419403076" lon="8.298883438110352">
        <ele>1259.94482421875</ele>
        <time>2008-06-29T09:05:19Z</time>
      </trkpt>
      <trkpt lat="46.242656707763672" lon="8.298883438110352">
        <ele>1261.867919921875</ele>
        <time>2008-06-29T09:05:32Z</time>
      </trkpt>
      <trkpt lat="46.242721080780029" lon="8.298904895782471">
        <ele>1262.348388671875</ele>
        <time>2008-06-29T09:05:42Z</time>
      </trkpt>
      <trkpt lat="46.242785453796387" lon="8.298904895782471">
        <ele>1263.790283203125</ele>
        <time>2008-06-29T09:05:52Z</time>
      </trkpt>
      <trkpt lat="46.242871284484863" lon="8.298904895782471">
        <ele>1267.155029296875</ele>
        <time>2008-06-29T09:06:02Z</time>
      </trkpt>
      <trkpt lat="46.242935657501221" lon="8.298904895782471">
        <ele>1268.1162109375</ele>
        <time>2008-06-29T09:06:13Z</time>
      </trkpt>
      <trkpt lat="46.24295711517334" lon="8.298883438110352">
        <ele>1267.635498046875</ele>
        <time>2008-06-29T09:06:20Z</time>
      </trkpt>
      <trkpt lat="46.243000030517578" lon="8.298819065093994">
        <ele>1267.635498046875</ele>
        <time>2008-06-29T09:06:32Z</time>
      </trkpt>
      <trkpt lat="46.243042945861816" lon="8.298754692077637">
        <ele>1268.596923828125</ele>
        <time>2008-06-29T09:07:18Z</time>
      </trkpt>
      <trkpt lat="46.243107318878174" lon="8.298604488372803">
        <ele>1269.07763671875</ele>
        <time>2008-06-29T09:07:32Z</time>
      </trkpt>
      <trkpt lat="46.243150234222412" lon="8.298497200012207">
        <ele>1270.038818359375</ele>
        <time>2008-06-29T09:07:46Z</time>
      </trkpt>
      <trkpt lat="46.24321460723877" lon="8.298325538635254">
        <ele>1271.480712890625</ele>
        <time>2008-06-29T09:08:03Z</time>
      </trkpt>
      <trkpt lat="46.243236064910889" lon="8.298196792602539">
        <ele>1273.403564453125</ele>
        <time>2008-06-29T09:08:18Z</time>
      </trkpt>
      <trkpt lat="46.24321460723877" lon="8.298068046569824">
        <ele>1274.845458984375</ele>
        <time>2008-06-29T09:08:32Z</time>
      </trkpt>
      <trkpt lat="46.243150234222412" lon="8.297939300537109">
        <ele>1276.768310546875</ele>
        <time>2008-06-29T09:08:45Z</time>
      </trkpt>
      <trkpt lat="46.243085861206055" lon="8.297896385192871">
        <ele>1277.7294921875</ele>
        <time>2008-06-29T09:08:57Z</time>
      </trkpt>
      <trkpt lat="46.243000030517578" lon="8.297853469848633">
        <ele>1280.1328125</ele>
        <time>2008-06-29T09:09:09Z</time>
      </trkpt>
      <trkpt lat="46.242892742156982" lon="8.297832012176514">
        <ele>1282.5361328125</ele>
        <time>2008-06-29T09:09:23Z</time>
      </trkpt>
      <trkpt lat="46.242828369140625" lon="8.297810554504395">
        <ele>1283.97802734375</ele>
        <time>2008-06-29T09:09:34Z</time>
      </trkpt>
      <trkpt lat="46.242742538452148" lon="8.297789096832275">
        <ele>1285.900634765625</ele>
        <time>2008-06-29T09:09:46Z</time>
      </trkpt>
      <trkpt lat="46.242656707763672" lon="8.297724723815918">
        <ele>1286.86181640625</ele>
        <time>2008-06-29T09:10:00Z</time>
      </trkpt>
      <trkpt lat="46.242592334747314" lon="8.297703266143799">
        <ele>1288.303955078125</ele>
        <time>2008-06-29T09:10:11Z</time>
      </trkpt>
      <trkpt lat="46.242506504058838" lon="8.29768180847168">
        <ele>1289.745849609375</ele>
        <time>2008-06-29T09:10:21Z</time>
      </trkpt>
      <trkpt lat="46.24244213104248" lon="8.297638893127441">
        <ele>1289.745849609375</ele>
        <time>2008-06-29T09:10:30Z</time>
      </trkpt>
      <trkpt lat="46.242420673370361" lon="8.297531604766846">
        <ele>1290.70703125</ele>
        <time>2008-06-29T09:10:44Z</time>
      </trkpt>
      <trkpt lat="46.2424635887146" lon="8.297445774078369">
        <ele>1292.630126953125</ele>
        <time>2008-06-29T09:10:56Z</time>
      </trkpt>
      <trkpt lat="46.242506504058838" lon="8.29742431640625">
        <ele>1293.59130859375</ele>
        <time>2008-06-29T09:11:06Z</time>
      </trkpt>
      <trkpt lat="46.242570877075195" lon="8.297402858734131">
        <ele>1293.59130859375</ele>
        <time>2008-06-29T09:11:17Z</time>
      </trkpt>
      <trkpt lat="46.242613792419434" lon="8.297359943389893">
        <ele>1294.552490234375</ele>
        <time>2008-06-29T09:11:27Z</time>
      </trkpt>
      <trkpt lat="46.242678165435791" lon="8.297274112701416">
        <ele>1296.955810546875</ele>
        <time>2008-06-29T09:11:37Z</time>
      </trkpt>
      <trkpt lat="46.242721080780029" lon="8.29718828201294">
        <ele>1298.397705078125</ele>
        <time>2008-06-29T09:11:47Z</time>
      </trkpt>
      <trkpt lat="46.242742538452148" lon="8.297102451324463">
        <ele>1298.87841796875</ele>
        <time>2008-06-29T09:11:58Z</time>
      </trkpt>
      <trkpt lat="46.242763996124268" lon="8.297080993652344">
        <ele>1299.83984375</ele>
        <time>2008-06-29T09:12:09Z</time>
      </trkpt>
      <trkpt lat="46.242785453796387" lon="8.296995162963867">
        <ele>1308.01123046875</ele>
        <time>2008-06-29T09:14:10Z</time>
      </trkpt>
      <trkpt lat="46.242828369140625" lon="8.296952247619629">
        <ele>1308.49169921875</ele>
        <time>2008-06-29T09:14:17Z</time>
      </trkpt>
      <trkpt lat="46.242871284484863" lon="8.296887874603272">
        <ele>1308.49169921875</ele>
        <time>2008-06-29T09:14:24Z</time>
      </trkpt>
      <trkpt lat="46.242978572845459" lon="8.296780586242676">
        <ele>1308.01123046875</ele>
        <time>2008-06-29T09:14:35Z</time>
      </trkpt>
      <trkpt lat="46.243085861206055" lon="8.29667329788208">
        <ele>1309.93359375</ele>
        <time>2008-06-29T09:14:47Z</time>
      </trkpt>
      <trkpt lat="46.243150234222412" lon="8.296566009521484">
        <ele>1312.817626953125</ele>
        <time>2008-06-29T09:14:59Z</time>
      </trkpt>
      <trkpt lat="46.243236064910889" lon="8.296501636505127">
        <ele>1311.375732421875</ele>
        <time>2008-06-29T09:15:11Z</time>
      </trkpt>
      <trkpt lat="46.243300437927246" lon="8.296480178833008">
        <ele>1309.93359375</ele>
        <time>2008-06-29T09:15:20Z</time>
      </trkpt>
      <trkpt lat="46.243364810943604" lon="8.29643726348877">
        <ele>1313.29833984375</ele>
        <time>2008-06-29T09:15:29Z</time>
      </trkpt>
      <trkpt lat="46.243407726287842" lon="8.296394348144531">
        <ele>1315.70166015625</ele>
        <time>2008-06-29T09:15:37Z</time>
      </trkpt>
      <trkpt lat="46.243515014648438" lon="8.296351432800293">
        <ele>1319.546875</ele>
        <time>2008-06-29T09:15:49Z</time>
      </trkpt>
      <trkpt lat="46.243600845336914" lon="8.296351432800293">
        <ele>1320.508056640625</ele>
        <time>2008-06-29T09:16:02Z</time>
      </trkpt>
      <trkpt lat="46.243643760681152" lon="8.296287059783936">
        <ele>1322.4306640625</ele>
        <time>2008-06-29T09:16:10Z</time>
      </trkpt>
      <trkpt lat="46.243729591369629" lon="8.296244144439697">
        <ele>1322.911376953125</ele>
        <time>2008-06-29T09:16:21Z</time>
      </trkpt>
      <trkpt lat="46.243836879730225" lon="8.296222686767578">
        <ele>1322.911376953125</ele>
        <time>2008-06-29T09:16:33Z</time>
      </trkpt>
      <trkpt lat="46.24394416809082" lon="8.296222686767578">
        <ele>1323.39208984375</ele>
        <time>2008-06-29T09:16:45Z</time>
      </trkpt>
      <trkpt lat="46.244029998779297" lon="8.296222686767578">
        <ele>1323.39208984375</ele>
        <time>2008-06-29T09:16:57Z</time>
      </trkpt>
      <trkpt lat="46.244137287139893" lon="8.296244144439697">
        <ele>1323.39208984375</ele>
        <time>2008-06-29T09:17:09Z</time>
      </trkpt>
      <trkpt lat="46.244244575500488" lon="8.296265602111816">
        <ele>1322.911376953125</ele>
        <time>2008-06-29T09:17:19Z</time>
      </trkpt>
      <trkpt lat="46.244373321533203" lon="8.296287059783936">
        <ele>1322.4306640625</ele>
        <time>2008-06-29T09:17:32Z</time>
      </trkpt>
      <trkpt lat="46.244480609893799" lon="8.296287059783936">
        <ele>1323.87255859375</ele>
        <time>2008-06-29T09:17:42Z</time>
      </trkpt>
      <trkpt lat="46.244523525238037" lon="8.296308517456055">
        <ele>1323.87255859375</ele>
        <time>2008-06-29T09:17:45Z</time>
      </trkpt>
      <trkpt lat="46.244630813598633" lon="8.296308517456055">
        <ele>1324.834228515625</ele>
        <time>2008-06-29T09:17:56Z</time>
      </trkpt>
      <trkpt lat="46.244630813598633" lon="8.296308517456055">
        <ele>1325.314697265625</ele>
        <time>2008-06-29T09:17:57Z</time>
      </trkpt>
      <trkpt lat="46.24469518661499" lon="8.296265602111816">
        <ele>1326.276123046875</ele>
        <time>2008-06-29T09:18:03Z</time>
      </trkpt>
      <trkpt lat="46.244845390319824" lon="8.296265602111816">
        <ele>1327.237548828125</ele>
        <time>2008-06-29T09:18:16Z</time>
      </trkpt>
      <trkpt lat="46.24495267868042" lon="8.296244144439697">
        <ele>1327.718017578125</ele>
        <time>2008-06-29T09:18:27Z</time>
      </trkpt>
      <trkpt lat="46.245017051696777" lon="8.296244144439697">
        <ele>1329.159912109375</ele>
        <time>2008-06-29T09:18:34Z</time>
      </trkpt>
      <trkpt lat="46.245102882385254" lon="8.296222686767578">
        <ele>1330.60205078125</ele>
        <time>2008-06-29T09:18:44Z</time>
      </trkpt>
      <trkpt lat="46.245231628417969" lon="8.296222686767578">
        <ele>1331.082763671875</ele>
        <time>2008-06-29T09:18:57Z</time>
      </trkpt>
      <trkpt lat="46.245338916778564" lon="8.296222686767578">
        <ele>1330.60205078125</ele>
        <time>2008-06-29T09:19:09Z</time>
      </trkpt>
      <trkpt lat="46.245424747467041" lon="8.296222686767578">
        <ele>1331.082763671875</ele>
        <time>2008-06-29T09:19:20Z</time>
      </trkpt>
      <trkpt lat="46.245489120483398" lon="8.296244144439697">
        <ele>1332.0439453125</ele>
        <time>2008-06-29T09:19:29Z</time>
      </trkpt>
      <trkpt lat="46.245596408843994" lon="8.296265602111816">
        <ele>1332.0439453125</ele>
        <time>2008-06-29T09:19:40Z</time>
      </trkpt>
      <trkpt lat="46.245682239532471" lon="8.296287059783936">
        <ele>1332.524658203125</ele>
        <time>2008-06-29T09:19:49Z</time>
      </trkpt>
      <trkpt lat="46.245768070220947" lon="8.296244144439697">
        <ele>1333.005126953125</ele>
        <time>2008-06-29T09:19:58Z</time>
      </trkpt>
      <trkpt lat="46.245832443237305" lon="8.296287059783936">
        <ele>1334.927978515625</ele>
        <time>2008-06-29T09:20:10Z</time>
      </trkpt>
      <trkpt lat="46.245918273925781" lon="8.296265602111816">
        <ele>1340.21533203125</ele>
        <time>2008-06-29T09:20:20Z</time>
      </trkpt>
      <trkpt lat="46.246025562286377" lon="8.296244144439697">
        <ele>1341.6572265625</ele>
        <time>2008-06-29T09:20:33Z</time>
      </trkpt>
      <trkpt lat="46.246111392974854" lon="8.296244144439697">
        <ele>1342.61865234375</ele>
        <time>2008-06-29T09:20:44Z</time>
      </trkpt>
      <trkpt lat="46.246175765991211" lon="8.296265602111816">
        <ele>1342.61865234375</ele>
        <time>2008-06-29T09:20:53Z</time>
      </trkpt>
      <trkpt lat="46.246240139007568" lon="8.296244144439697">
        <ele>1344.060546875</ele>
        <time>2008-06-29T09:21:01Z</time>
      </trkpt>
      <trkpt lat="46.246304512023926" lon="8.296244144439697">
        <ele>1345.021728515625</ele>
        <time>2008-06-29T09:21:10Z</time>
      </trkpt>
      <trkpt lat="46.246390342712402" lon="8.296222686767578">
        <ele>1346.4638671875</ele>
        <time>2008-06-29T09:21:21Z</time>
      </trkpt>
      <trkpt lat="46.246476173400879" lon="8.296201229095459">
        <ele>1347.425048828125</ele>
        <time>2008-06-29T09:21:30Z</time>
      </trkpt>
      <trkpt lat="46.246583461761475" lon="8.296136856079102">
        <ele>1352.712158203125</ele>
        <time>2008-06-29T09:21:43Z</time>
      </trkpt>
      <trkpt lat="46.246647834777832" lon="8.296115398406982">
        <ele>1352.712158203125</ele>
        <time>2008-06-29T09:21:52Z</time>
      </trkpt>
      <trkpt lat="46.246733665466309" lon="8.296072483062744">
        <ele>1354.154296875</ele>
        <time>2008-06-29T09:22:06Z</time>
      </trkpt>
      <trkpt lat="46.246776580810547" lon="8.296051025390625">
        <ele>1355.115478515625</ele>
        <time>2008-06-29T09:22:15Z</time>
      </trkpt>
      <trkpt lat="46.246862411499023" lon="8.296029567718506">
        <ele>1357.038330078125</ele>
        <time>2008-06-29T09:22:30Z</time>
      </trkpt>
      <trkpt lat="46.246905326843262" lon="8.296072483062744">
        <ele>1359.922119140625</ele>
        <time>2008-06-29T09:23:20Z</time>
      </trkpt>
      <trkpt lat="46.247012615203857" lon="8.296051025390625">
        <ele>1361.3642578125</ele>
        <time>2008-06-29T09:23:35Z</time>
      </trkpt>
      <trkpt lat="46.247076988220215" lon="8.296008110046387">
        <ele>1364.248046875</ele>
        <time>2008-06-29T09:23:47Z</time>
      </trkpt>
      <trkpt lat="46.247162818908691" lon="8.29592227935791">
        <ele>1366.170654296875</ele>
        <time>2008-06-29T09:24:00Z</time>
      </trkpt>
      <trkpt lat="46.247248649597168" lon="8.295857906341553">
        <ele>1368.573974609375</ele>
        <time>2008-06-29T09:24:13Z</time>
      </trkpt>
      <trkpt lat="46.247334480285645" lon="8.295793533325195">
        <ele>1368.09326171875</ele>
        <time>2008-06-29T09:24:26Z</time>
      </trkpt>
      <trkpt lat="46.247420310974121" lon="8.295729160308838">
        <ele>1368.573974609375</ele>
        <time>2008-06-29T09:24:40Z</time>
      </trkpt>
      <trkpt lat="46.247484683990479" lon="8.295707702636719">
        <ele>1369.535400390625</ele>
        <time>2008-06-29T09:24:50Z</time>
      </trkpt>
      <trkpt lat="46.247570514678955" lon="8.295643329620361">
        <ele>1371.457763671875</ele>
        <time>2008-06-29T09:25:02Z</time>
      </trkpt>
      <trkpt lat="46.247634887695312" lon="8.295578956604004">
        <ele>1372.41943359375</ele>
        <time>2008-06-29T09:25:16Z</time>
      </trkpt>
      <trkpt lat="46.247677803039551" lon="8.295471668243408">
        <ele>1375.30322265625</ele>
        <time>2008-06-29T09:25:28Z</time>
      </trkpt>
      <trkpt lat="46.247634887695312" lon="8.295536041259766">
        <ele>1372.900146484375</ele>
        <time>2008-06-29T09:27:18Z</time>
      </trkpt>
      <trkpt lat="46.247549057006836" lon="8.295450210571289">
        <ele>1373.861328125</ele>
        <time>2008-06-29T09:27:29Z</time>
      </trkpt>
      <trkpt lat="46.247484683990479" lon="8.295407295227051">
        <ele>1374.342041015625</ele>
        <time>2008-06-29T09:27:42Z</time>
      </trkpt>
      <trkpt lat="46.247398853302002" lon="8.295321464538574">
        <ele>1377.22607421875</ele>
        <time>2008-06-29T09:27:56Z</time>
      </trkpt>
      <trkpt lat="46.247313022613525" lon="8.295278549194336">
        <ele>1377.70654296875</ele>
        <time>2008-06-29T09:28:10Z</time>
      </trkpt>
      <trkpt lat="46.247227191925049" lon="8.295235633850098">
        <ele>1379.629150390625</ele>
        <time>2008-06-29T09:28:23Z</time>
      </trkpt>
      <trkpt lat="46.247141361236572" lon="8.295128345489502">
        <ele>1382.99365234375</ele>
        <time>2008-06-29T09:28:39Z</time>
      </trkpt>
      <trkpt lat="46.247055530548096" lon="8.295063972473145">
        <ele>1385.39697265625</ele>
        <time>2008-06-29T09:28:53Z</time>
      </trkpt>
      <trkpt lat="46.2469482421875" lon="8.294999599456787">
        <ele>1387.80029296875</ele>
        <time>2008-06-29T09:29:08Z</time>
      </trkpt>
      <trkpt lat="46.246883869171143" lon="8.29493522644043">
        <ele>1390.203857421875</ele>
        <time>2008-06-29T09:29:20Z</time>
      </trkpt>
      <trkpt lat="46.246819496154785" lon="8.294870853424072">
        <ele>1392.12646484375</ele>
        <time>2008-06-29T09:29:32Z</time>
      </trkpt>
      <trkpt lat="46.246755123138428" lon="8.294827938079834">
        <ele>1393.087646484375</ele>
        <time>2008-06-29T09:29:44Z</time>
      </trkpt>
      <trkpt lat="46.246669292449951" lon="8.294785022735596">
        <ele>1394.049072265625</ele>
        <time>2008-06-29T09:29:58Z</time>
      </trkpt>
      <trkpt lat="46.246562004089355" lon="8.294742107391357">
        <ele>1396.452392578125</ele>
        <time>2008-06-29T09:30:14Z</time>
      </trkpt>
      <trkpt lat="46.246476173400879" lon="8.294699192047119">
        <ele>1397.41357421875</ele>
        <time>2008-06-29T09:30:25Z</time>
      </trkpt>
      <trkpt lat="46.246390342712402" lon="8.294656276702881">
        <ele>1399.81689453125</ele>
        <time>2008-06-29T09:30:39Z</time>
      </trkpt>
      <trkpt lat="46.246325969696045" lon="8.294613361358643">
        <ele>1398.85546875</ele>
        <time>2008-06-29T09:30:49Z</time>
      </trkpt>
      <trkpt lat="46.246261596679688" lon="8.294548988342285">
        <ele>1398.85546875</ele>
        <time>2008-06-29T09:31:00Z</time>
      </trkpt>
      <trkpt lat="46.24619722366333" lon="8.294463157653809">
        <ele>1401.739501953125</ele>
        <time>2008-06-29T09:31:12Z</time>
      </trkpt>
      <trkpt lat="46.246218681335449" lon="8.294355869293213">
        <ele>1403.181396484375</ele>
        <time>2008-06-29T09:31:22Z</time>
      </trkpt>
      <trkpt lat="46.246283054351807" lon="8.294312953948975">
        <ele>1403.662109375</ele>
        <time>2008-06-29T09:31:30Z</time>
      </trkpt>
      <trkpt lat="46.246390342712402" lon="8.294291496276856">
        <ele>1402.70068359375</ele>
        <time>2008-06-29T09:31:39Z</time>
      </trkpt>
      <trkpt lat="46.246476173400879" lon="8.294248580932617">
        <ele>1402.70068359375</ele>
        <time>2008-06-29T09:31:49Z</time>
      </trkpt>
      <trkpt lat="46.246562004089355" lon="8.294141292572022">
        <ele>1405.5849609375</ele>
        <time>2008-06-29T09:32:00Z</time>
      </trkpt>
      <trkpt lat="46.246562004089355" lon="8.293991088867188">
        <ele>1407.507568359375</ele>
        <time>2008-06-29T09:32:11Z</time>
      </trkpt>
      <trkpt lat="46.246540546417236" lon="8.293969631195068">
        <ele>1407.507568359375</ele>
        <time>2008-06-29T09:32:14Z</time>
      </trkpt>
      <trkpt lat="46.246497631072998" lon="8.293862342834473">
        <ele>1408.46875</ele>
        <time>2008-06-29T09:32:22Z</time>
      </trkpt>
      <trkpt lat="46.246411800384521" lon="8.293776512145996">
        <ele>1409.91064453125</ele>
        <time>2008-06-29T09:32:33Z</time>
      </trkpt>
      <trkpt lat="46.246304512023926" lon="8.293647766113281">
        <ele>1409.91064453125</ele>
        <time>2008-06-29T09:32:49Z</time>
      </trkpt>
      <trkpt lat="46.24619722366333" lon="8.293604850769043">
        <ele>1411.83349609375</ele>
        <time>2008-06-29T09:33:00Z</time>
      </trkpt>
      <trkpt lat="46.246111392974854" lon="8.293519020080566">
        <ele>1415.6787109375</ele>
        <time>2008-06-29T09:33:13Z</time>
      </trkpt>
      <trkpt lat="46.246047019958496" lon="8.293454647064209">
        <ele>1417.60107421875</ele>
        <time>2008-06-29T09:33:23Z</time>
      </trkpt>
      <trkpt lat="46.24596118927002" lon="8.29343318939209">
        <ele>1419.043212890625</ele>
        <time>2008-06-29T09:33:33Z</time>
      </trkpt>
      <trkpt lat="46.245832443237305" lon="8.293390274047852">
        <ele>1420.4853515625</ele>
        <time>2008-06-29T09:33:49Z</time>
      </trkpt>
      <trkpt lat="46.245768070220947" lon="8.293325901031494">
        <ele>1421.446533203125</ele>
        <time>2008-06-29T09:34:03Z</time>
      </trkpt>
      <trkpt lat="46.245553493499756" lon="8.29317569732666">
        <ele>1422.407958984375</ele>
        <time>2008-06-29T09:34:32Z</time>
      </trkpt>
      <trkpt lat="46.245424747467041" lon="8.293111324310303">
        <ele>1425.291748046875</ele>
        <time>2008-06-29T09:34:47Z</time>
      </trkpt>
      <trkpt lat="46.245338916778564" lon="8.293068408966065">
        <ele>1426.253173828125</ele>
        <time>2008-06-29T09:34:57Z</time>
      </trkpt>
      <trkpt lat="46.245253086090088" lon="8.293004035949707">
        <ele>1427.214599609375</ele>
        <time>2008-06-29T09:35:10Z</time>
      </trkpt>
      <trkpt lat="46.24518871307373" lon="8.292961120605469">
        <ele>1429.61767578125</ele>
        <time>2008-06-29T09:35:19Z</time>
      </trkpt>
      <trkpt lat="46.245124340057373" lon="8.292875289916992">
        <ele>1432.02099609375</ele>
        <time>2008-06-29T09:35:30Z</time>
      </trkpt>
      <trkpt lat="46.245059967041016" lon="8.292810916900635">
        <ele>1433.943603515625</ele>
        <time>2008-06-29T09:35:41Z</time>
      </trkpt>
      <trkpt lat="46.245017051696777" lon="8.292725086212158">
        <ele>1434.905029296875</ele>
        <time>2008-06-29T09:35:50Z</time>
      </trkpt>
      <trkpt lat="46.244974136352539" lon="8.29268217086792">
        <ele>1435.8662109375</ele>
        <time>2008-06-29T09:35:57Z</time>
      </trkpt>
      <trkpt lat="46.244866847991943" lon="8.292639255523682">
        <ele>1437.7890625</ele>
        <time>2008-06-29T09:36:09Z</time>
      </trkpt>
      <trkpt lat="46.244845390319824" lon="8.292531967163086">
        <ele>1440.6728515625</ele>
        <time>2008-06-29T09:36:19Z</time>
      </trkpt>
      <trkpt lat="46.244866847991943" lon="8.292360305786133">
        <ele>1443.556884765625</ele>
        <time>2008-06-29T09:36:34Z</time>
      </trkpt>
      <trkpt lat="46.244866847991943" lon="8.292295932769775">
        <ele>1446.44091796875</ele>
        <time>2008-06-29T09:36:40Z</time>
      </trkpt>
      <trkpt lat="46.244866847991943" lon="8.29218864440918">
        <ele>1448.843994140625</ele>
        <time>2008-06-29T09:36:50Z</time>
      </trkpt>
      <trkpt lat="46.244845390319824" lon="8.292081356048584">
        <ele>1452.208740234375</ele>
        <time>2008-06-29T09:37:00Z</time>
      </trkpt>
      <trkpt lat="46.244802474975586" lon="8.291974067687988">
        <ele>1453.65087890625</ele>
        <time>2008-06-29T09:37:11Z</time>
      </trkpt>
      <trkpt lat="46.244823932647705" lon="8.291845321655273">
        <ele>1456.053955078125</ele>
        <time>2008-06-29T09:37:22Z</time>
      </trkpt>
      <trkpt lat="46.244845390319824" lon="8.291716575622559">
        <ele>1455.573486328125</ele>
        <time>2008-06-29T09:37:34Z</time>
      </trkpt>
      <trkpt lat="46.244845390319824" lon="8.291630744934082">
        <ele>1456.53466796875</ele>
        <time>2008-06-29T09:37:43Z</time>
      </trkpt>
      <trkpt lat="46.244802474975586" lon="8.291480541229248">
        <ele>1457.976806640625</ele>
        <time>2008-06-29T09:37:57Z</time>
      </trkpt>
      <trkpt lat="46.244738101959229" lon="8.291351795196533">
        <ele>1457.976806640625</ele>
        <time>2008-06-29T09:38:17Z</time>
      </trkpt>
      <trkpt lat="46.244781017303467" lon="8.29118013381958">
        <ele>1458.93798828125</ele>
        <time>2008-06-29T09:40:07Z</time>
      </trkpt>
      <trkpt lat="46.244738101959229" lon="8.291137218475342">
        <ele>1458.93798828125</ele>
        <time>2008-06-29T09:40:15Z</time>
      </trkpt>
      <trkpt lat="46.244652271270752" lon="8.291094303131104">
        <ele>1457.976806640625</ele>
        <time>2008-06-29T09:40:26Z</time>
      </trkpt>
      <trkpt lat="46.244609355926514" lon="8.290987014770508">
        <ele>1459.418701171875</ele>
        <time>2008-06-29T09:40:39Z</time>
      </trkpt>
      <trkpt lat="46.244652271270752" lon="8.290965557098389">
        <ele>1459.899169921875</ele>
        <time>2008-06-29T09:40:48Z</time>
      </trkpt>
      <trkpt lat="46.244759559631348" lon="8.291029930114746">
        <ele>1461.34130859375</ele>
        <time>2008-06-29T09:41:02Z</time>
      </trkpt>
      <trkpt lat="46.244802474975586" lon="8.291094303131104">
        <ele>1461.822021484375</ele>
        <time>2008-06-29T09:41:11Z</time>
      </trkpt>
      <trkpt lat="46.244888305664063" lon="8.291137218475342">
        <ele>1463.263916015625</ele>
        <time>2008-06-29T09:41:24Z</time>
      </trkpt>
      <trkpt lat="46.244995594024658" lon="8.291223049163818">
        <ele>1465.667236328125</ele>
        <time>2008-06-29T09:41:40Z</time>
      </trkpt>
      <trkpt lat="46.245124340057373" lon="8.291394710540772">
        <ele>1465.667236328125</ele>
        <time>2008-06-29T09:42:02Z</time>
      </trkpt>
      <trkpt lat="46.245145797729492" lon="8.291566371917725">
        <ele>1466.147705078125</ele>
        <time>2008-06-29T09:42:15Z</time>
      </trkpt>
      <trkpt lat="46.245167255401611" lon="8.291780948638916">
        <ele>1466.62841796875</ele>
        <time>2008-06-29T09:42:30Z</time>
      </trkpt>
      <trkpt lat="46.245145797729492" lon="8.29193115234375">
        <ele>1469.5126953125</ele>
        <time>2008-06-29T09:42:45Z</time>
      </trkpt>
      <trkpt lat="46.245124340057373" lon="8.291995525360107">
        <ele>1469.5126953125</ele>
        <time>2008-06-29T09:42:51Z</time>
      </trkpt>
      <trkpt lat="46.245102882385254" lon="8.292145729064941">
        <ele>1469.9931640625</ele>
        <time>2008-06-29T09:43:04Z</time>
      </trkpt>
      <trkpt lat="46.245145797729492" lon="8.292253017425537">
        <ele>1470.473876953125</ele>
        <time>2008-06-29T09:43:14Z</time>
      </trkpt>
      <trkpt lat="46.245274543762207" lon="8.292253017425537">
        <ele>1471.915771484375</ele>
        <time>2008-06-29T09:43:27Z</time>
      </trkpt>
      <trkpt lat="46.245360374450684" lon="8.292210102081299">
        <ele>1474.319091796875</ele>
        <time>2008-06-29T09:43:41Z</time>
      </trkpt>
      <trkpt lat="46.24544620513916" lon="8.292145729064941">
        <ele>1475.760986328125</ele>
        <time>2008-06-29T09:43:52Z</time>
      </trkpt>
      <trkpt lat="46.245617866516113" lon="8.291995525360107">
        <ele>1475.760986328125</ele>
        <time>2008-06-29T09:44:11Z</time>
      </trkpt>
      <trkpt lat="46.24570369720459" lon="8.291952610015869">
        <ele>1477.68359375</ele>
        <time>2008-06-29T09:44:24Z</time>
      </trkpt>
      <trkpt lat="46.245768070220947" lon="8.291909694671631">
        <ele>1478.64501953125</ele>
        <time>2008-06-29T09:44:34Z</time>
      </trkpt>
      <trkpt lat="46.245853900909424" lon="8.291888236999512">
        <ele>1481.04833984375</ele>
        <time>2008-06-29T09:44:45Z</time>
      </trkpt>
      <trkpt lat="46.2459397315979" lon="8.291866779327393">
        <ele>1484.4130859375</ele>
        <time>2008-06-29T09:44:57Z</time>
      </trkpt>
      <trkpt lat="46.246068477630615" lon="8.291866779327393">
        <ele>1487.777587890625</ele>
        <time>2008-06-29T09:45:17Z</time>
      </trkpt>
      <trkpt lat="46.246154308319092" lon="8.291866779327393">
        <ele>1488.739013671875</ele>
        <time>2008-06-29T09:45:28Z</time>
      </trkpt>
      <trkpt lat="46.24619722366333" lon="8.291845321655273">
        <ele>1489.219482421875</ele>
        <time>2008-06-29T09:45:36Z</time>
      </trkpt>
      <trkpt lat="46.246261596679688" lon="8.291802406311035">
        <ele>1489.7001953125</ele>
        <time>2008-06-29T09:45:47Z</time>
      </trkpt>
      <trkpt lat="46.246368885040283" lon="8.291738033294678">
        <ele>1492.103515625</ele>
        <time>2008-06-29T09:45:59Z</time>
      </trkpt>
      <trkpt lat="46.246368885040283" lon="8.291738033294678">
        <ele>1492.584228515625</ele>
        <time>2008-06-29T09:46:00Z</time>
      </trkpt>
      <trkpt lat="46.246433258056641" lon="8.29169511795044">
        <ele>1494.506591796875</ele>
        <time>2008-06-29T09:46:11Z</time>
      </trkpt>
      <trkpt lat="46.246476173400879" lon="8.29169511795044">
        <ele>1494.9873046875</ele>
        <time>2008-06-29T09:46:24Z</time>
      </trkpt>
      <trkpt lat="46.246519088745117" lon="8.29167366027832">
        <ele>1496.429443359375</ele>
        <time>2008-06-29T09:46:40Z</time>
      </trkpt>
      <trkpt lat="46.246647834777832" lon="8.291587829589844">
        <ele>1497.871337890625</ele>
        <time>2008-06-29T09:46:58Z</time>
      </trkpt>
      <trkpt lat="46.246798038482666" lon="8.291459083557129">
        <ele>1502.677978515625</ele>
        <time>2008-06-29T09:47:16Z</time>
      </trkpt>
      <trkpt lat="46.246862411499023" lon="8.291394710540772">
        <ele>1503.639404296875</ele>
        <time>2008-06-29T09:47:27Z</time>
      </trkpt>
      <trkpt lat="46.246883869171143" lon="8.291416168212891">
        <ele>1504.1201171875</ele>
        <time>2008-06-29T09:47:39Z</time>
      </trkpt>
      <trkpt lat="46.246969699859619" lon="8.291351795196533">
        <ele>1506.04248046875</ele>
        <time>2008-06-29T09:47:52Z</time>
      </trkpt>
      <trkpt lat="46.247076988220215" lon="8.291308879852295">
        <ele>1507.96533203125</ele>
        <time>2008-06-29T09:48:04Z</time>
      </trkpt>
      <trkpt lat="46.247141361236572" lon="8.291223049163818">
        <ele>1507.96533203125</ele>
        <time>2008-06-29T09:48:14Z</time>
      </trkpt>
      <trkpt lat="46.247098445892334" lon="8.291094303131104">
        <ele>1508.926513671875</ele>
        <time>2008-06-29T09:48:25Z</time>
      </trkpt>
      <trkpt lat="46.247034072875977" lon="8.291029930114746">
        <ele>1509.4072265625</ele>
        <time>2008-06-29T09:48:34Z</time>
      </trkpt>
      <trkpt lat="46.2469482421875" lon="8.29094409942627">
        <ele>1509.4072265625</ele>
        <time>2008-06-29T09:48:46Z</time>
      </trkpt>
      <trkpt lat="46.246905326843262" lon="8.290879726409912">
        <ele>1509.8876953125</ele>
        <time>2008-06-29T09:48:53Z</time>
      </trkpt>
      <trkpt lat="46.246862411499023" lon="8.290665149688721">
        <ele>1513.73291015625</ele>
        <time>2008-06-29T09:49:09Z</time>
      </trkpt>
      <trkpt lat="46.246819496154785" lon="8.290536403656006">
        <ele>1516.136474609375</ele>
        <time>2008-06-29T09:49:19Z</time>
      </trkpt>
      <trkpt lat="46.246798038482666" lon="8.290407657623291">
        <ele>1515.65576171875</ele>
        <time>2008-06-29T09:49:30Z</time>
      </trkpt>
      <trkpt lat="46.246776580810547" lon="8.290278911590576">
        <ele>1518.539794921875</ele>
        <time>2008-06-29T09:49:41Z</time>
      </trkpt>
      <trkpt lat="46.246755123138428" lon="8.290214538574219">
        <ele>1519.501220703125</ele>
        <time>2008-06-29T09:49:46Z</time>
      </trkpt>
      <trkpt lat="46.246755123138428" lon="8.290042877197266">
        <ele>1520.46240234375</ele>
        <time>2008-06-29T09:49:59Z</time>
      </trkpt>
      <trkpt lat="46.246798038482666" lon="8.289828300476074">
        <ele>1524.788330078125</ele>
        <time>2008-06-29T09:50:11Z</time>
      </trkpt>
      <trkpt lat="46.246819496154785" lon="8.289527893066406">
        <ele>1525.268798828125</ele>
        <time>2008-06-29T09:50:25Z</time>
      </trkpt>
      <trkpt lat="46.246798038482666" lon="8.289377689361572">
        <ele>1524.788330078125</ele>
        <time>2008-06-29T09:50:36Z</time>
      </trkpt>
      <trkpt lat="46.24669075012207" lon="8.289227485656738">
        <ele>1524.788330078125</ele>
        <time>2008-06-29T09:50:55Z</time>
      </trkpt>
      <trkpt lat="46.246562004089355" lon="8.289120197296143">
        <ele>1524.3076171875</ele>
        <time>2008-06-29T09:51:14Z</time>
      </trkpt>
      <trkpt lat="46.246476173400879" lon="8.289012908935547">
        <ele>1527.191650390625</ele>
        <time>2008-06-29T09:51:26Z</time>
      </trkpt>
      <trkpt lat="46.246433258056641" lon="8.288905620574951">
        <ele>1528.633544921875</ele>
        <time>2008-06-29T09:51:36Z</time>
      </trkpt>
      <trkpt lat="46.246368885040283" lon="8.288819789886475">
        <ele>1528.15283203125</ele>
        <time>2008-06-29T09:51:46Z</time>
      </trkpt>
      <trkpt lat="46.246368885040283" lon="8.288776874542236">
        <ele>1530.55615234375</ele>
        <time>2008-06-29T09:51:56Z</time>
      </trkpt>
      <trkpt lat="46.246347427368164" lon="8.288733959197998">
        <ele>1531.036865234375</ele>
        <time>2008-06-29T09:52:14Z</time>
      </trkpt>
      <trkpt lat="46.246325969696045" lon="8.288605213165283">
        <ele>1531.998046875</ele>
        <time>2008-06-29T09:52:26Z</time>
      </trkpt>
      <trkpt lat="46.246304512023926" lon="8.288540840148926">
        <ele>1533.9208984375</ele>
        <time>2008-06-29T09:52:36Z</time>
      </trkpt>
      <trkpt lat="46.246261596679688" lon="8.288412094116211">
        <ele>1535.36279296875</ele>
        <time>2008-06-29T09:52:49Z</time>
      </trkpt>
      <trkpt lat="46.24619722366333" lon="8.288283348083496">
        <ele>1536.32421875</ele>
        <time>2008-06-29T09:53:06Z</time>
      </trkpt>
      <trkpt lat="46.246111392974854" lon="8.288218975067139">
        <ele>1536.8046875</ele>
        <time>2008-06-29T09:53:19Z</time>
      </trkpt>
      <trkpt lat="46.246132850646973" lon="8.288154602050781">
        <ele>1538.246826171875</ele>
        <time>2008-06-29T09:53:26Z</time>
      </trkpt>
      <trkpt lat="46.246218681335449" lon="8.288111686706543">
        <ele>1534.401611328125</ele>
        <time>2008-06-29T09:53:47Z</time>
      </trkpt>
      <trkpt lat="46.246261596679688" lon="8.288218975067139">
        <ele>1541.611328125</ele>
        <time>2008-06-29T09:54:19Z</time>
      </trkpt>
      <trkpt lat="46.246368885040283" lon="8.288304805755615">
        <ele>1541.611328125</ele>
        <time>2008-06-29T09:54:31Z</time>
      </trkpt>
      <trkpt lat="46.246497631072998" lon="8.288261890411377">
        <ele>1543.05322265625</ele>
        <time>2008-06-29T09:54:44Z</time>
      </trkpt>
      <trkpt lat="46.246562004089355" lon="8.288283348083496">
        <ele>1544.975830078125</ele>
        <time>2008-06-29T09:54:51Z</time>
      </trkpt>
      <trkpt lat="46.24669075012207" lon="8.288283348083496">
        <ele>1547.379150390625</ele>
        <time>2008-06-29T09:55:05Z</time>
      </trkpt>
      <trkpt lat="46.246776580810547" lon="8.288304805755615">
        <ele>1549.78271484375</ele>
        <time>2008-06-29T09:55:18Z</time>
      </trkpt>
      <trkpt lat="46.246819496154785" lon="8.288326263427734">
        <ele>1550.743896484375</ele>
        <time>2008-06-29T09:55:31Z</time>
      </trkpt>
      <trkpt lat="46.246840953826904" lon="8.288283348083496">
        <ele>1558.9150390625</ele>
        <time>2008-06-29T09:56:07Z</time>
      </trkpt>
      <trkpt lat="46.246969699859619" lon="8.288369178771973">
        <ele>1558.434326171875</ele>
        <time>2008-06-29T09:56:17Z</time>
      </trkpt>
      <trkpt lat="46.247119903564453" lon="8.288540840148926">
        <ele>1556.992431640625</ele>
        <time>2008-06-29T09:56:34Z</time>
      </trkpt>
      <trkpt lat="46.24720573425293" lon="8.288669586181641">
        <ele>1556.992431640625</ele>
        <time>2008-06-29T09:56:45Z</time>
      </trkpt>
      <trkpt lat="46.247291564941406" lon="8.288755416870117">
        <ele>1558.9150390625</ele>
        <time>2008-06-29T09:56:56Z</time>
      </trkpt>
      <trkpt lat="46.247355937957764" lon="8.288798332214356">
        <ele>1557.953857421875</ele>
        <time>2008-06-29T09:57:04Z</time>
      </trkpt>
      <trkpt lat="46.24744176864624" lon="8.288798332214356">
        <ele>1559.395751953125</ele>
        <time>2008-06-29T09:57:15Z</time>
      </trkpt>
      <trkpt lat="46.247549057006836" lon="8.288776874542236">
        <ele>1560.837646484375</ele>
        <time>2008-06-29T09:57:25Z</time>
      </trkpt>
      <trkpt lat="46.247677803039551" lon="8.288712501525879">
        <ele>1561.318359375</ele>
        <time>2008-06-29T09:57:39Z</time>
      </trkpt>
      <trkpt lat="46.247763633728027" lon="8.288669586181641">
        <ele>1561.799072265625</ele>
        <time>2008-06-29T09:57:49Z</time>
      </trkpt>
      <trkpt lat="46.247870922088623" lon="8.288605213165283">
        <ele>1561.318359375</ele>
        <time>2008-06-29T09:58:05Z</time>
      </trkpt>
      <trkpt lat="46.247978210449219" lon="8.288583755493164">
        <ele>1561.799072265625</ele>
        <time>2008-06-29T09:58:22Z</time>
      </trkpt>
      <trkpt lat="46.248106956481934" lon="8.288497924804688">
        <ele>1561.799072265625</ele>
        <time>2008-06-29T09:58:34Z</time>
      </trkpt>
      <trkpt lat="46.248300075531006" lon="8.288390636444092">
        <ele>1562.279541015625</ele>
        <time>2008-06-29T09:58:52Z</time>
      </trkpt>
      <trkpt lat="46.248428821563721" lon="8.288304805755615">
        <ele>1562.76025390625</ele>
        <time>2008-06-29T09:59:03Z</time>
      </trkpt>
      <trkpt lat="46.248493194580078" lon="8.288261890411377">
        <ele>1563.240966796875</ele>
        <time>2008-06-29T09:59:11Z</time>
      </trkpt>
      <trkpt lat="46.248621940612793" lon="8.288154602050781">
        <ele>1563.721435546875</ele>
        <time>2008-06-29T09:59:28Z</time>
      </trkpt>
      <trkpt lat="46.248793601989746" lon="8.288090229034424">
        <ele>1565.163818359375</ele>
        <time>2008-06-29T09:59:42Z</time>
      </trkpt>
      <trkpt lat="46.24894380569458" lon="8.288047313690186">
        <ele>1565.64453125</ele>
        <time>2008-06-29T09:59:59Z</time>
      </trkpt>
      <trkpt lat="46.249094009399414" lon="8.287961483001709">
        <ele>1565.64453125</ele>
        <time>2008-06-29T10:00:12Z</time>
      </trkpt>
      <trkpt lat="46.249265670776367" lon="8.287897109985352">
        <ele>1567.08642578125</ele>
        <time>2008-06-29T10:00:31Z</time>
      </trkpt>
      <trkpt lat="46.249372959136963" lon="8.287854194641113">
        <ele>1571.412109375</ele>
        <time>2008-06-29T10:00:44Z</time>
      </trkpt>
      <trkpt lat="46.249458789825439" lon="8.287832736968994">
        <ele>1574.296142578125</ele>
        <time>2008-06-29T10:00:53Z</time>
      </trkpt>
      <trkpt lat="46.249566078186035" lon="8.287811279296875">
        <ele>1575.738037109375</ele>
        <time>2008-06-29T10:01:06Z</time>
      </trkpt>
      <trkpt lat="46.249673366546631" lon="8.287768363952637">
        <ele>1577.18017578125</ele>
        <time>2008-06-29T10:01:16Z</time>
      </trkpt>
      <trkpt lat="46.24969482421875" lon="8.287789821624756">
        <ele>1580.064208984375</ele>
        <time>2008-06-29T10:01:27Z</time>
      </trkpt>
      <trkpt lat="46.249737739562988" lon="8.287832736968994">
        <ele>1582.947998046875</ele>
        <time>2008-06-29T10:01:42Z</time>
      </trkpt>
      <trkpt lat="46.249823570251465" lon="8.287832736968994">
        <ele>1584.39013671875</ele>
        <time>2008-06-29T10:01:52Z</time>
      </trkpt>
      <trkpt lat="46.249930858612061" lon="8.287811279296875">
        <ele>1585.83203125</ele>
        <time>2008-06-29T10:02:03Z</time>
      </trkpt>
      <trkpt lat="46.250016689300537" lon="8.287811279296875">
        <ele>1586.793212890625</ele>
        <time>2008-06-29T10:02:16Z</time>
      </trkpt>
      <trkpt lat="46.250081062316895" lon="8.287789821624756">
        <ele>1587.754638671875</ele>
        <time>2008-06-29T10:02:24Z</time>
      </trkpt>
      <trkpt lat="46.250145435333252" lon="8.287811279296875">
        <ele>1589.67724609375</ele>
        <time>2008-06-29T10:02:34Z</time>
      </trkpt>
      <trkpt lat="46.250231266021729" lon="8.287789821624756">
        <ele>1594.003173828125</ele>
        <time>2008-06-29T10:02:45Z</time>
      </trkpt>
      <trkpt lat="46.250317096710205" lon="8.287768363952637">
        <ele>1594.96435546875</ele>
        <time>2008-06-29T10:02:56Z</time>
      </trkpt>
      <trkpt lat="46.250424385070801" lon="8.287725448608398">
        <ele>1599.29052734375</ele>
        <time>2008-06-29T10:03:09Z</time>
      </trkpt>
      <trkpt lat="46.250531673431396" lon="8.287703990936279">
        <ele>1599.29052734375</ele>
        <time>2008-06-29T10:03:22Z</time>
      </trkpt>
      <trkpt lat="46.250596046447754" lon="8.28768253326416">
        <ele>1599.29052734375</ele>
        <time>2008-06-29T10:03:35Z</time>
      </trkpt>
      <trkpt lat="46.250574588775635" lon="8.287703990936279">
        <ele>1597.8486328125</ele>
        <time>2008-06-29T10:04:13Z</time>
      </trkpt>
      <trkpt lat="46.250596046447754" lon="8.28768253326416">
        <ele>1597.8486328125</ele>
        <time>2008-06-29T10:05:39Z</time>
      </trkpt>
      <trkpt lat="46.250596046447754" lon="8.28768253326416">
        <ele>1599.771240234375</ele>
        <time>2008-06-29T10:06:22Z</time>
      </trkpt>
      <trkpt lat="46.250638961791992" lon="8.287639617919922">
        <ele>1600.732421875</ele>
        <time>2008-06-29T10:06:32Z</time>
      </trkpt>
      <trkpt lat="46.250746250152588" lon="8.287575244903565">
        <ele>1601.213134765625</ele>
        <time>2008-06-29T10:06:47Z</time>
      </trkpt>
      <trkpt lat="46.250853538513184" lon="8.287489414215088">
        <ele>1602.17431640625</ele>
        <time>2008-06-29T10:07:00Z</time>
      </trkpt>
      <trkpt lat="46.250982284545898" lon="8.28744649887085">
        <ele>1603.616455078125</ele>
        <time>2008-06-29T10:07:15Z</time>
      </trkpt>
      <trkpt lat="46.251089572906494" lon="8.287403583526611">
        <ele>1604.57763671875</ele>
        <time>2008-06-29T10:07:26Z</time>
      </trkpt>
      <trkpt lat="46.251218318939209" lon="8.287360668182373">
        <ele>1606.01953125</ele>
        <time>2008-06-29T10:07:41Z</time>
      </trkpt>
      <trkpt lat="46.251325607299805" lon="8.287382125854492">
        <ele>1606.98095703125</ele>
        <time>2008-06-29T10:07:53Z</time>
      </trkpt>
      <trkpt lat="46.2514328956604" lon="8.28744649887085">
        <ele>1608.903564453125</ele>
        <time>2008-06-29T10:08:06Z</time>
      </trkpt>
      <trkpt lat="46.2514328956604" lon="8.28744649887085">
        <ele>1607.461669921875</ele>
        <time>2008-06-29T10:08:15Z</time>
      </trkpt>
      <trkpt lat="46.251475811004639" lon="8.28744649887085">
        <ele>1606.98095703125</ele>
        <time>2008-06-29T10:09:45Z</time>
      </trkpt>
      <trkpt lat="46.251475811004639" lon="8.287510871887207">
        <ele>1599.771240234375</ele>
        <time>2008-06-29T10:18:38Z</time>
      </trkpt>
      <trkpt lat="46.251497268676758" lon="8.287510871887207">
        <ele>1599.771240234375</ele>
        <time>2008-06-29T10:18:40Z</time>
      </trkpt>
      <trkpt lat="46.251540184020996" lon="8.287596702575684">
        <ele>1598.809814453125</ele>
        <time>2008-06-29T10:18:51Z</time>
      </trkpt>
      <trkpt lat="46.251518726348877" lon="8.287661075592041">
        <ele>1598.3291015625</ele>
        <time>2008-06-29T10:19:00Z</time>
      </trkpt>
      <trkpt lat="46.251497268676758" lon="8.287703990936279">
        <ele>1597.367919921875</ele>
        <time>2008-06-29T10:19:11Z</time>
      </trkpt>
      <trkpt lat="46.251497268676758" lon="8.287725448608398">
        <ele>1597.367919921875</ele>
        <time>2008-06-29T10:19:19Z</time>
      </trkpt>
      <trkpt lat="46.251540184020996" lon="8.287746906280518">
        <ele>1597.8486328125</ele>
        <time>2008-06-29T10:19:29Z</time>
      </trkpt>
      <trkpt lat="46.251561641693115" lon="8.287746906280518">
        <ele>1597.8486328125</ele>
        <time>2008-06-29T10:19:31Z</time>
      </trkpt>
      <trkpt lat="46.25169038772583" lon="8.287768363952637">
        <ele>1599.29052734375</ele>
        <time>2008-06-29T10:19:44Z</time>
      </trkpt>
      <trkpt lat="46.251797676086426" lon="8.287789821624756">
        <ele>1602.17431640625</ele>
        <time>2008-06-29T10:19:55Z</time>
      </trkpt>
      <trkpt lat="46.251904964447021" lon="8.287811279296875">
        <ele>1603.616455078125</ele>
        <time>2008-06-29T10:20:06Z</time>
      </trkpt>
      <trkpt lat="46.252033710479736" lon="8.287875652313232">
        <ele>1604.09716796875</ele>
        <time>2008-06-29T10:20:19Z</time>
      </trkpt>
      <trkpt lat="46.25218391418457" lon="8.287897109985352">
        <ele>1606.98095703125</ele>
        <time>2008-06-29T10:20:34Z</time>
      </trkpt>
      <trkpt lat="46.252291202545166" lon="8.287897109985352">
        <ele>1608.4228515625</ele>
        <time>2008-06-29T10:20:48Z</time>
      </trkpt>
      <trkpt lat="46.252355575561523" lon="8.287897109985352">
        <ele>1608.903564453125</ele>
        <time>2008-06-29T10:20:59Z</time>
      </trkpt>
      <trkpt lat="46.25244140625" lon="8.287854194641113">
        <ele>1609.38427734375</ele>
        <time>2008-06-29T10:21:22Z</time>
      </trkpt>
      <trkpt lat="46.252570152282715" lon="8.287789821624756">
        <ele>1610.826171875</ele>
        <time>2008-06-29T10:21:37Z</time>
      </trkpt>
      <trkpt lat="46.252677440643311" lon="8.287725448608398">
        <ele>1612.268310546875</ele>
        <time>2008-06-29T10:21:51Z</time>
      </trkpt>
      <trkpt lat="46.252784729003906" lon="8.28768253326416">
        <ele>1613.710205078125</ele>
        <time>2008-06-29T10:22:05Z</time>
      </trkpt>
      <trkpt lat="46.252892017364502" lon="8.287639617919922">
        <ele>1614.671630859375</ele>
        <time>2008-06-29T10:22:18Z</time>
      </trkpt>
      <trkpt lat="46.253020763397217" lon="8.287596702575684">
        <ele>1615.633056640625</ele>
        <time>2008-06-29T10:22:33Z</time>
      </trkpt>
      <trkpt lat="46.253128051757813" lon="8.287532329559326">
        <ele>1617.555419921875</ele>
        <time>2008-06-29T10:22:47Z</time>
      </trkpt>
      <trkpt lat="46.25319242477417" lon="8.28744649887085">
        <ele>1618.99755859375</ele>
        <time>2008-06-29T10:22:59Z</time>
      </trkpt>
      <trkpt lat="46.253256797790527" lon="8.287317752838135">
        <ele>1620.920166015625</ele>
        <time>2008-06-29T10:23:14Z</time>
      </trkpt>
      <trkpt lat="46.253278255462646" lon="8.28718900680542">
        <ele>1620.920166015625</ele>
        <time>2008-06-29T10:23:26Z</time>
      </trkpt>
      <trkpt lat="46.253299713134766" lon="8.287038803100586">
        <ele>1621.400634765625</ele>
        <time>2008-06-29T10:23:36Z</time>
      </trkpt>
      <trkpt lat="46.253364086151123" lon="8.286888599395752">
        <ele>1622.8427734375</ele>
        <time>2008-06-29T10:23:48Z</time>
      </trkpt>
      <trkpt lat="46.253364086151123" lon="8.286867141723633">
        <ele>1622.8427734375</ele>
        <time>2008-06-29T10:23:49Z</time>
      </trkpt>
      <trkpt lat="46.25342845916748" lon="8.286716938018799">
        <ele>1624.765380859375</ele>
        <time>2008-06-29T10:24:01Z</time>
      </trkpt>
      <trkpt lat="46.253471374511719" lon="8.286588191986084">
        <ele>1626.207275390625</ele>
        <time>2008-06-29T10:24:12Z</time>
      </trkpt>
      <trkpt lat="46.253535747528076" lon="8.28643798828125">
        <ele>1628.130126953125</ele>
        <time>2008-06-29T10:24:24Z</time>
      </trkpt>
      <trkpt lat="46.253578662872314" lon="8.286309242248535">
        <ele>1630.052734375</ele>
        <time>2008-06-29T10:24:35Z</time>
      </trkpt>
      <trkpt lat="46.253621578216553" lon="8.286137580871582">
        <ele>1631.01416015625</ele>
        <time>2008-06-29T10:24:47Z</time>
      </trkpt>
      <trkpt lat="46.253621578216553" lon="8.286051750183106">
        <ele>1630.533447265625</ele>
        <time>2008-06-29T10:24:55Z</time>
      </trkpt>
      <trkpt lat="46.253600120544434" lon="8.285880088806152">
        <ele>1630.052734375</ele>
        <time>2008-06-29T10:25:07Z</time>
      </trkpt>
      <trkpt lat="46.253600120544434" lon="8.28568696975708">
        <ele>1630.533447265625</ele>
        <time>2008-06-29T10:25:19Z</time>
      </trkpt>
      <trkpt lat="46.253578662872314" lon="8.285536766052246">
        <ele>1632.4560546875</ele>
        <time>2008-06-29T10:25:29Z</time>
      </trkpt>
      <trkpt lat="46.253578662872314" lon="8.28545093536377">
        <ele>1632.9365234375</ele>
        <time>2008-06-29T10:25:36Z</time>
      </trkpt>
      <trkpt lat="46.253621578216553" lon="8.285300731658936">
        <ele>1634.859375</ele>
        <time>2008-06-29T10:25:47Z</time>
      </trkpt>
      <trkpt lat="46.25368595123291" lon="8.285129070281982">
        <ele>1635.33984375</ele>
        <time>2008-06-29T10:26:00Z</time>
      </trkpt>
      <trkpt lat="46.253707408905029" lon="8.284978866577148">
        <ele>1636.30126953125</ele>
        <time>2008-06-29T10:26:12Z</time>
      </trkpt>
      <trkpt lat="46.25368595123291" lon="8.284828662872315">
        <ele>1639.18505859375</ele>
        <time>2008-06-29T10:26:25Z</time>
      </trkpt>
      <trkpt lat="46.253728866577148" lon="8.284678459167481">
        <ele>1643.510986328125</ele>
        <time>2008-06-29T10:26:35Z</time>
      </trkpt>
      <trkpt lat="46.253750324249268" lon="8.284657001495361">
        <ele>1643.510986328125</ele>
        <time>2008-06-29T10:26:37Z</time>
      </trkpt>
      <trkpt lat="46.253857612609863" lon="8.284485340118408">
        <ele>1644.472412109375</ele>
        <time>2008-06-29T10:26:50Z</time>
      </trkpt>
      <trkpt lat="46.25394344329834" lon="8.284313678741455">
        <ele>1642.069091796875</ele>
        <time>2008-06-29T10:27:03Z</time>
      </trkpt>
      <trkpt lat="46.254007816314697" lon="8.284163475036621">
        <ele>1643.99169921875</ele>
        <time>2008-06-29T10:27:15Z</time>
      </trkpt>
      <trkpt lat="46.254072189331055" lon="8.284056186676025">
        <ele>1647.3564453125</ele>
        <time>2008-06-29T10:27:26Z</time>
      </trkpt>
      <trkpt lat="46.254093647003174" lon="8.284034729003906">
        <ele>1647.3564453125</ele>
        <time>2008-06-29T10:27:28Z</time>
      </trkpt>
      <trkpt lat="46.254050731658936" lon="8.284013271331787">
        <ele>1647.3564453125</ele>
        <time>2008-06-29T10:27:31Z</time>
      </trkpt>
      <trkpt lat="46.25394344329834" lon="8.284099102020264">
        <ele>1649.279052734375</ele>
        <time>2008-06-29T10:27:43Z</time>
      </trkpt>
      <trkpt lat="46.253836154937744" lon="8.284206390380859">
        <ele>1651.682373046875</ele>
        <time>2008-06-29T10:27:55Z</time>
      </trkpt>
      <trkpt lat="46.253728866577148" lon="8.284270763397217">
        <ele>1654.566162109375</ele>
        <time>2008-06-29T10:28:08Z</time>
      </trkpt>
      <trkpt lat="46.253643035888672" lon="8.284313678741455">
        <ele>1656.008056640625</ele>
        <time>2008-06-29T10:28:19Z</time>
      </trkpt>
      <trkpt lat="46.253578662872314" lon="8.284356594085693">
        <ele>1656.48876953125</ele>
        <time>2008-06-29T10:28:28Z</time>
      </trkpt>
      <trkpt lat="46.253557205200195" lon="8.284313678741455">
        <ele>1656.969482421875</ele>
        <time>2008-06-29T10:28:31Z</time>
      </trkpt>
      <trkpt lat="46.253578662872314" lon="8.284270763397217">
        <ele>1656.969482421875</ele>
        <time>2008-06-29T10:28:34Z</time>
      </trkpt>
      <trkpt lat="46.253643035888672" lon="8.284163475036621">
        <ele>1656.48876953125</ele>
        <time>2008-06-29T10:28:45Z</time>
      </trkpt>
      <trkpt lat="46.253664493560791" lon="8.284056186676025">
        <ele>1656.008056640625</ele>
        <time>2008-06-29T10:28:55Z</time>
      </trkpt>
      <trkpt lat="46.253707408905029" lon="8.283927440643311">
        <ele>1659.853271484375</ele>
        <time>2008-06-29T10:29:07Z</time>
      </trkpt>
      <trkpt lat="46.253750324249268" lon="8.283798694610596">
        <ele>1663.21826171875</ele>
        <time>2008-06-29T10:29:20Z</time>
      </trkpt>
      <trkpt lat="46.253814697265625" lon="8.28369140625">
        <ele>1661.295654296875</ele>
        <time>2008-06-29T10:29:32Z</time>
      </trkpt>
      <trkpt lat="46.253728866577148" lon="8.283584117889404">
        <ele>1645.91455078125</ele>
        <time>2008-06-29T10:33:43Z</time>
      </trkpt>
      <trkpt lat="46.253836154937744" lon="8.283476829528809">
        <ele>1654.085693359375</ele>
        <time>2008-06-29T10:33:58Z</time>
      </trkpt>
      <trkpt lat="46.253900527954102" lon="8.283390998840332">
        <ele>1658.411376953125</ele>
        <time>2008-06-29T10:34:09Z</time>
      </trkpt>
      <trkpt lat="46.253986358642578" lon="8.283305168151856">
        <ele>1664.179443359375</ele>
        <time>2008-06-29T10:34:23Z</time>
      </trkpt>
      <trkpt lat="46.254029273986816" lon="8.28319787979126">
        <ele>1668.024658203125</ele>
        <time>2008-06-29T10:34:37Z</time>
      </trkpt>
      <trkpt lat="46.25394344329834" lon="8.283176422119141">
        <ele>1669.466796875</ele>
        <time>2008-06-29T10:34:48Z</time>
      </trkpt>
      <trkpt lat="46.253879070281982" lon="8.28319787979126">
        <ele>1671.38916015625</ele>
        <time>2008-06-29T10:35:00Z</time>
      </trkpt>
      <trkpt lat="46.253793239593506" lon="8.283240795135498">
        <ele>1672.831298828125</ele>
        <time>2008-06-29T10:35:12Z</time>
      </trkpt>
      <trkpt lat="46.253707408905029" lon="8.283262252807617">
        <ele>1676.6767578125</ele>
        <time>2008-06-29T10:35:23Z</time>
      </trkpt>
      <trkpt lat="46.253643035888672" lon="8.283240795135498">
        <ele>1679.079833984375</ele>
        <time>2008-06-29T10:35:35Z</time>
      </trkpt>
      <trkpt lat="46.253535747528076" lon="8.28319787979126">
        <ele>1681.9638671875</ele>
        <time>2008-06-29T10:35:50Z</time>
      </trkpt>
      <trkpt lat="46.2534499168396" lon="8.283176422119141">
        <ele>1682.925048828125</ele>
        <time>2008-06-29T10:36:02Z</time>
      </trkpt>
      <trkpt lat="46.253342628479004" lon="8.28319787979126">
        <ele>1684.3671875</ele>
        <time>2008-06-29T10:36:16Z</time>
      </trkpt>
      <trkpt lat="46.253278255462646" lon="8.283240795135498">
        <ele>1686.289794921875</ele>
        <time>2008-06-29T10:36:26Z</time>
      </trkpt>
      <trkpt lat="46.25319242477417" lon="8.283283710479736">
        <ele>1687.731689453125</ele>
        <time>2008-06-29T10:36:38Z</time>
      </trkpt>
      <trkpt lat="46.253085136413574" lon="8.283326625823975">
        <ele>1689.173583984375</ele>
        <time>2008-06-29T10:36:51Z</time>
      </trkpt>
      <trkpt lat="46.252999305725098" lon="8.283326625823975">
        <ele>1690.615478515625</ele>
        <time>2008-06-29T10:37:03Z</time>
      </trkpt>
      <trkpt lat="46.252892017364502" lon="8.283348083496094">
        <ele>1692.057861328125</ele>
        <time>2008-06-29T10:37:15Z</time>
      </trkpt>
      <trkpt lat="46.252784729003906" lon="8.283390998840332">
        <ele>1693.98046875</ele>
        <time>2008-06-29T10:37:29Z</time>
      </trkpt>
      <trkpt lat="46.25269889831543" lon="8.283369541168213">
        <ele>1695.903076171875</ele>
        <time>2008-06-29T10:37:41Z</time>
      </trkpt>
      <trkpt lat="46.25269889831543" lon="8.283369541168213">
        <ele>1696.3837890625</ele>
        <time>2008-06-29T10:37:51Z</time>
      </trkpt>
      <trkpt lat="46.252677440643311" lon="8.283326625823975">
        <ele>1698.786865234375</ele>
        <time>2008-06-29T10:38:04Z</time>
      </trkpt>
      <trkpt lat="46.252591609954834" lon="8.283326625823975">
        <ele>1699.748291015625</ele>
        <time>2008-06-29T10:38:14Z</time>
      </trkpt>
      <trkpt lat="46.252548694610596" lon="8.283326625823975">
        <ele>1700.22900390625</ele>
        <time>2008-06-29T10:38:19Z</time>
      </trkpt>
      <trkpt lat="46.252462863922119" lon="8.283412456512451">
        <ele>1702.1513671875</ele>
        <time>2008-06-29T10:38:31Z</time>
      </trkpt>
      <trkpt lat="46.252377033233643" lon="8.283498287200928">
        <ele>1703.593505859375</ele>
        <time>2008-06-29T10:38:41Z</time>
      </trkpt>
      <trkpt lat="46.252312660217285" lon="8.283584117889404">
        <ele>1705.035400390625</ele>
        <time>2008-06-29T10:38:52Z</time>
      </trkpt>
      <trkpt lat="46.252269744873047" lon="8.283648490905762">
        <ele>1705.51611328125</ele>
        <time>2008-06-29T10:39:01Z</time>
      </trkpt>
      <trkpt lat="46.25218391418457" lon="8.283755779266357">
        <ele>1705.99658203125</ele>
        <time>2008-06-29T10:39:14Z</time>
      </trkpt>
      <trkpt lat="46.252119541168213" lon="8.283798694610596">
        <ele>1707.438720703125</ele>
        <time>2008-06-29T10:39:25Z</time>
      </trkpt>
      <trkpt lat="46.252055168151855" lon="8.283755779266357">
        <ele>1704.5546875</ele>
        <time>2008-06-29T10:41:08Z</time>
      </trkpt>
      <trkpt lat="46.252033710479736" lon="8.283755779266357">
        <ele>1705.51611328125</ele>
        <time>2008-06-29T10:41:18Z</time>
      </trkpt>
      <trkpt lat="46.252012252807617" lon="8.283755779266357">
        <ele>1704.5546875</ele>
        <time>2008-06-29T10:41:43Z</time>
      </trkpt>
      <trkpt lat="46.252012252807617" lon="8.283755779266357">
        <ele>1707.91943359375</ele>
        <time>2008-06-29T11:16:59Z</time>
      </trkpt>
      <trkpt lat="46.251969337463379" lon="8.283669948577881">
        <ele>1709.361572265625</ele>
        <time>2008-06-29T11:17:11Z</time>
      </trkpt>
      <trkpt lat="46.251969337463379" lon="8.283605575561523">
        <ele>1710.803466796875</ele>
        <time>2008-06-29T11:17:22Z</time>
      </trkpt>
      <trkpt lat="46.251969337463379" lon="8.283541202545166">
        <ele>1712.245361328125</ele>
        <time>2008-06-29T11:17:31Z</time>
      </trkpt>
      <trkpt lat="46.251969337463379" lon="8.283476829528809">
        <ele>1713.206787109375</ele>
        <time>2008-06-29T11:17:39Z</time>
      </trkpt>
      <trkpt lat="46.252012252807617" lon="8.283390998840332">
        <ele>1714.648681640625</ele>
        <time>2008-06-29T11:17:50Z</time>
      </trkpt>
      <trkpt lat="46.252033710479736" lon="8.283326625823975">
        <ele>1714.648681640625</ele>
        <time>2008-06-29T11:18:00Z</time>
      </trkpt>
      <trkpt lat="46.252012252807617" lon="8.283240795135498">
        <ele>1716.5712890625</ele>
        <time>2008-06-29T11:18:12Z</time>
      </trkpt>
      <trkpt lat="46.251990795135498" lon="8.283219337463379">
        <ele>1717.532470703125</ele>
        <time>2008-06-29T11:18:22Z</time>
      </trkpt>
      <trkpt lat="46.25194787979126" lon="8.283219337463379">
        <ele>1720.897216796875</ele>
        <time>2008-06-29T11:18:37Z</time>
      </trkpt>
      <trkpt lat="46.251904964447021" lon="8.283219337463379">
        <ele>1720.897216796875</ele>
        <time>2008-06-29T11:18:46Z</time>
      </trkpt>
      <trkpt lat="46.251883506774902" lon="8.283240795135498">
        <ele>1721.377685546875</ele>
        <time>2008-06-29T11:19:17Z</time>
      </trkpt>
      <trkpt lat="46.251797676086426" lon="8.283283710479736">
        <ele>1721.8583984375</ele>
        <time>2008-06-29T11:19:37Z</time>
      </trkpt>
      <trkpt lat="46.25169038772583" lon="8.283348083496094">
        <ele>1723.300537109375</ele>
        <time>2008-06-29T11:19:48Z</time>
      </trkpt>
      <trkpt lat="46.251604557037354" lon="8.283390998840332">
        <ele>1725.22314453125</ele>
        <time>2008-06-29T11:19:58Z</time>
      </trkpt>
      <trkpt lat="46.251518726348877" lon="8.28343391418457">
        <ele>1725.703857421875</ele>
        <time>2008-06-29T11:20:09Z</time>
      </trkpt>
      <trkpt lat="46.25145435333252" lon="8.283476829528809">
        <ele>1726.1845703125</ele>
        <time>2008-06-29T11:20:16Z</time>
      </trkpt>
      <trkpt lat="46.251304149627686" lon="8.283519744873047">
        <ele>1728.107177734375</ele>
        <time>2008-06-29T11:20:34Z</time>
      </trkpt>
      <trkpt lat="46.25119686126709" lon="8.283562660217285">
        <ele>1729.549072265625</ele>
        <time>2008-06-29T11:20:46Z</time>
      </trkpt>
      <trkpt lat="46.251132488250732" lon="8.283605575561523">
        <ele>1730.02978515625</ele>
        <time>2008-06-29T11:20:54Z</time>
      </trkpt>
      <trkpt lat="46.251132488250732" lon="8.283605575561523">
        <ele>1730.02978515625</ele>
        <time>2008-06-29T11:20:55Z</time>
      </trkpt>
      <trkpt lat="46.251025199890137" lon="8.283734321594238">
        <ele>1731.4716796875</ele>
        <time>2008-06-29T11:21:05Z</time>
      </trkpt>
      <trkpt lat="46.250896453857422" lon="8.283884525299072">
        <ele>1732.43310546875</ele>
        <time>2008-06-29T11:21:16Z</time>
      </trkpt>
      <trkpt lat="46.250810623168945" lon="8.283991813659668">
        <ele>1733.394287109375</ele>
        <time>2008-06-29T11:21:25Z</time>
      </trkpt>
      <trkpt lat="46.250810623168945" lon="8.283970355987549">
        <ele>1732.43310546875</ele>
        <time>2008-06-29T11:21:44Z</time>
      </trkpt>
      <trkpt lat="46.250832080841064" lon="8.283970355987549">
        <ele>1732.43310546875</ele>
        <time>2008-06-29T11:22:17Z</time>
      </trkpt>
      <trkpt lat="46.250789165496826" lon="8.284056186676025">
        <ele>1733.394287109375</ele>
        <time>2008-06-29T11:22:23Z</time>
      </trkpt>
      <trkpt lat="46.250660419464111" lon="8.284206390380859">
        <ele>1732.43310546875</ele>
        <time>2008-06-29T11:22:32Z</time>
      </trkpt>
      <trkpt lat="46.250596046447754" lon="8.284227848052979">
        <ele>1732.43310546875</ele>
        <time>2008-06-29T11:22:41Z</time>
      </trkpt>
      <trkpt lat="46.250553131103516" lon="8.284120559692383">
        <ele>1734.355712890625</ele>
        <time>2008-06-29T11:22:49Z</time>
      </trkpt>
      <trkpt lat="46.250510215759277" lon="8.284034729003906">
        <ele>1736.7587890625</ele>
        <time>2008-06-29T11:22:59Z</time>
      </trkpt>
      <trkpt lat="46.25044584274292" lon="8.283991813659668">
        <ele>1738.200927734375</ele>
        <time>2008-06-29T11:23:08Z</time>
      </trkpt>
      <trkpt lat="46.250381469726563" lon="8.283970355987549">
        <ele>1740.604248046875</ele>
        <time>2008-06-29T11:23:18Z</time>
      </trkpt>
      <trkpt lat="46.250360012054443" lon="8.28394889831543">
        <ele>1739.642822265625</ele>
        <time>2008-06-29T11:23:28Z</time>
      </trkpt>
      <trkpt lat="46.250317096710205" lon="8.283905982971191">
        <ele>1740.123779296875</ele>
        <time>2008-06-29T11:23:50Z</time>
      </trkpt>
      <trkpt lat="46.250231266021729" lon="8.283863067626953">
        <ele>1744.93017578125</ele>
        <time>2008-06-29T11:24:03Z</time>
      </trkpt>
      <trkpt lat="46.250166893005371" lon="8.283798694610596">
        <ele>1747.33349609375</ele>
        <time>2008-06-29T11:24:13Z</time>
      </trkpt>
      <trkpt lat="46.250123977661133" lon="8.283777236938477">
        <ele>1749.256103515625</ele>
        <time>2008-06-29T11:24:23Z</time>
      </trkpt>
      <trkpt lat="46.250123977661133" lon="8.283777236938477">
        <ele>1749.256103515625</ele>
        <time>2008-06-29T11:24:36Z</time>
      </trkpt>
      <trkpt lat="46.250059604644775" lon="8.283755779266357">
        <ele>1750.697998046875</ele>
        <time>2008-06-29T11:24:53Z</time>
      </trkpt>
      <trkpt lat="46.24995231628418" lon="8.283669948577881">
        <ele>1755.02392578125</ele>
        <time>2008-06-29T11:25:08Z</time>
      </trkpt>
      <trkpt lat="46.24995231628418" lon="8.283648490905762">
        <ele>1753.58203125</ele>
        <time>2008-06-29T11:25:18Z</time>
      </trkpt>
      <trkpt lat="46.249930858612061" lon="8.283541202545166">
        <ele>1750.697998046875</ele>
        <time>2008-06-29T11:26:02Z</time>
      </trkpt>
      <trkpt lat="46.249887943267822" lon="8.283498287200928">
        <ele>1754.543212890625</ele>
        <time>2008-06-29T11:26:12Z</time>
      </trkpt>
      <trkpt lat="46.249845027923584" lon="8.283476829528809">
        <ele>1756.94677734375</ele>
        <time>2008-06-29T11:26:21Z</time>
      </trkpt>
      <trkpt lat="46.249802112579346" lon="8.283498287200928">
        <ele>1758.869384765625</ele>
        <time>2008-06-29T11:26:29Z</time>
      </trkpt>
      <trkpt lat="46.249759197235107" lon="8.283498287200928">
        <ele>1761.272705078125</ele>
        <time>2008-06-29T11:26:35Z</time>
      </trkpt>
      <trkpt lat="46.249651908874512" lon="8.283519744873047">
        <ele>1764.63720703125</ele>
        <time>2008-06-29T11:26:48Z</time>
      </trkpt>
      <trkpt lat="46.249608993530273" lon="8.283519744873047">
        <ele>1766.0791015625</ele>
        <time>2008-06-29T11:26:54Z</time>
      </trkpt>
      <trkpt lat="46.249501705169678" lon="8.283498287200928">
        <ele>1767.52099609375</ele>
        <time>2008-06-29T11:27:05Z</time>
      </trkpt>
      <trkpt lat="46.249415874481201" lon="8.283498287200928">
        <ele>1768.963134765625</ele>
        <time>2008-06-29T11:27:15Z</time>
      </trkpt>
      <trkpt lat="46.249372959136963" lon="8.283390998840332">
        <ele>1771.846923828125</ele>
        <time>2008-06-29T11:27:27Z</time>
      </trkpt>
      <trkpt lat="46.249351501464844" lon="8.283262252807617">
        <ele>1771.3662109375</ele>
        <time>2008-06-29T11:27:38Z</time>
      </trkpt>
      <trkpt lat="46.249308586120605" lon="8.283154964447022">
        <ele>1771.846923828125</ele>
        <time>2008-06-29T11:27:48Z</time>
      </trkpt>
      <trkpt lat="46.249287128448486" lon="8.283069133758545">
        <ele>1771.846923828125</ele>
        <time>2008-06-29T11:27:57Z</time>
      </trkpt>
      <trkpt lat="46.249265670776367" lon="8.282961845397949">
        <ele>1773.769775390625</ele>
        <time>2008-06-29T11:28:09Z</time>
      </trkpt>
      <trkpt lat="46.249265670776367" lon="8.282961845397949">
        <ele>1775.211669921875</ele>
        <time>2008-06-29T11:29:13Z</time>
      </trkpt>
      <trkpt lat="46.249179840087891" lon="8.282768726348877">
        <ele>1775.211669921875</ele>
        <time>2008-06-29T11:29:25Z</time>
      </trkpt>
      <trkpt lat="46.249136924743652" lon="8.282661437988281">
        <ele>1775.6923828125</ele>
        <time>2008-06-29T11:29:34Z</time>
      </trkpt>
      <trkpt lat="46.249072551727295" lon="8.282532691955566">
        <ele>1775.6923828125</ele>
        <time>2008-06-29T11:29:45Z</time>
      </trkpt>
      <trkpt lat="46.248986721038818" lon="8.282403945922852">
        <ele>1776.173095703125</ele>
        <time>2008-06-29T11:29:57Z</time>
      </trkpt>
      <trkpt lat="46.248922348022461" lon="8.282253742218018">
        <ele>1777.614990234375</ele>
        <time>2008-06-29T11:30:08Z</time>
      </trkpt>
      <trkpt lat="46.248879432678223" lon="8.282146453857422">
        <ele>1778.095703125</ele>
        <time>2008-06-29T11:30:18Z</time>
      </trkpt>
      <trkpt lat="46.248857975006104" lon="8.282082080841065">
        <ele>1777.614990234375</ele>
        <time>2008-06-29T11:30:23Z</time>
      </trkpt>
      <trkpt lat="46.248857975006104" lon="8.281888961791992">
        <ele>1777.614990234375</ele>
        <time>2008-06-29T11:30:37Z</time>
      </trkpt>
      <trkpt lat="46.248836517333984" lon="8.281738758087158">
        <ele>1778.095703125</ele>
        <time>2008-06-29T11:30:47Z</time>
      </trkpt>
      <trkpt lat="46.248772144317627" lon="8.281631469726563">
        <ele>1779.056884765625</ele>
        <time>2008-06-29T11:30:57Z</time>
      </trkpt>
      <trkpt lat="46.24868631362915" lon="8.281545639038086">
        <ele>1777.614990234375</ele>
        <time>2008-06-29T11:31:07Z</time>
      </trkpt>
      <trkpt lat="46.24868631362915" lon="8.281545639038086">
        <ele>1777.614990234375</ele>
        <time>2008-06-29T11:31:08Z</time>
      </trkpt>
      <trkpt lat="46.248643398284912" lon="8.281567096710205">
        <ele>1777.614990234375</ele>
        <time>2008-06-29T11:31:16Z</time>
      </trkpt>
      <trkpt lat="46.248600482940674" lon="8.281545639038086">
        <ele>1777.134521484375</ele>
        <time>2008-06-29T11:31:25Z</time>
      </trkpt>
      <trkpt lat="46.248557567596436" lon="8.281481266021729">
        <ele>1778.095703125</ele>
        <time>2008-06-29T11:31:33Z</time>
      </trkpt>
      <trkpt lat="46.248514652252197" lon="8.28143835067749">
        <ele>1779.53759765625</ele>
        <time>2008-06-29T11:31:40Z</time>
      </trkpt>
      <trkpt lat="46.24845027923584" lon="8.281331062316895">
        <ele>1782.902099609375</ele>
        <time>2008-06-29T11:31:52Z</time>
      </trkpt>
      <trkpt lat="46.248385906219482" lon="8.281266689300537">
        <ele>1784.824951171875</ele>
        <time>2008-06-29T11:32:03Z</time>
      </trkpt>
      <trkpt lat="46.248321533203125" lon="8.281159400939941">
        <ele>1786.266845703125</ele>
        <time>2008-06-29T11:32:17Z</time>
      </trkpt>
      <trkpt lat="46.248214244842529" lon="8.281116485595703">
        <ele>1789.15087890625</ele>
        <time>2008-06-29T11:32:31Z</time>
      </trkpt>
      <trkpt lat="46.248128414154053" lon="8.281095027923584">
        <ele>1788.67041015625</ele>
        <time>2008-06-29T11:32:43Z</time>
      </trkpt>
      <trkpt lat="46.247978210449219" lon="8.281116485595703">
        <ele>1790.1123046875</ele>
        <time>2008-06-29T11:32:57Z</time>
      </trkpt>
      <trkpt lat="46.247870922088623" lon="8.281073570251465">
        <ele>1790.5927734375</ele>
        <time>2008-06-29T11:33:08Z</time>
      </trkpt>
      <trkpt lat="46.247763633728027" lon="8.280966281890869">
        <ele>1789.15087890625</ele>
        <time>2008-06-29T11:33:19Z</time>
      </trkpt>
      <trkpt lat="46.247677803039551" lon="8.280837535858154">
        <ele>1792.034912109375</ele>
        <time>2008-06-29T11:33:32Z</time>
      </trkpt>
      <trkpt lat="46.247591972351074" lon="8.280665874481201">
        <ele>1794.43798828125</ele>
        <time>2008-06-29T11:33:45Z</time>
      </trkpt>
      <trkpt lat="46.247506141662598" lon="8.280515670776367">
        <ele>1795.3994140625</ele>
        <time>2008-06-29T11:33:57Z</time>
      </trkpt>
      <trkpt lat="46.247484683990479" lon="8.280386924743652">
        <ele>1792.99609375</ele>
        <time>2008-06-29T11:34:08Z</time>
      </trkpt>
      <trkpt lat="46.24744176864624" lon="8.280279636383057">
        <ele>1794.43798828125</ele>
        <time>2008-06-29T11:34:19Z</time>
      </trkpt>
      <trkpt lat="46.247334480285645" lon="8.280215263366699">
        <ele>1795.3994140625</ele>
        <time>2008-06-29T11:34:30Z</time>
      </trkpt>
      <trkpt lat="46.247227191925049" lon="8.280043601989746">
        <ele>1795.880126953125</ele>
        <time>2008-06-29T11:34:40Z</time>
      </trkpt>
      <trkpt lat="46.247098445892334" lon="8.279850482940674">
        <ele>1795.3994140625</ele>
        <time>2008-06-29T11:34:49Z</time>
      </trkpt>
      <trkpt lat="46.246991157531738" lon="8.279786109924316">
        <ele>1795.880126953125</ele>
        <time>2008-06-29T11:34:55Z</time>
      </trkpt>
      <trkpt lat="46.246798038482666" lon="8.279743194580078">
        <ele>1797.322021484375</ele>
        <time>2008-06-29T11:35:06Z</time>
      </trkpt>
      <trkpt lat="46.246476173400879" lon="8.279550075531006">
        <ele>1795.880126953125</ele>
        <time>2008-06-29T11:35:21Z</time>
      </trkpt>
      <trkpt lat="46.246433258056641" lon="8.279485702514648">
        <ele>1795.3994140625</ele>
        <time>2008-06-29T11:35:27Z</time>
      </trkpt>
      <trkpt lat="46.246411800384521" lon="8.279464244842529">
        <ele>1795.880126953125</ele>
        <time>2008-06-29T11:35:30Z</time>
      </trkpt>
      <trkpt lat="46.246390342712402" lon="8.27944278717041">
        <ele>1795.880126953125</ele>
        <time>2008-06-29T11:35:32Z</time>
      </trkpt>
      <trkpt lat="46.246368885040283" lon="8.279356956481934">
        <ele>1795.880126953125</ele>
        <time>2008-06-29T11:35:42Z</time>
      </trkpt>
      <trkpt lat="46.246304512023926" lon="8.279228210449219">
        <ele>1795.880126953125</ele>
        <time>2008-06-29T11:36:11Z</time>
      </trkpt>
      <trkpt lat="46.246261596679688" lon="8.279099464416504">
        <ele>1795.880126953125</ele>
        <time>2008-06-29T11:36:20Z</time>
      </trkpt>
      <trkpt lat="46.246175765991211" lon="8.278670310974121">
        <ele>1795.880126953125</ele>
        <time>2008-06-29T11:36:37Z</time>
      </trkpt>
      <trkpt lat="46.246089935302734" lon="8.278026580810547">
        <ele>1796.36083984375</ele>
        <time>2008-06-29T11:37:07Z</time>
      </trkpt>
      <trkpt lat="46.246068477630615" lon="8.277812004089356">
        <ele>1797.322021484375</ele>
        <time>2008-06-29T11:37:24Z</time>
      </trkpt>
      <trkpt lat="46.246004104614258" lon="8.277747631072998">
        <ele>1797.322021484375</ele>
        <time>2008-06-29T11:37:35Z</time>
      </trkpt>
      <trkpt lat="46.24596118927002" lon="8.277661800384522">
        <ele>1797.322021484375</ele>
        <time>2008-06-29T11:37:48Z</time>
      </trkpt>
      <trkpt lat="46.24596118927002" lon="8.277468681335449">
        <ele>1797.322021484375</ele>
        <time>2008-06-29T11:38:04Z</time>
      </trkpt>
      <trkpt lat="46.2459397315979" lon="8.27721118927002">
        <ele>1795.3994140625</ele>
        <time>2008-06-29T11:38:17Z</time>
      </trkpt>
      <trkpt lat="46.2459397315979" lon="8.277168273925781">
        <ele>1792.034912109375</ele>
        <time>2008-06-29T11:38:21Z</time>
      </trkpt>
      <trkpt lat="46.2459397315979" lon="8.277125358581543">
        <ele>1789.631591796875</ele>
        <time>2008-06-29T11:38:24Z</time>
      </trkpt>
      <trkpt lat="46.245918273925781" lon="8.276867866516113">
        <ele>1789.631591796875</ele>
        <time>2008-06-29T11:38:34Z</time>
      </trkpt>
      <trkpt lat="46.245918273925781" lon="8.276674747467041">
        <ele>1789.631591796875</ele>
        <time>2008-06-29T11:38:45Z</time>
      </trkpt>
      <trkpt lat="46.245875358581543" lon="8.276481628417969">
        <ele>1788.189697265625</ele>
        <time>2008-06-29T11:39:00Z</time>
      </trkpt>
      <trkpt lat="46.245832443237305" lon="8.276352882385254">
        <ele>1785.305419921875</ele>
        <time>2008-06-29T11:39:10Z</time>
      </trkpt>
      <trkpt lat="46.245832443237305" lon="8.276309967041016">
        <ele>1785.305419921875</ele>
        <time>2008-06-29T11:39:17Z</time>
      </trkpt>
      <trkpt lat="46.245768070220947" lon="8.276181221008301">
        <ele>1785.7861328125</ele>
        <time>2008-06-29T11:39:22Z</time>
      </trkpt>
      <trkpt lat="46.245682239532471" lon="8.275988101959229">
        <ele>1781.460205078125</ele>
        <time>2008-06-29T11:39:30Z</time>
      </trkpt>
      <trkpt lat="46.245596408843994" lon="8.275816440582275">
        <ele>1777.134521484375</ele>
        <time>2008-06-29T11:39:39Z</time>
      </trkpt>
      <trkpt lat="46.245574951171875" lon="8.275752067565918">
        <ele>1775.6923828125</ele>
        <time>2008-06-29T11:39:45Z</time>
      </trkpt>
      <trkpt lat="46.245574951171875" lon="8.27570915222168">
        <ele>1774.25048828125</ele>
        <time>2008-06-29T11:39:53Z</time>
      </trkpt>
      <trkpt lat="46.245532035827637" lon="8.275580406188965">
        <ele>1771.3662109375</ele>
        <time>2008-06-29T11:39:59Z</time>
      </trkpt>
      <trkpt lat="46.245489120483398" lon="8.27545166015625">
        <ele>1769.44384765625</ele>
        <time>2008-06-29T11:40:09Z</time>
      </trkpt>
      <trkpt lat="46.245467662811279" lon="8.275430202484131">
        <ele>1766.559814453125</ele>
        <time>2008-06-29T11:40:17Z</time>
      </trkpt>
      <trkpt lat="46.24544620513916" lon="8.275301456451416">
        <ele>1759.83056640625</ele>
        <time>2008-06-29T11:40:30Z</time>
      </trkpt>
      <trkpt lat="46.245424747467041" lon="8.275237083435059">
        <ele>1755.985107421875</ele>
        <time>2008-06-29T11:40:39Z</time>
      </trkpt>
      <trkpt lat="46.245403289794922" lon="8.275108337402344">
        <ele>1755.985107421875</ele>
        <time>2008-06-29T11:40:52Z</time>
      </trkpt>
      <trkpt lat="46.245424747467041" lon="8.275001049041748">
        <ele>1755.504638671875</ele>
        <time>2008-06-29T11:41:03Z</time>
      </trkpt>
      <trkpt lat="46.245424747467041" lon="8.274786472320557">
        <ele>1755.02392578125</ele>
        <time>2008-06-29T11:41:19Z</time>
      </trkpt>
      <trkpt lat="46.245403289794922" lon="8.274743556976318">
        <ele>1751.659423828125</ele>
        <time>2008-06-29T11:41:31Z</time>
      </trkpt>
      <trkpt lat="46.245424747467041" lon="8.274679183959961">
        <ele>1754.062744140625</ele>
        <time>2008-06-29T11:42:41Z</time>
      </trkpt>
      <trkpt lat="46.245403289794922" lon="8.274593353271484">
        <ele>1753.101318359375</ele>
        <time>2008-06-29T11:42:54Z</time>
      </trkpt>
      <trkpt lat="46.245403289794922" lon="8.274528980255127">
        <ele>1752.62060546875</ele>
        <time>2008-06-29T11:43:06Z</time>
      </trkpt>
      <trkpt lat="46.245381832122803" lon="8.27444314956665">
        <ele>1752.139892578125</ele>
        <time>2008-06-29T11:43:15Z</time>
      </trkpt>
      <trkpt lat="46.245338916778564" lon="8.27420711517334">
        <ele>1752.62060546875</ele>
        <time>2008-06-29T11:43:28Z</time>
      </trkpt>
      <trkpt lat="46.245231628417969" lon="8.274013996124268">
        <ele>1752.139892578125</ele>
        <time>2008-06-29T11:43:38Z</time>
      </trkpt>
      <trkpt lat="46.245059967041016" lon="8.273670673370361">
        <ele>1751.1787109375</ele>
        <time>2008-06-29T11:43:54Z</time>
      </trkpt>
      <trkpt lat="46.244995594024658" lon="8.273520469665527">
        <ele>1750.697998046875</ele>
        <time>2008-06-29T11:44:06Z</time>
      </trkpt>
      <trkpt lat="46.244995594024658" lon="8.273477554321289">
        <ele>1748.775390625</ele>
        <time>2008-06-29T11:44:16Z</time>
      </trkpt>
      <trkpt lat="46.244974136352539" lon="8.273413181304932">
        <ele>1747.814208984375</ele>
        <time>2008-06-29T11:44:24Z</time>
      </trkpt>
      <trkpt lat="46.24495267868042" lon="8.273305892944336">
        <ele>1746.372314453125</ele>
        <time>2008-06-29T11:44:37Z</time>
      </trkpt>
      <trkpt lat="46.244931221008301" lon="8.27319860458374">
        <ele>1744.449462890625</ele>
        <time>2008-06-29T11:44:46Z</time>
      </trkpt>
      <trkpt lat="46.244931221008301" lon="8.273177146911621">
        <ele>1743.968994140625</ele>
        <time>2008-06-29T11:44:49Z</time>
      </trkpt>
      <trkpt lat="46.244866847991943" lon="8.27319860458374">
        <ele>1743.968994140625</ele>
        <time>2008-06-29T11:44:56Z</time>
      </trkpt>
      <trkpt lat="46.244845390319824" lon="8.273220062255859">
        <ele>1743.48828125</ele>
        <time>2008-06-29T11:45:02Z</time>
      </trkpt>
      <trkpt lat="46.244845390319824" lon="8.273220062255859">
        <ele>1743.48828125</ele>
        <time>2008-06-29T11:45:03Z</time>
      </trkpt>
      <trkpt lat="46.244781017303467" lon="8.273262977600098">
        <ele>1743.007568359375</ele>
        <time>2008-06-29T11:45:08Z</time>
      </trkpt>
      <trkpt lat="46.244759559631348" lon="8.273241519927979">
        <ele>1742.527099609375</ele>
        <time>2008-06-29T11:45:11Z</time>
      </trkpt>
      <trkpt lat="46.244716644287109" lon="8.273262977600098">
        <ele>1741.565673828125</ele>
        <time>2008-06-29T11:45:20Z</time>
      </trkpt>
      <trkpt lat="46.24469518661499" lon="8.273262977600098">
        <ele>1741.0849609375</ele>
        <time>2008-06-29T11:45:27Z</time>
      </trkpt>
      <trkpt lat="46.244630813598633" lon="8.273262977600098">
        <ele>1741.0849609375</ele>
        <time>2008-06-29T11:45:36Z</time>
      </trkpt>
      <trkpt lat="46.244609355926514" lon="8.273262977600098">
        <ele>1739.642822265625</ele>
        <time>2008-06-29T11:45:45Z</time>
      </trkpt>
      <trkpt lat="46.244502067565918" lon="8.273262977600098">
        <ele>1735.797607421875</ele>
        <time>2008-06-29T11:45:57Z</time>
      </trkpt>
      <trkpt lat="46.24445915222168" lon="8.273284435272217">
        <ele>1735.797607421875</ele>
        <time>2008-06-29T11:45:59Z</time>
      </trkpt>
      <trkpt lat="46.244330406188965" lon="8.273241519927979">
        <ele>1733.875</ele>
        <time>2008-06-29T11:46:05Z</time>
      </trkpt>
      <trkpt lat="46.244266033172607" lon="8.273241519927979">
        <ele>1736.2783203125</ele>
        <time>2008-06-29T11:46:32Z</time>
      </trkpt>
      <trkpt lat="46.244115829467773" lon="8.273348808288574">
        <ele>1732.43310546875</ele>
        <time>2008-06-29T11:46:40Z</time>
      </trkpt>
      <trkpt lat="46.243987083435059" lon="8.273434638977051">
        <ele>1726.665283203125</ele>
        <time>2008-06-29T11:46:47Z</time>
      </trkpt>
      <trkpt lat="46.243858337402344" lon="8.273584842681885">
        <ele>1723.300537109375</ele>
        <time>2008-06-29T11:46:55Z</time>
      </trkpt>
      <trkpt lat="46.243858337402344" lon="8.273584842681885">
        <ele>1722.81982421875</ele>
        <time>2008-06-29T11:47:02Z</time>
      </trkpt>
      <trkpt lat="46.243858337402344" lon="8.273606300354004">
        <ele>1722.81982421875</ele>
        <time>2008-06-29T11:47:05Z</time>
      </trkpt>
      <trkpt lat="46.243922710418701" lon="8.273649215698242">
        <ele>1721.8583984375</ele>
        <time>2008-06-29T11:47:14Z</time>
      </trkpt>
      <trkpt lat="46.244029998779297" lon="8.2737135887146">
        <ele>1721.8583984375</ele>
        <time>2008-06-29T11:47:23Z</time>
      </trkpt>
      <trkpt lat="46.244158744812012" lon="8.273799419403076">
        <ele>1721.377685546875</ele>
        <time>2008-06-29T11:47:31Z</time>
      </trkpt>
      <trkpt lat="46.24420166015625" lon="8.273799419403076">
        <ele>1719.935791015625</ele>
        <time>2008-06-29T11:47:38Z</time>
      </trkpt>
      <trkpt lat="46.244244575500488" lon="8.273799419403076">
        <ele>1719.455322265625</ele>
        <time>2008-06-29T11:47:45Z</time>
      </trkpt>
      <trkpt lat="46.244308948516846" lon="8.273842334747315">
        <ele>1717.532470703125</ele>
        <time>2008-06-29T11:47:53Z</time>
      </trkpt>
      <trkpt lat="46.244351863861084" lon="8.273842334747315">
        <ele>1716.5712890625</ele>
        <time>2008-06-29T11:47:58Z</time>
      </trkpt>
      <trkpt lat="46.244351863861084" lon="8.273842334747315">
        <ele>1716.5712890625</ele>
        <time>2008-06-29T11:47:59Z</time>
      </trkpt>
      <trkpt lat="46.244394779205322" lon="8.273863792419434">
        <ele>1715.610107421875</ele>
        <time>2008-06-29T11:48:07Z</time>
      </trkpt>
      <trkpt lat="46.244394779205322" lon="8.273971080780029">
        <ele>1714.648681640625</ele>
        <time>2008-06-29T11:48:29Z</time>
      </trkpt>
      <trkpt lat="46.244394779205322" lon="8.273971080780029">
        <ele>1715.12939453125</ele>
        <time>2008-06-29T11:48:30Z</time>
      </trkpt>
      <trkpt lat="46.244330406188965" lon="8.274164199829102">
        <ele>1716.090576171875</ele>
        <time>2008-06-29T11:48:44Z</time>
      </trkpt>
      <trkpt lat="46.244330406188965" lon="8.27420711517334">
        <ele>1717.532470703125</ele>
        <time>2008-06-29T11:48:53Z</time>
      </trkpt>
      <trkpt lat="46.244373321533203" lon="8.274250030517578">
        <ele>1716.090576171875</ele>
        <time>2008-06-29T11:49:03Z</time>
      </trkpt>
      <trkpt lat="46.244373321533203" lon="8.274314403533936">
        <ele>1714.16796875</ele>
        <time>2008-06-29T11:49:09Z</time>
      </trkpt>
      <trkpt lat="46.244308948516846" lon="8.27446460723877">
        <ele>1712.72607421875</ele>
        <time>2008-06-29T11:49:17Z</time>
      </trkpt>
      <trkpt lat="46.244308948516846" lon="8.274486064910889">
        <ele>1712.245361328125</ele>
        <time>2008-06-29T11:49:19Z</time>
      </trkpt>
      <trkpt lat="46.244373321533203" lon="8.274679183959961">
        <ele>1708.400146484375</ele>
        <time>2008-06-29T11:49:29Z</time>
      </trkpt>
      <trkpt lat="46.244373321533203" lon="8.27470064163208">
        <ele>1706.9580078125</ele>
        <time>2008-06-29T11:49:39Z</time>
      </trkpt>
      <trkpt lat="46.244416236877441" lon="8.274786472320557">
        <ele>1705.035400390625</ele>
        <time>2008-06-29T11:49:46Z</time>
      </trkpt>
      <trkpt lat="46.244416236877441" lon="8.274936676025391">
        <ele>1710.803466796875</ele>
        <time>2008-06-29T11:50:50Z</time>
      </trkpt>
      <trkpt lat="46.244394779205322" lon="8.274915218353272">
        <ele>1710.32275390625</ele>
        <time>2008-06-29T11:51:06Z</time>
      </trkpt>
      <trkpt lat="46.244394779205322" lon="8.27495813369751">
        <ele>1707.438720703125</ele>
        <time>2008-06-29T11:51:17Z</time>
      </trkpt>
      <trkpt lat="46.244523525238037" lon="8.27519416809082">
        <ele>1704.5546875</ele>
        <time>2008-06-29T11:51:37Z</time>
      </trkpt>
      <trkpt lat="46.244544982910156" lon="8.275279998779297">
        <ele>1702.632080078125</ele>
        <time>2008-06-29T11:51:42Z</time>
      </trkpt>
      <trkpt lat="46.244480609893799" lon="8.27545166015625">
        <ele>1701.6708984375</ele>
        <time>2008-06-29T11:51:49Z</time>
      </trkpt>
      <trkpt lat="46.24445915222168" lon="8.275494575500488">
        <ele>1702.632080078125</ele>
        <time>2008-06-29T11:51:55Z</time>
      </trkpt>
      <trkpt lat="46.24445915222168" lon="8.275494575500488">
        <ele>1698.786865234375</ele>
        <time>2008-06-29T11:52:05Z</time>
      </trkpt>
      <trkpt lat="46.24445915222168" lon="8.275558948516846">
        <ele>1698.30615234375</ele>
        <time>2008-06-29T11:52:14Z</time>
      </trkpt>
      <trkpt lat="46.244394779205322" lon="8.275687694549561">
        <ele>1697.82568359375</ele>
        <time>2008-06-29T11:52:31Z</time>
      </trkpt>
      <trkpt lat="46.244330406188965" lon="8.275966644287109">
        <ele>1697.82568359375</ele>
        <time>2008-06-29T11:52:46Z</time>
      </trkpt>
      <trkpt lat="46.244223117828369" lon="8.276245594024658">
        <ele>1697.82568359375</ele>
        <time>2008-06-29T11:52:56Z</time>
      </trkpt>
      <trkpt lat="46.244158744812012" lon="8.276374340057373">
        <ele>1692.057861328125</ele>
        <time>2008-06-29T11:53:04Z</time>
      </trkpt>
      <trkpt lat="46.244137287139893" lon="8.276524543762207">
        <ele>1681.483154296875</ele>
        <time>2008-06-29T11:53:29Z</time>
      </trkpt>
      <trkpt lat="46.244115829467773" lon="8.276588916778565">
        <ele>1678.11865234375</ele>
        <time>2008-06-29T11:53:54Z</time>
      </trkpt>
      <trkpt lat="46.244094371795654" lon="8.276674747467041">
        <ele>1670.90869140625</ele>
        <time>2008-06-29T11:54:28Z</time>
      </trkpt>
      <trkpt lat="46.244094371795654" lon="8.276717662811279">
        <ele>1667.5439453125</ele>
        <time>2008-06-29T11:54:39Z</time>
      </trkpt>
      <trkpt lat="46.244137287139893" lon="8.276846408843994">
        <ele>1665.62158203125</ele>
        <time>2008-06-29T11:54:50Z</time>
      </trkpt>
      <trkpt lat="46.244137287139893" lon="8.276867866516113">
        <ele>1665.62158203125</ele>
        <time>2008-06-29T11:54:52Z</time>
      </trkpt>
      <trkpt lat="46.244180202484131" lon="8.276975154876709">
        <ele>1661.295654296875</ele>
        <time>2008-06-29T11:55:00Z</time>
      </trkpt>
      <trkpt lat="46.24420166015625" lon="8.277039527893066">
        <ele>1656.969482421875</ele>
        <time>2008-06-29T11:55:07Z</time>
      </trkpt>
      <trkpt lat="46.244223117828369" lon="8.27721118927002">
        <ele>1654.085693359375</ele>
        <time>2008-06-29T11:55:21Z</time>
      </trkpt>
      <trkpt lat="46.244223117828369" lon="8.277297019958496">
        <ele>1654.566162109375</ele>
        <time>2008-06-29T11:55:34Z</time>
      </trkpt>
      <trkpt lat="46.244223117828369" lon="8.277382850646973">
        <ele>1654.566162109375</ele>
        <time>2008-06-29T11:55:48Z</time>
      </trkpt>
      <trkpt lat="46.244223117828369" lon="8.277404308319092">
        <ele>1654.566162109375</ele>
        <time>2008-06-29T11:55:57Z</time>
      </trkpt>
      <trkpt lat="46.244266033172607" lon="8.277575969696045">
        <ele>1654.566162109375</ele>
        <time>2008-06-29T11:56:04Z</time>
      </trkpt>
      <trkpt lat="46.244287490844727" lon="8.27770471572876">
        <ele>1654.566162109375</ele>
        <time>2008-06-29T11:56:11Z</time>
      </trkpt>
      <trkpt lat="46.244244575500488" lon="8.27796220779419">
        <ele>1654.566162109375</ele>
        <time>2008-06-29T11:56:19Z</time>
      </trkpt>
      <trkpt lat="46.244137287139893" lon="8.27869176864624">
        <ele>1654.566162109375</ele>
        <time>2008-06-29T11:56:42Z</time>
      </trkpt>
      <trkpt lat="46.244029998779297" lon="8.27894926071167">
        <ele>1651.682373046875</ele>
        <time>2008-06-29T11:56:55Z</time>
      </trkpt>
      <trkpt lat="46.243965625762939" lon="8.279271125793457">
        <ele>1651.20166015625</ele>
        <time>2008-06-29T11:57:09Z</time>
      </trkpt>
      <trkpt lat="46.243922710418701" lon="8.279507160186768">
        <ele>1651.20166015625</ele>
        <time>2008-06-29T11:57:20Z</time>
      </trkpt>
      <trkpt lat="46.243858337402344" lon="8.27970027923584">
        <ele>1649.759765625</ele>
        <time>2008-06-29T11:57:33Z</time>
      </trkpt>
      <trkpt lat="46.243858337402344" lon="8.279678821563721">
        <ele>1646.875732421875</ele>
        <time>2008-06-29T11:58:08Z</time>
      </trkpt>
      <trkpt lat="46.243836879730225" lon="8.279764652252197">
        <ele>1646.875732421875</ele>
        <time>2008-06-29T11:58:25Z</time>
      </trkpt>
      <trkpt lat="46.243751049041748" lon="8.279893398284912">
        <ele>1643.510986328125</ele>
        <time>2008-06-29T11:58:39Z</time>
      </trkpt>
      <trkpt lat="46.243665218353271" lon="8.280129432678223">
        <ele>1640.146484375</ele>
        <time>2008-06-29T11:58:52Z</time>
      </trkpt>
      <trkpt lat="46.243600845336914" lon="8.280365467071533">
        <ele>1639.18505859375</ele>
        <time>2008-06-29T11:59:19Z</time>
      </trkpt>
      <trkpt lat="46.243579387664795" lon="8.280494213104248">
        <ele>1633.89794921875</ele>
        <time>2008-06-29T11:59:34Z</time>
      </trkpt>
      <trkpt lat="46.243600845336914" lon="8.280494213104248">
        <ele>1623.323486328125</ele>
        <time>2008-06-29T11:59:45Z</time>
      </trkpt>
      <trkpt lat="46.243600845336914" lon="8.280580043792725">
        <ele>1618.99755859375</ele>
        <time>2008-06-29T11:59:53Z</time>
      </trkpt>
      <trkpt lat="46.243622303009033" lon="8.280622959136963">
        <ele>1615.15234375</ele>
        <time>2008-06-29T12:00:00Z</time>
      </trkpt>
      <trkpt lat="46.243643760681152" lon="8.280730247497559">
        <ele>1612.268310546875</ele>
        <time>2008-06-29T12:00:17Z</time>
      </trkpt>
      <trkpt lat="46.243686676025391" lon="8.280773162841797">
        <ele>1606.01953125</ele>
        <time>2008-06-29T12:00:27Z</time>
      </trkpt>
      <trkpt lat="46.243772506713867" lon="8.280901908874512">
        <ele>1593.041748046875</ele>
        <time>2008-06-29T12:01:22Z</time>
      </trkpt>
      <trkpt lat="46.243686676025391" lon="8.280901908874512">
        <ele>1592.08056640625</ele>
        <time>2008-06-29T12:01:36Z</time>
      </trkpt>
      <trkpt lat="46.243686676025391" lon="8.280966281890869">
        <ele>1590.638427734375</ele>
        <time>2008-06-29T12:01:51Z</time>
      </trkpt>
      <trkpt lat="46.243729591369629" lon="8.281030654907227">
        <ele>1589.196533203125</ele>
        <time>2008-06-29T12:02:18Z</time>
      </trkpt>
      <trkpt lat="46.243858337402344" lon="8.281159400939941">
        <ele>1586.793212890625</ele>
        <time>2008-06-29T12:02:29Z</time>
      </trkpt>
      <trkpt lat="46.244008541107178" lon="8.281395435333252">
        <ele>1587.754638671875</ele>
        <time>2008-06-29T12:02:44Z</time>
      </trkpt>
      <trkpt lat="46.244072914123535" lon="8.281502723693848">
        <ele>1587.754638671875</ele>
        <time>2008-06-29T12:02:57Z</time>
      </trkpt>
      <trkpt lat="46.24420166015625" lon="8.281674385070801">
        <ele>1587.754638671875</ele>
        <time>2008-06-29T12:03:38Z</time>
      </trkpt>
      <trkpt lat="46.244223117828369" lon="8.281652927398682">
        <ele>1585.351318359375</ele>
        <time>2008-06-29T12:03:50Z</time>
      </trkpt>
      <trkpt lat="46.24420166015625" lon="8.281652927398682">
        <ele>1582.467529296875</ele>
        <time>2008-06-29T12:04:00Z</time>
      </trkpt>
      <trkpt lat="46.244223117828369" lon="8.281674385070801">
        <ele>1582.467529296875</ele>
        <time>2008-06-29T12:04:07Z</time>
      </trkpt>
      <trkpt lat="46.244244575500488" lon="8.281760215759277">
        <ele>1580.064208984375</ele>
        <time>2008-06-29T12:04:11Z</time>
      </trkpt>
      <trkpt lat="46.24420166015625" lon="8.281996250152588">
        <ele>1579.583251953125</ele>
        <time>2008-06-29T12:04:25Z</time>
      </trkpt>
      <trkpt lat="46.244180202484131" lon="8.282124996185303">
        <ele>1577.18017578125</ele>
        <time>2008-06-29T12:04:37Z</time>
      </trkpt>
      <trkpt lat="46.244180202484131" lon="8.282146453857422">
        <ele>1577.66064453125</ele>
        <time>2008-06-29T12:05:01Z</time>
      </trkpt>
      <trkpt lat="46.24420166015625" lon="8.282275199890137">
        <ele>1574.296142578125</ele>
        <time>2008-06-29T12:05:20Z</time>
      </trkpt>
      <trkpt lat="46.244072914123535" lon="8.282296657562256">
        <ele>1551.705322265625</ele>
        <time>2008-06-29T12:06:23Z</time>
      </trkpt>
      <trkpt lat="46.244072914123535" lon="8.28244686126709">
        <ele>1550.263427734375</ele>
        <time>2008-06-29T12:06:36Z</time>
      </trkpt>
      <trkpt lat="46.244094371795654" lon="8.282661437988281">
        <ele>1547.379150390625</ele>
        <time>2008-06-29T12:06:47Z</time>
      </trkpt>
      <trkpt lat="46.244137287139893" lon="8.282833099365234">
        <ele>1547.379150390625</ele>
        <time>2008-06-29T12:07:01Z</time>
      </trkpt>
      <trkpt lat="46.244223117828369" lon="8.283090591430664">
        <ele>1546.41796875</ele>
        <time>2008-06-29T12:07:28Z</time>
      </trkpt>
      <trkpt lat="46.244223117828369" lon="8.283069133758545">
        <ele>1544.975830078125</ele>
        <time>2008-06-29T12:07:37Z</time>
      </trkpt>
      <trkpt lat="46.244244575500488" lon="8.283112049102783">
        <ele>1543.05322265625</ele>
        <time>2008-06-29T12:08:01Z</time>
      </trkpt>
      <trkpt lat="46.244244575500488" lon="8.283262252807617">
        <ele>1535.843505859375</ele>
        <time>2008-06-29T12:08:12Z</time>
      </trkpt>
      <trkpt lat="46.24420166015625" lon="8.283390998840332">
        <ele>1534.88232421875</ele>
        <time>2008-06-29T12:08:23Z</time>
      </trkpt>
      <trkpt lat="46.244223117828369" lon="8.28345537185669">
        <ele>1530.55615234375</ele>
        <time>2008-06-29T12:08:33Z</time>
      </trkpt>
      <trkpt lat="46.244223117828369" lon="8.283476829528809">
        <ele>1530.075439453125</ele>
        <time>2008-06-29T12:08:36Z</time>
      </trkpt>
      <trkpt lat="46.244287490844727" lon="8.283669948577881">
        <ele>1529.114013671875</ele>
        <time>2008-06-29T12:08:42Z</time>
      </trkpt>
      <trkpt lat="46.244330406188965" lon="8.28369140625">
        <ele>1526.7109375</ele>
        <time>2008-06-29T12:08:47Z</time>
      </trkpt>
      <trkpt lat="46.244437694549561" lon="8.28369140625">
        <ele>1523.826904296875</ele>
        <time>2008-06-29T12:09:11Z</time>
      </trkpt>
      <trkpt lat="46.244416236877441" lon="8.283798694610596">
        <ele>1525.268798828125</ele>
        <time>2008-06-29T12:16:39Z</time>
      </trkpt>
      <trkpt lat="46.244394779205322" lon="8.283863067626953">
        <ele>1522.385009765625</ele>
        <time>2008-06-29T12:16:54Z</time>
      </trkpt>
      <trkpt lat="46.244394779205322" lon="8.283884525299072">
        <ele>1522.385009765625</ele>
        <time>2008-06-29T12:16:58Z</time>
      </trkpt>
      <trkpt lat="46.244394779205322" lon="8.28394889831543">
        <ele>1519.501220703125</ele>
        <time>2008-06-29T12:17:04Z</time>
      </trkpt>
      <trkpt lat="46.244373321533203" lon="8.28394889831543">
        <ele>1519.0205078125</ele>
        <time>2008-06-29T12:17:05Z</time>
      </trkpt>
      <trkpt lat="46.244287490844727" lon="8.283927440643311">
        <ele>1516.136474609375</ele>
        <time>2008-06-29T12:17:10Z</time>
      </trkpt>
      <trkpt lat="46.244287490844727" lon="8.283970355987549">
        <ele>1513.73291015625</ele>
        <time>2008-06-29T12:17:17Z</time>
      </trkpt>
      <trkpt lat="46.244330406188965" lon="8.284056186676025">
        <ele>1509.8876953125</ele>
        <time>2008-06-29T12:17:25Z</time>
      </trkpt>
      <trkpt lat="46.244287490844727" lon="8.284077644348145">
        <ele>1507.00390625</ele>
        <time>2008-06-29T12:17:39Z</time>
      </trkpt>
      <trkpt lat="46.244287490844727" lon="8.284077644348145">
        <ele>1507.00390625</ele>
        <time>2008-06-29T12:17:40Z</time>
      </trkpt>
      <trkpt lat="46.244180202484131" lon="8.284013271331787">
        <ele>1505.56201171875</ele>
        <time>2008-06-29T12:17:51Z</time>
      </trkpt>
      <trkpt lat="46.244158744812012" lon="8.284013271331787">
        <ele>1504.6005859375</ele>
        <time>2008-06-29T12:17:53Z</time>
      </trkpt>
      <trkpt lat="46.244094371795654" lon="8.283970355987549">
        <ele>1505.081298828125</ele>
        <time>2008-06-29T12:18:00Z</time>
      </trkpt>
      <trkpt lat="46.244029998779297" lon="8.283991813659668">
        <ele>1503.15869140625</ele>
        <time>2008-06-29T12:18:08Z</time>
      </trkpt>
      <trkpt lat="46.244029998779297" lon="8.283991813659668">
        <ele>1502.677978515625</ele>
        <time>2008-06-29T12:18:21Z</time>
      </trkpt>
      <trkpt lat="46.244072914123535" lon="8.284056186676025">
        <ele>1501.236083984375</ele>
        <time>2008-06-29T12:18:29Z</time>
      </trkpt>
      <trkpt lat="46.244072914123535" lon="8.284099102020264">
        <ele>1500.75537109375</ele>
        <time>2008-06-29T12:18:36Z</time>
      </trkpt>
      <trkpt lat="46.244094371795654" lon="8.284120559692383">
        <ele>1502.197265625</ele>
        <time>2008-06-29T12:18:44Z</time>
      </trkpt>
      <trkpt lat="46.244137287139893" lon="8.284142017364502">
        <ele>1500.27490234375</ele>
        <time>2008-06-29T12:18:52Z</time>
      </trkpt>
      <trkpt lat="46.244137287139893" lon="8.284163475036621">
        <ele>1499.7939453125</ele>
        <time>2008-06-29T12:18:58Z</time>
      </trkpt>
      <trkpt lat="46.244072914123535" lon="8.284227848052979">
        <ele>1498.83251953125</ele>
        <time>2008-06-29T12:19:04Z</time>
      </trkpt>
      <trkpt lat="46.244072914123535" lon="8.284249305725098">
        <ele>1497.871337890625</ele>
        <time>2008-06-29T12:19:05Z</time>
      </trkpt>
      <trkpt lat="46.244051456451416" lon="8.284313678741455">
        <ele>1495.468017578125</ele>
        <time>2008-06-29T12:19:10Z</time>
      </trkpt>
      <trkpt lat="46.243987083435059" lon="8.284292221069336">
        <ele>1493.064697265625</ele>
        <time>2008-06-29T12:19:18Z</time>
      </trkpt>
      <trkpt lat="46.243836879730225" lon="8.284249305725098">
        <ele>1489.219482421875</ele>
        <time>2008-06-29T12:19:27Z</time>
      </trkpt>
      <trkpt lat="46.243772506713867" lon="8.284292221069336">
        <ele>1488.25830078125</ele>
        <time>2008-06-29T12:19:33Z</time>
      </trkpt>
      <trkpt lat="46.243772506713867" lon="8.284292221069336">
        <ele>1486.816162109375</ele>
        <time>2008-06-29T12:19:51Z</time>
      </trkpt>
      <trkpt lat="46.243751049041748" lon="8.284270763397217">
        <ele>1485.85498046875</ele>
        <time>2008-06-29T12:19:58Z</time>
      </trkpt>
      <trkpt lat="46.243751049041748" lon="8.284270763397217">
        <ele>1485.85498046875</ele>
        <time>2008-06-29T12:20:15Z</time>
      </trkpt>
      <trkpt lat="46.243729591369629" lon="8.284270763397217">
        <ele>1484.4130859375</ele>
        <time>2008-06-29T12:20:23Z</time>
      </trkpt>
      <trkpt lat="46.24370813369751" lon="8.284292221069336">
        <ele>1483.93212890625</ele>
        <time>2008-06-29T12:20:32Z</time>
      </trkpt>
      <trkpt lat="46.24370813369751" lon="8.284313678741455">
        <ele>1483.451416015625</ele>
        <time>2008-06-29T12:20:36Z</time>
      </trkpt>
      <trkpt lat="46.24370813369751" lon="8.284399509429932">
        <ele>1481.04833984375</ele>
        <time>2008-06-29T12:20:41Z</time>
      </trkpt>
      <trkpt lat="46.24370813369751" lon="8.284420967102051">
        <ele>1480.0869140625</ele>
        <time>2008-06-29T12:20:44Z</time>
      </trkpt>
      <trkpt lat="46.243729591369629" lon="8.284528255462647">
        <ele>1477.203125</ele>
        <time>2008-06-29T12:20:51Z</time>
      </trkpt>
      <trkpt lat="46.24370813369751" lon="8.284592628479004">
        <ele>1476.722412109375</ele>
        <time>2008-06-29T12:21:01Z</time>
      </trkpt>
      <trkpt lat="46.243729591369629" lon="8.284657001495361">
        <ele>1474.7998046875</ele>
        <time>2008-06-29T12:21:10Z</time>
      </trkpt>
      <trkpt lat="46.24370813369751" lon="8.2846999168396">
        <ele>1473.35791015625</ele>
        <time>2008-06-29T12:21:20Z</time>
      </trkpt>
      <trkpt lat="46.243665218353271" lon="8.284721374511719">
        <ele>1469.9931640625</ele>
        <time>2008-06-29T12:21:26Z</time>
      </trkpt>
      <trkpt lat="46.243579387664795" lon="8.284721374511719">
        <ele>1470.473876953125</ele>
        <time>2008-06-29T12:21:38Z</time>
      </trkpt>
      <trkpt lat="46.243557929992676" lon="8.284721374511719">
        <ele>1470.95458984375</ele>
        <time>2008-06-29T12:21:40Z</time>
      </trkpt>
      <trkpt lat="46.243493556976318" lon="8.2846999168396">
        <ele>1469.5126953125</ele>
        <time>2008-06-29T12:21:46Z</time>
      </trkpt>
      <trkpt lat="46.243429183959961" lon="8.284657001495361">
        <ele>1467.589599609375</ele>
        <time>2008-06-29T12:21:55Z</time>
      </trkpt>
      <trkpt lat="46.243386268615723" lon="8.284657001495361">
        <ele>1467.109130859375</ele>
        <time>2008-06-29T12:22:03Z</time>
      </trkpt>
      <trkpt lat="46.243386268615723" lon="8.284678459167481">
        <ele>1467.109130859375</ele>
        <time>2008-06-29T12:22:06Z</time>
      </trkpt>
      <trkpt lat="46.243429183959961" lon="8.284785747528076">
        <ele>1466.147705078125</ele>
        <time>2008-06-29T12:22:10Z</time>
      </trkpt>
      <trkpt lat="46.24345064163208" lon="8.284850120544434">
        <ele>1465.1865234375</ele>
        <time>2008-06-29T12:22:12Z</time>
      </trkpt>
      <trkpt lat="46.24345064163208" lon="8.285236358642578">
        <ele>1468.55126953125</ele>
        <time>2008-06-29T12:22:20Z</time>
      </trkpt>
      <trkpt lat="46.243429183959961" lon="8.285408020019531">
        <ele>1467.109130859375</ele>
        <time>2008-06-29T12:22:24Z</time>
      </trkpt>
      <trkpt lat="46.24345064163208" lon="8.285472393035889">
        <ele>1464.705810546875</ele>
        <time>2008-06-29T12:22:26Z</time>
      </trkpt>
      <trkpt lat="46.243407726287842" lon="8.285536766052246">
        <ele>1461.34130859375</ele>
        <time>2008-06-29T12:22:30Z</time>
      </trkpt>
      <trkpt lat="46.243343353271484" lon="8.285579681396484">
        <ele>1458.457275390625</ele>
        <time>2008-06-29T12:22:33Z</time>
      </trkpt>
      <trkpt lat="46.243321895599365" lon="8.285644054412842">
        <ele>1455.573486328125</ele>
        <time>2008-06-29T12:22:36Z</time>
      </trkpt>
      <trkpt lat="46.243321895599365" lon="8.285729885101318">
        <ele>1449.805419921875</ele>
        <time>2008-06-29T12:22:44Z</time>
      </trkpt>
      <trkpt lat="46.243321895599365" lon="8.285729885101318">
        <ele>1449.32470703125</ele>
        <time>2008-06-29T12:22:45Z</time>
      </trkpt>
      <trkpt lat="46.243300437927246" lon="8.285794258117676">
        <ele>1446.44091796875</ele>
        <time>2008-06-29T12:22:52Z</time>
      </trkpt>
      <trkpt lat="46.243278980255127" lon="8.285815715789795">
        <ele>1444.03759765625</ele>
        <time>2008-06-29T12:22:57Z</time>
      </trkpt>
      <trkpt lat="46.243236064910889" lon="8.285858631134033">
        <ele>1441.153564453125</ele>
        <time>2008-06-29T12:23:01Z</time>
      </trkpt>
      <trkpt lat="46.243128776550293" lon="8.285923004150391">
        <ele>1436.82763671875</ele>
        <time>2008-06-29T12:23:10Z</time>
      </trkpt>
      <trkpt lat="46.243000030517578" lon="8.285987377166748">
        <ele>1430.5791015625</ele>
        <time>2008-06-29T12:23:15Z</time>
      </trkpt>
      <trkpt lat="46.24295711517334" lon="8.286051750183106">
        <ele>1427.214599609375</ele>
        <time>2008-06-29T12:23:19Z</time>
      </trkpt>
      <trkpt lat="46.242914199829102" lon="8.286137580871582">
        <ele>1423.849853515625</ele>
        <time>2008-06-29T12:23:25Z</time>
      </trkpt>
      <trkpt lat="46.242871284484863" lon="8.286287784576416">
        <ele>1421.92724609375</ele>
        <time>2008-06-29T12:23:32Z</time>
      </trkpt>
      <trkpt lat="46.242914199829102" lon="8.286352157592773">
        <ele>1420.004638671875</ele>
        <time>2008-06-29T12:23:38Z</time>
      </trkpt>
      <trkpt lat="46.242914199829102" lon="8.286416530609131">
        <ele>1417.60107421875</ele>
        <time>2008-06-29T12:23:46Z</time>
      </trkpt>
      <trkpt lat="46.242914199829102" lon="8.286566734313965">
        <ele>1414.236572265625</ele>
        <time>2008-06-29T12:23:51Z</time>
      </trkpt>
      <trkpt lat="46.242914199829102" lon="8.286674022674561">
        <ele>1411.352783203125</ele>
        <time>2008-06-29T12:23:56Z</time>
      </trkpt>
      <trkpt lat="46.242935657501221" lon="8.286824226379395">
        <ele>1410.8720703125</ele>
        <time>2008-06-29T12:24:00Z</time>
      </trkpt>
      <trkpt lat="46.242871284484863" lon="8.287038803100586">
        <ele>1410.8720703125</ele>
        <time>2008-06-29T12:24:06Z</time>
      </trkpt>
      <trkpt lat="46.242828369140625" lon="8.287038803100586">
        <ele>1407.507568359375</ele>
        <time>2008-06-29T12:24:12Z</time>
      </trkpt>
      <trkpt lat="46.242828369140625" lon="8.287060260772705">
        <ele>1402.219970703125</ele>
        <time>2008-06-29T12:24:31Z</time>
      </trkpt>
      <trkpt lat="46.242785453796387" lon="8.287017345428467">
        <ele>1402.219970703125</ele>
        <time>2008-06-29T12:25:22Z</time>
      </trkpt>
      <trkpt lat="46.242763996124268" lon="8.287017345428467">
        <ele>1399.336181640625</ele>
        <time>2008-06-29T12:25:28Z</time>
      </trkpt>
      <trkpt lat="46.242742538452148" lon="8.286974430084229">
        <ele>1398.85546875</ele>
        <time>2008-06-29T12:25:35Z</time>
      </trkpt>
      <trkpt lat="46.242656707763672" lon="8.286781311035156">
        <ele>1398.85546875</ele>
        <time>2008-06-29T12:25:41Z</time>
      </trkpt>
      <trkpt lat="46.242592334747314" lon="8.286759853363037">
        <ele>1398.85546875</ele>
        <time>2008-06-29T12:25:45Z</time>
      </trkpt>
      <trkpt lat="46.242506504058838" lon="8.286738395690918">
        <ele>1395.9716796875</ele>
        <time>2008-06-29T12:25:51Z</time>
      </trkpt>
      <trkpt lat="46.242377758026123" lon="8.286845684051514">
        <ele>1390.203857421875</ele>
        <time>2008-06-29T12:25:58Z</time>
      </trkpt>
      <trkpt lat="46.242356300354004" lon="8.286781311035156">
        <ele>1386.8388671875</ele>
        <time>2008-06-29T12:26:04Z</time>
      </trkpt>
      <trkpt lat="46.242399215698242" lon="8.28669548034668">
        <ele>1384.435791015625</ele>
        <time>2008-06-29T12:26:14Z</time>
      </trkpt>
      <trkpt lat="46.242377758026123" lon="8.286631107330322">
        <ele>1387.319580078125</ele>
        <time>2008-06-29T12:26:21Z</time>
      </trkpt>
      <trkpt lat="46.242356300354004" lon="8.286674022674561">
        <ele>1389.72314453125</ele>
        <time>2008-06-29T12:26:34Z</time>
      </trkpt>
      <trkpt lat="46.242270469665527" lon="8.286781311035156">
        <ele>1391.1650390625</ele>
        <time>2008-06-29T12:26:54Z</time>
      </trkpt>
      <trkpt lat="46.242227554321289" lon="8.286802768707275">
        <ele>1387.319580078125</ele>
        <time>2008-06-29T12:27:10Z</time>
      </trkpt>
      <trkpt lat="46.242184638977051" lon="8.286781311035156">
        <ele>1382.032470703125</ele>
        <time>2008-06-29T12:27:18Z</time>
      </trkpt>
      <trkpt lat="46.242141723632813" lon="8.286738395690918">
        <ele>1380.590576171875</ele>
        <time>2008-06-29T12:27:25Z</time>
      </trkpt>
      <trkpt lat="46.242055892944336" lon="8.286652565002441">
        <ele>1380.10986328125</ele>
        <time>2008-06-29T12:27:35Z</time>
      </trkpt>
      <trkpt lat="46.242055892944336" lon="8.286652565002441">
        <ele>1382.51318359375</ele>
        <time>2008-06-29T12:27:47Z</time>
      </trkpt>
      <trkpt lat="46.242055892944336" lon="8.286652565002441">
        <ele>1382.99365234375</ele>
        <time>2008-06-29T12:27:50Z</time>
      </trkpt>
      <trkpt lat="46.241991519927979" lon="8.286738395690918">
        <ele>1381.5517578125</ele>
        <time>2008-06-29T12:27:55Z</time>
      </trkpt>
      <trkpt lat="46.241905689239502" lon="8.28669548034668">
        <ele>1378.66796875</ele>
        <time>2008-06-29T12:28:01Z</time>
      </trkpt>
      <trkpt lat="46.241884231567383" lon="8.28669548034668">
        <ele>1377.70654296875</ele>
        <time>2008-06-29T12:28:02Z</time>
      </trkpt>
      <trkpt lat="46.241841316223145" lon="8.286716938018799">
        <ele>1374.342041015625</ele>
        <time>2008-06-29T12:28:05Z</time>
      </trkpt>
      <trkpt lat="46.241819858551025" lon="8.286781311035156">
        <ele>1370.015869140625</ele>
        <time>2008-06-29T12:28:11Z</time>
      </trkpt>
      <trkpt lat="46.241819858551025" lon="8.286802768707275">
        <ele>1367.132080078125</ele>
        <time>2008-06-29T12:28:29Z</time>
      </trkpt>
      <trkpt lat="46.241841316223145" lon="8.286867141723633">
        <ele>1358.480224609375</ele>
        <time>2008-06-29T12:31:48Z</time>
      </trkpt>
      <trkpt lat="46.241905689239502" lon="8.287146091461182">
        <ele>1355.59619140625</ele>
        <time>2008-06-29T12:31:52Z</time>
      </trkpt>
      <trkpt lat="46.241905689239502" lon="8.287274837493897">
        <ele>1354.154296875</ele>
        <time>2008-06-29T12:31:56Z</time>
      </trkpt>
      <trkpt lat="46.241905689239502" lon="8.287274837493897">
        <ele>1354.154296875</ele>
        <time>2008-06-29T12:31:57Z</time>
      </trkpt>
      <trkpt lat="46.241884231567383" lon="8.287274837493897">
        <ele>1353.673583984375</ele>
        <time>2008-06-29T12:31:59Z</time>
      </trkpt>
      <trkpt lat="46.241841316223145" lon="8.287231922149658">
        <ele>1353.673583984375</ele>
        <time>2008-06-29T12:32:03Z</time>
      </trkpt>
      <trkpt lat="46.241734027862549" lon="8.287081718444824">
        <ele>1350.78955078125</ele>
        <time>2008-06-29T12:32:10Z</time>
      </trkpt>
      <trkpt lat="46.241605281829834" lon="8.287017345428467">
        <ele>1347.90576171875</ele>
        <time>2008-06-29T12:32:15Z</time>
      </trkpt>
      <trkpt lat="46.241519451141357" lon="8.286867141723633">
        <ele>1346.9443359375</ele>
        <time>2008-06-29T12:32:21Z</time>
      </trkpt>
      <trkpt lat="46.241476535797119" lon="8.286845684051514">
        <ele>1346.9443359375</ele>
        <time>2008-06-29T12:32:23Z</time>
      </trkpt>
      <trkpt lat="46.241412162780762" lon="8.286995887756348">
        <ele>1344.541015625</ele>
        <time>2008-06-29T12:32:27Z</time>
      </trkpt>
      <trkpt lat="46.241390705108643" lon="8.287210464477539">
        <ele>1343.09912109375</ele>
        <time>2008-06-29T12:32:33Z</time>
      </trkpt>
      <trkpt lat="46.241369247436523" lon="8.287253379821777">
        <ele>1342.61865234375</ele>
        <time>2008-06-29T12:32:35Z</time>
      </trkpt>
      <trkpt lat="46.241347789764404" lon="8.287253379821777">
        <ele>1337.811767578125</ele>
        <time>2008-06-29T12:32:42Z</time>
      </trkpt>
      <trkpt lat="46.241304874420166" lon="8.287274837493897">
        <ele>1321.949951171875</ele>
        <time>2008-06-29T12:33:02Z</time>
      </trkpt>
      <trkpt lat="46.24119758605957" lon="8.287425041198731">
        <ele>1320.98876953125</ele>
        <time>2008-06-29T12:33:11Z</time>
      </trkpt>
      <trkpt lat="46.241111755371094" lon="8.287553787231445">
        <ele>1321.46923828125</ele>
        <time>2008-06-29T12:33:18Z</time>
      </trkpt>
      <trkpt lat="46.241090297698975" lon="8.287553787231445">
        <ele>1321.46923828125</ele>
        <time>2008-06-29T12:33:19Z</time>
      </trkpt>
      <trkpt lat="46.241004467010498" lon="8.287467956542969">
        <ele>1321.46923828125</ele>
        <time>2008-06-29T12:33:28Z</time>
      </trkpt>
      <trkpt lat="46.240983009338379" lon="8.287467956542969">
        <ele>1326.7568359375</ele>
        <time>2008-06-29T12:33:58Z</time>
      </trkpt>
      <trkpt lat="46.240940093994141" lon="8.287425041198731">
        <ele>1327.237548828125</ele>
        <time>2008-06-29T12:34:09Z</time>
      </trkpt>
      <trkpt lat="46.240918636322021" lon="8.287425041198731">
        <ele>1325.79541015625</ele>
        <time>2008-06-29T12:34:11Z</time>
      </trkpt>
      <trkpt lat="46.240875720977783" lon="8.287467956542969">
        <ele>1320.02734375</ele>
        <time>2008-06-29T12:34:22Z</time>
      </trkpt>
      <trkpt lat="46.240875720977783" lon="8.287618160247803">
        <ele>1316.662841796875</ele>
        <time>2008-06-29T12:34:45Z</time>
      </trkpt>
      <trkpt lat="46.240832805633545" lon="8.287832736968994">
        <ele>1317.6240234375</ele>
        <time>2008-06-29T12:34:55Z</time>
      </trkpt>
      <trkpt lat="46.240832805633545" lon="8.287854194641113">
        <ele>1314.259521484375</ele>
        <time>2008-06-29T12:35:00Z</time>
      </trkpt>
      <trkpt lat="46.240789890289307" lon="8.288004398345947">
        <ele>1316.662841796875</ele>
        <time>2008-06-29T12:35:09Z</time>
      </trkpt>
      <trkpt lat="46.240789890289307" lon="8.288090229034424">
        <ele>1317.1435546875</ele>
        <time>2008-06-29T12:35:15Z</time>
      </trkpt>
      <trkpt lat="46.240746974945068" lon="8.28819751739502">
        <ele>1316.18212890625</ele>
        <time>2008-06-29T12:35:25Z</time>
      </trkpt>
      <trkpt lat="46.240746974945068" lon="8.288347721099854">
        <ele>1316.662841796875</ele>
        <time>2008-06-29T12:35:35Z</time>
      </trkpt>
      <trkpt lat="46.24070405960083" lon="8.288519382476807">
        <ele>1318.58544921875</ele>
        <time>2008-06-29T12:35:44Z</time>
      </trkpt>
      <trkpt lat="46.240682601928711" lon="8.28869104385376">
        <ele>1315.70166015625</ele>
        <time>2008-06-29T12:35:51Z</time>
      </trkpt>
      <trkpt lat="46.240682601928711" lon="8.288755416870117">
        <ele>1308.972412109375</ele>
        <time>2008-06-29T12:36:05Z</time>
      </trkpt>
      <trkpt lat="46.240532398223877" lon="8.288969993591309">
        <ele>1305.126953125</ele>
        <time>2008-06-29T12:36:11Z</time>
      </trkpt>
      <trkpt lat="46.240425109863281" lon="8.2891845703125">
        <ele>1301.28173828125</ele>
        <time>2008-06-29T12:36:18Z</time>
      </trkpt>
      <trkpt lat="46.240425109863281" lon="8.289206027984619">
        <ele>1301.28173828125</ele>
        <time>2008-06-29T12:36:19Z</time>
      </trkpt>
      <trkpt lat="46.240317821502686" lon="8.289313316345215">
        <ele>1300.320556640625</ele>
        <time>2008-06-29T12:36:24Z</time>
      </trkpt>
      <trkpt lat="46.240296363830566" lon="8.289313316345215">
        <ele>1298.397705078125</ele>
        <time>2008-06-29T12:36:32Z</time>
      </trkpt>
      <trkpt lat="46.240253448486328" lon="8.289420604705811">
        <ele>1296.475341796875</ele>
        <time>2008-06-29T12:36:48Z</time>
      </trkpt>
      <trkpt lat="46.240124702453613" lon="8.289635181427002">
        <ele>1293.59130859375</ele>
        <time>2008-06-29T12:37:00Z</time>
      </trkpt>
      <trkpt lat="46.240060329437256" lon="8.289892673492432">
        <ele>1289.745849609375</ele>
        <time>2008-06-29T12:37:05Z</time>
      </trkpt>
      <trkpt lat="46.239888668060303" lon="8.2901930809021">
        <ele>1286.38134765625</ele>
        <time>2008-06-29T12:37:12Z</time>
      </trkpt>
      <trkpt lat="46.23971700668335" lon="8.290557861328125">
        <ele>1284.458740234375</ele>
        <time>2008-06-29T12:37:22Z</time>
      </trkpt>
      <trkpt lat="46.239588260650635" lon="8.290815353393555">
        <ele>1283.497314453125</ele>
        <time>2008-06-29T12:37:27Z</time>
      </trkpt>
      <trkpt lat="46.239502429962158" lon="8.291029930114746">
        <ele>1283.0166015625</ele>
        <time>2008-06-29T12:37:30Z</time>
      </trkpt>
      <trkpt lat="46.239373683929443" lon="8.291223049163818">
        <ele>1279.652099609375</ele>
        <time>2008-06-29T12:37:35Z</time>
      </trkpt>
      <trkpt lat="46.239352226257324" lon="8.291244506835938">
        <ele>1279.17138671875</ele>
        <time>2008-06-29T12:37:37Z</time>
      </trkpt>
      <trkpt lat="46.23920202255249" lon="8.291330337524414">
        <ele>1277.7294921875</ele>
        <time>2008-06-29T12:37:42Z</time>
      </trkpt>
      <trkpt lat="46.239030361175537" lon="8.291373252868652">
        <ele>1274.845458984375</ele>
        <time>2008-06-29T12:37:46Z</time>
      </trkpt>
      <trkpt lat="46.238880157470703" lon="8.291459083557129">
        <ele>1270.51953125</ele>
        <time>2008-06-29T12:37:50Z</time>
      </trkpt>
      <trkpt lat="46.238729953765869" lon="8.291523456573486">
        <ele>1267.635498046875</ele>
        <time>2008-06-29T12:37:54Z</time>
      </trkpt>
      <trkpt lat="46.238536834716797" lon="8.29169511795044">
        <ele>1264.27099609375</ele>
        <time>2008-06-29T12:38:01Z</time>
      </trkpt>
      <trkpt lat="46.23845100402832" lon="8.292145729064941">
        <ele>1262.348388671875</ele>
        <time>2008-06-29T12:38:11Z</time>
      </trkpt>
      <trkpt lat="46.23845100402832" lon="8.292295932769775">
        <ele>1262.348388671875</ele>
        <time>2008-06-29T12:38:14Z</time>
      </trkpt>
      <trkpt lat="46.238472461700439" lon="8.292403221130371">
        <ele>1261.867919921875</ele>
        <time>2008-06-29T12:38:16Z</time>
      </trkpt>
      <trkpt lat="46.23870849609375" lon="8.292810916900635">
        <ele>1258.5029296875</ele>
        <time>2008-06-29T12:38:22Z</time>
      </trkpt>
      <trkpt lat="46.238858699798584" lon="8.293046951293945">
        <ele>1256.099609375</ele>
        <time>2008-06-29T12:38:27Z</time>
      </trkpt>
      <trkpt lat="46.238987445831299" lon="8.293368816375732">
        <ele>1254.17724609375</ele>
        <time>2008-06-29T12:38:36Z</time>
      </trkpt>
      <trkpt lat="46.239094734191895" lon="8.293969631195068">
        <ele>1252.25439453125</ele>
        <time>2008-06-29T12:38:50Z</time>
      </trkpt>
      <trkpt lat="46.239116191864014" lon="8.294355869293213">
        <ele>1250.8125</ele>
        <time>2008-06-29T12:38:58Z</time>
      </trkpt>
      <trkpt lat="46.238923072814941" lon="8.294377326965332">
        <ele>1248.4091796875</ele>
        <time>2008-06-29T12:39:05Z</time>
      </trkpt>
      <trkpt lat="46.238858699798584" lon="8.294312953948975">
        <ele>1248.4091796875</ele>
        <time>2008-06-29T12:39:07Z</time>
      </trkpt>
      <trkpt lat="46.238601207733154" lon="8.294055461883545">
        <ele>1246.006103515625</ele>
        <time>2008-06-29T12:39:14Z</time>
      </trkpt>
      <trkpt lat="46.238493919372559" lon="8.294055461883545">
        <ele>1243.121826171875</ele>
        <time>2008-06-29T12:39:17Z</time>
      </trkpt>
      <trkpt lat="46.238472461700439" lon="8.294162750244141">
        <ele>1242.16064453125</ele>
        <time>2008-06-29T12:39:19Z</time>
      </trkpt>
      <trkpt lat="46.238601207733154" lon="8.294527530670166">
        <ele>1235.912109375</ele>
        <time>2008-06-29T12:39:25Z</time>
      </trkpt>
      <trkpt lat="46.238601207733154" lon="8.294785022735596">
        <ele>1232.06689453125</ele>
        <time>2008-06-29T12:39:30Z</time>
      </trkpt>
      <trkpt lat="46.238622665405273" lon="8.295085430145264">
        <ele>1221.01171875</ele>
        <time>2008-06-29T12:39:37Z</time>
      </trkpt>
      <trkpt lat="46.238687038421631" lon="8.295214176177979">
        <ele>1217.64697265625</ele>
        <time>2008-06-29T12:39:40Z</time>
      </trkpt>
      <trkpt lat="46.238515377044678" lon="8.295257091522217">
        <ele>1209.956298828125</ele>
        <time>2008-06-29T12:39:47Z</time>
      </trkpt>
      <trkpt lat="46.238493919372559" lon="8.295257091522217">
        <ele>1208.514404296875</ele>
        <time>2008-06-29T12:39:48Z</time>
      </trkpt>
      <trkpt lat="46.238515377044678" lon="8.295407295227051">
        <ele>1202.265869140625</ele>
        <time>2008-06-29T12:39:53Z</time>
      </trkpt>
      <trkpt lat="46.238794326782227" lon="8.295643329620361">
        <ele>1197.45947265625</ele>
        <time>2008-06-29T12:40:00Z</time>
      </trkpt>
      <trkpt lat="46.23896598815918" lon="8.295857906341553">
        <ele>1196.978759765625</ele>
        <time>2008-06-29T12:40:06Z</time>
      </trkpt>
      <trkpt lat="46.239030361175537" lon="8.295986652374268">
        <ele>1196.978759765625</ele>
        <time>2008-06-29T12:40:09Z</time>
      </trkpt>
      <trkpt lat="46.23896598815918" lon="8.296651840209961">
        <ele>1196.978759765625</ele>
        <time>2008-06-29T12:40:17Z</time>
      </trkpt>
      <trkpt lat="46.239008903503418" lon="8.297123908996582">
        <ele>1186.884765625</ele>
        <time>2008-06-29T12:40:21Z</time>
      </trkpt>
      <trkpt lat="46.238987445831299" lon="8.29791784286499">
        <ele>1177.752197265625</ele>
        <time>2008-06-29T12:40:25Z</time>
      </trkpt>
      <trkpt lat="46.23896598815918" lon="8.298110961914063">
        <ele>1172.465087890625</ele>
        <time>2008-06-29T12:40:27Z</time>
      </trkpt>
      <trkpt lat="46.239008903503418" lon="8.298583030700684">
        <ele>1160.448486328125</ele>
        <time>2008-06-29T12:40:32Z</time>
      </trkpt>
      <trkpt lat="46.239073276519775" lon="8.298754692077637">
        <ele>1155.64208984375</ele>
        <time>2008-06-29T12:40:34Z</time>
      </trkpt>
      <trkpt lat="46.239116191864014" lon="8.299119472503662">
        <ele>1146.02880859375</ele>
        <time>2008-06-29T12:40:39Z</time>
      </trkpt>
      <trkpt lat="46.239116191864014" lon="8.299505710601807">
        <ele>1134.012451171875</ele>
        <time>2008-06-29T12:40:46Z</time>
      </trkpt>
      <trkpt lat="46.23920202255249" lon="8.299698829650879">
        <ele>1127.283203125</ele>
        <time>2008-06-29T12:40:50Z</time>
      </trkpt>
      <trkpt lat="46.239309310913086" lon="8.299870491027832">
        <ele>1123.43798828125</ele>
        <time>2008-06-29T12:40:53Z</time>
      </trkpt>
      <trkpt lat="46.239352226257324" lon="8.300106525421143">
        <ele>1120.0732421875</ele>
        <time>2008-06-29T12:40:56Z</time>
      </trkpt>
      <trkpt lat="46.239395141601563" lon="8.300449848175049">
        <ele>1114.785888671875</ele>
        <time>2008-06-29T12:41:02Z</time>
      </trkpt>
      <trkpt lat="46.239416599273682" lon="8.301200866699219">
        <ele>1111.902099609375</ele>
        <time>2008-06-29T12:41:15Z</time>
      </trkpt>
      <trkpt lat="46.239330768585205" lon="8.301308155059815">
        <ele>1107.576171875</ele>
        <time>2008-06-14T10:20:46Z</time>
      </trkpt>
      <trkpt lat="46.239395141601563" lon="8.301651477813721">
        <ele>1107.095458984375</ele>
        <time>2008-06-14T10:21:00Z</time>
      </trkpt>
      <trkpt lat="46.239545345306396" lon="8.301951885223389">
        <ele>1105.1728515625</ele>
        <time>2008-06-14T10:21:20Z</time>
      </trkpt>
      <trkpt lat="46.239588260650635" lon="8.302145004272461">
        <ele>1101.808349609375</ele>
        <time>2008-06-14T10:21:28Z</time>
      </trkpt>
      <trkpt lat="46.239631175994873" lon="8.302273750305176">
        <ele>1097.962890625</ele>
        <time>2008-06-14T10:21:33Z</time>
      </trkpt>
      <trkpt lat="46.239674091339111" lon="8.302316665649414">
        <ele>1097.00146484375</ele>
        <time>2008-06-14T10:21:35Z</time>
      </trkpt>
      <trkpt lat="46.23971700668335" lon="8.302552700042725">
        <ele>1093.636962890625</ele>
        <time>2008-06-14T10:21:43Z</time>
      </trkpt>
      <trkpt lat="46.239738464355469" lon="8.30268144607544">
        <ele>1090.7529296875</ele>
        <time>2008-06-14T10:21:47Z</time>
      </trkpt>
      <trkpt lat="46.239738464355469" lon="8.302702903747559">
        <ele>1090.7529296875</ele>
        <time>2008-06-14T10:21:48Z</time>
      </trkpt>
      <trkpt lat="46.239759922027588" lon="8.302788734436035">
        <ele>1087.388427734375</ele>
        <time>2008-06-14T10:21:51Z</time>
      </trkpt>
      <trkpt lat="46.239781379699707" lon="8.302896022796631">
        <ele>1083.54296875</ele>
        <time>2008-06-14T10:21:55Z</time>
      </trkpt>
      <trkpt lat="46.239824295043945" lon="8.303003311157227">
        <ele>1080.6591796875</ele>
        <time>2008-06-14T10:21:59Z</time>
      </trkpt>
      <trkpt lat="46.239824295043945" lon="8.303024768829346">
        <ele>1080.178466796875</ele>
        <time>2008-06-14T10:22:00Z</time>
      </trkpt>
      <trkpt lat="46.239845752716064" lon="8.303089141845703">
        <ele>1078.736572265625</ele>
        <time>2008-06-14T10:22:02Z</time>
      </trkpt>
      <trkpt lat="46.239845752716064" lon="8.303132057189941">
        <ele>1077.775146484375</ele>
        <time>2008-06-14T10:22:04Z</time>
      </trkpt>
      <trkpt lat="46.240339279174805" lon="8.304505348205566">
        <ele>1070.084716796875</ele>
        <time>2008-06-14T10:22:32Z</time>
      </trkpt>
      <trkpt lat="46.240146160125732" lon="8.304870128631592">
        <ele>1066.719970703125</ele>
        <time>2008-06-14T10:22:44Z</time>
      </trkpt>
      <trkpt lat="46.240146160125732" lon="8.30491304397583">
        <ele>1066.719970703125</ele>
        <time>2008-06-14T10:22:45Z</time>
      </trkpt>
      <trkpt lat="46.240103244781494" lon="8.304998874664307">
        <ele>1063.8359375</ele>
        <time>2008-06-14T10:22:48Z</time>
      </trkpt>
      <trkpt lat="46.240038871765137" lon="8.305106163024902">
        <ele>1059.51025390625</ele>
        <time>2008-06-14T10:22:52Z</time>
      </trkpt>
      <trkpt lat="46.240017414093018" lon="8.305127620697022">
        <ele>1059.51025390625</ele>
        <time>2008-06-14T10:22:53Z</time>
      </trkpt>
      <trkpt lat="46.239974498748779" lon="8.305234909057617">
        <ele>1056.1455078125</ele>
        <time>2008-06-14T10:22:57Z</time>
      </trkpt>
      <trkpt lat="46.239910125732422" lon="8.305342197418213">
        <ele>1053.26171875</ele>
        <time>2008-06-14T10:23:01Z</time>
      </trkpt>
      <trkpt lat="46.240489482879639" lon="8.30791711807251">
        <ele>1004.715087890625</ele>
        <time>2008-06-14T10:25:09Z</time>
      </trkpt>
      <trkpt lat="46.23971700668335" lon="8.308045864105225">
        <ele>963.85888671875</ele>
        <time>2008-06-14T10:26:31Z</time>
      </trkpt>
      <trkpt lat="46.23969554901123" lon="8.308260440826416">
        <ele>962.897705078125</ele>
        <time>2008-06-14T10:26:46Z</time>
      </trkpt>
      <trkpt lat="46.23969554901123" lon="8.308281898498535">
        <ele>959.533203125</ele>
        <time>2008-06-14T10:26:49Z</time>
      </trkpt>
      <trkpt lat="46.239674091339111" lon="8.308281898498535">
        <ele>952.8037109375</ele>
        <time>2008-06-14T10:27:00Z</time>
      </trkpt>
      <trkpt lat="46.239609718322754" lon="8.308217525482178">
        <ele>950.881103515625</ele>
        <time>2008-06-14T10:27:02Z</time>
      </trkpt>
      <trkpt lat="46.23945951461792" lon="8.308217525482178">
        <ele>945.593994140625</ele>
        <time>2008-06-14T10:27:09Z</time>
      </trkpt>
      <trkpt lat="46.239373683929443" lon="8.308238983154297">
        <ele>943.190673828125</ele>
        <time>2008-06-14T10:27:12Z</time>
      </trkpt>
      <trkpt lat="46.239309310913086" lon="8.308281898498535">
        <ele>940.306884765625</ele>
        <time>2008-06-14T10:27:14Z</time>
      </trkpt>
      <trkpt lat="46.239287853240967" lon="8.308303356170654">
        <ele>936.94189453125</ele>
        <time>2008-06-14T10:27:16Z</time>
      </trkpt>
      <trkpt lat="46.239244937896729" lon="8.308346271514893">
        <ele>936.94189453125</ele>
        <time>2008-06-14T10:27:17Z</time>
      </trkpt>
      <trkpt lat="46.239223480224609" lon="8.308367729187012">
        <ele>935.5</ele>
        <time>2008-06-14T10:27:19Z</time>
      </trkpt>
      <trkpt lat="46.239159107208252" lon="8.30841064453125">
        <ele>932.135498046875</ele>
        <time>2008-06-14T10:27:22Z</time>
      </trkpt>
      <trkpt lat="46.239116191864014" lon="8.308453559875488">
        <ele>929.25146484375</ele>
        <time>2008-06-14T10:27:24Z</time>
      </trkpt>
      <trkpt lat="46.239030361175537" lon="8.308517932891846">
        <ele>925.40625</ele>
        <time>2008-06-14T10:27:27Z</time>
      </trkpt>
      <trkpt lat="46.239008903503418" lon="8.308539390563965">
        <ele>925.40625</ele>
        <time>2008-06-14T10:27:28Z</time>
      </trkpt>
      <trkpt lat="46.23896598815918" lon="8.308603763580322">
        <ele>922.04150390625</ele>
        <time>2008-06-14T10:27:31Z</time>
      </trkpt>
      <trkpt lat="46.238901615142822" lon="8.30866813659668">
        <ele>916.75439453125</ele>
        <time>2008-06-14T10:27:34Z</time>
      </trkpt>
      <trkpt lat="46.238772869110107" lon="8.308818340301514">
        <ele>913.870361328125</ele>
        <time>2008-06-14T10:27:42Z</time>
      </trkpt>
      <trkpt lat="46.238622665405273" lon="8.309032917022705">
        <ele>916.273681640625</ele>
        <time>2008-06-14T10:27:55Z</time>
      </trkpt>
      <trkpt lat="46.238322257995605" lon="8.309397697448731">
        <ele>915.793212890625</ele>
        <time>2008-06-14T10:28:38Z</time>
      </trkpt>
      <trkpt lat="46.238300800323486" lon="8.309311866760254">
        <ele>916.273681640625</ele>
        <time>2008-06-14T10:29:01Z</time>
      </trkpt>
      <trkpt lat="46.238300800323486" lon="8.309397697448731">
        <ele>915.793212890625</ele>
        <time>2008-06-14T10:29:06Z</time>
      </trkpt>
      <trkpt lat="46.238300800323486" lon="8.309483528137207">
        <ele>912.428466796875</ele>
        <time>2008-06-14T10:29:10Z</time>
      </trkpt>
      <trkpt lat="46.238300800323486" lon="8.309504985809326">
        <ele>911.947998046875</ele>
        <time>2008-06-14T10:29:11Z</time>
      </trkpt>
      <trkpt lat="46.238300800323486" lon="8.309590816497803">
        <ele>909.06396484375</ele>
        <time>2008-06-14T10:29:15Z</time>
      </trkpt>
      <trkpt lat="46.238279342651367" lon="8.309633731842041">
        <ele>908.583251953125</ele>
        <time>2008-06-14T10:29:16Z</time>
      </trkpt>
      <trkpt lat="46.238257884979248" lon="8.309741020202637">
        <ele>906.660400390625</ele>
        <time>2008-06-14T10:29:20Z</time>
      </trkpt>
      <trkpt lat="46.23821496963501" lon="8.309998512268066">
        <ele>903.776611328125</ele>
        <time>2008-06-14T10:29:28Z</time>
      </trkpt>
      <trkpt lat="46.238150596618652" lon="8.310191631317139">
        <ele>901.85400390625</ele>
        <time>2008-06-14T10:29:34Z</time>
      </trkpt>
      <trkpt lat="46.238043308258057" lon="8.310191631317139">
        <ele>900.412109375</ele>
        <time>2008-06-14T10:29:47Z</time>
      </trkpt>
      <trkpt lat="46.237936019897461" lon="8.310256004333496">
        <ele>900.412109375</ele>
        <time>2008-06-14T10:30:15Z</time>
      </trkpt>
      <trkpt lat="46.237850189208984" lon="8.310256004333496">
        <ele>899.931396484375</ele>
        <time>2008-06-14T10:30:49Z</time>
      </trkpt>
      <trkpt lat="46.237850189208984" lon="8.310277462005615">
        <ele>900.892578125</ele>
        <time>2008-06-14T10:30:50Z</time>
      </trkpt>
      <trkpt lat="46.237850189208984" lon="8.310427665710449">
        <ele>900.412109375</ele>
        <time>2008-06-14T10:30:57Z</time>
      </trkpt>
      <trkpt lat="46.237828731536865" lon="8.310556411743164">
        <ele>899.931396484375</ele>
        <time>2008-06-14T10:31:01Z</time>
      </trkpt>
      <trkpt lat="46.237828731536865" lon="8.310620784759522">
        <ele>899.45068359375</ele>
        <time>2008-06-14T10:31:03Z</time>
      </trkpt>
      <trkpt lat="46.238021850585938" lon="8.310964107513428">
        <ele>898.969970703125</ele>
        <time>2008-06-14T10:31:20Z</time>
      </trkpt>
      <trkpt lat="46.238365173339844" lon="8.311350345611572">
        <ele>894.64404296875</ele>
        <time>2008-06-14T10:31:31Z</time>
      </trkpt>
      <trkpt lat="46.238515377044678" lon="8.311436176300049">
        <ele>891.279296875</ele>
        <time>2008-06-14T10:31:35Z</time>
      </trkpt>
      <trkpt lat="46.238536834716797" lon="8.311457633972168">
        <ele>891.279296875</ele>
        <time>2008-06-14T10:31:36Z</time>
      </trkpt>
      <trkpt lat="46.238622665405273" lon="8.311779499053955">
        <ele>887.43408203125</ele>
        <time>2008-06-14T10:31:40Z</time>
      </trkpt>
      <trkpt lat="46.238772869110107" lon="8.312551975250244">
        <ele>884.55029296875</ele>
        <time>2008-06-14T10:31:49Z</time>
      </trkpt>
    </trkseg>
  </trk>

</gpx>
